<?xml version="1.0" encoding="UTF-8" standalone="no" ?>
<gpx xmlns="http://www.topografix.com/GPX/1/1" xmlns:xsi="http://www.w3.org/2001/XMLSchema-instance" xsi:schemaLocation="http://www.topografix.com/GPX/1/1 http://www.topografix.com/GPX/1/1/gpx.xsd" version="1.1" creator="VisuGPX - https://www.visugpx.com">
  <metadata>
    <name>Arnage Conlie</name>
    <desc><![CDATA[7ème étape du circuit Tours Mont St Michel]]></desc>
  </metadata>
  <trk>
    <name><![CDATA[2016-06-19-01]]></name>
    <trkseg>
      <trkpt lat="48.06567" lon="0.11941">
        <ele>67.5</ele>
        <time>2016-06-19T10:08:39Z</time>
      </trkpt>
      <trkpt lat="48.06567" lon="0.11942">
        <ele>68.5</ele>
        <time>2016-06-19T10:08:40Z</time>
      </trkpt>
      <trkpt lat="48.06566" lon="0.11927">
        <ele>73.6</ele>
        <time>2016-06-19T10:09:20Z</time>
      </trkpt>
      <trkpt lat="48.06576" lon="0.11931">
        <ele>72.1</ele>
        <time>2016-06-19T10:09:38Z</time>
      </trkpt>
      <trkpt lat="48.06585" lon="0.11935">
        <ele>72.7</ele>
        <time>2016-06-19T10:10:21Z</time>
      </trkpt>
      <trkpt lat="48.06594" lon="0.11935">
        <ele>72.2</ele>
        <time>2016-06-19T10:10:30Z</time>
      </trkpt>
      <trkpt lat="48.06604" lon="0.11932">
        <ele>71.9</ele>
        <time>2016-06-19T10:10:39Z</time>
      </trkpt>
      <trkpt lat="48.06614" lon="0.11932">
        <ele>73</ele>
        <time>2016-06-19T10:11:05Z</time>
      </trkpt>
      <trkpt lat="48.06624" lon="0.11934">
        <ele>73.9</ele>
        <time>2016-06-19T10:11:29Z</time>
      </trkpt>
      <trkpt lat="48.06633" lon="0.11931">
        <ele>74.8</ele>
        <time>2016-06-19T10:11:35Z</time>
      </trkpt>
      <trkpt lat="48.06641" lon="0.11925">
        <ele>73.5</ele>
        <time>2016-06-19T10:11:42Z</time>
      </trkpt>
      <trkpt lat="48.0665" lon="0.11924">
        <ele>74.5</ele>
        <time>2016-06-19T10:11:50Z</time>
      </trkpt>
      <trkpt lat="48.06659" lon="0.11926">
        <ele>75.5</ele>
        <time>2016-06-19T10:12:00Z</time>
      </trkpt>
      <trkpt lat="48.06668" lon="0.11922">
        <ele>76.7</ele>
        <time>2016-06-19T10:12:07Z</time>
      </trkpt>
      <trkpt lat="48.06677" lon="0.11928">
        <ele>75.9</ele>
        <time>2016-06-19T10:12:14Z</time>
      </trkpt>
      <trkpt lat="48.06687" lon="0.1193">
        <ele>75.2</ele>
        <time>2016-06-19T10:12:21Z</time>
      </trkpt>
      <trkpt lat="48.06696" lon="0.11929">
        <ele>76.3</ele>
        <time>2016-06-19T10:12:28Z</time>
      </trkpt>
      <trkpt lat="48.06705" lon="0.11928">
        <ele>76.9</ele>
        <time>2016-06-19T10:12:35Z</time>
      </trkpt>
      <trkpt lat="48.06715" lon="0.11924">
        <ele>77.5</ele>
        <time>2016-06-19T10:12:43Z</time>
      </trkpt>
      <trkpt lat="48.06724" lon="0.1192">
        <ele>76.2</ele>
        <time>2016-06-19T10:12:50Z</time>
      </trkpt>
      <trkpt lat="48.06733" lon="0.11917">
        <ele>77.9</ele>
        <time>2016-06-19T10:12:58Z</time>
      </trkpt>
      <trkpt lat="48.06742" lon="0.11913">
        <ele>76.7</ele>
        <time>2016-06-19T10:13:05Z</time>
      </trkpt>
      <trkpt lat="48.06752" lon="0.11907">
        <ele>78.6</ele>
        <time>2016-06-19T10:13:13Z</time>
      </trkpt>
      <trkpt lat="48.0676" lon="0.11902">
        <ele>78.5</ele>
        <time>2016-06-19T10:13:20Z</time>
      </trkpt>
      <trkpt lat="48.06768" lon="0.11895">
        <ele>79.5</ele>
        <time>2016-06-19T10:13:35Z</time>
      </trkpt>
      <trkpt lat="48.06776" lon="0.11888">
        <ele>80.1</ele>
        <time>2016-06-19T10:13:44Z</time>
      </trkpt>
      <trkpt lat="48.06785" lon="0.11882">
        <ele>79.9</ele>
        <time>2016-06-19T10:13:55Z</time>
      </trkpt>
      <trkpt lat="48.06794" lon="0.11876">
        <ele>79.6</ele>
        <time>2016-06-19T10:14:03Z</time>
      </trkpt>
      <trkpt lat="48.06803" lon="0.11868">
        <ele>80.5</ele>
        <time>2016-06-19T10:14:11Z</time>
      </trkpt>
      <trkpt lat="48.06811" lon="0.11861">
        <ele>80.7</ele>
        <time>2016-06-19T10:14:18Z</time>
      </trkpt>
      <trkpt lat="48.06819" lon="0.11854">
        <ele>81.4</ele>
        <time>2016-06-19T10:14:27Z</time>
      </trkpt>
      <trkpt lat="48.06828" lon="0.11846">
        <ele>81.4</ele>
        <time>2016-06-19T10:14:36Z</time>
      </trkpt>
      <trkpt lat="48.06836" lon="0.11842">
        <ele>82.2</ele>
        <time>2016-06-19T10:14:44Z</time>
      </trkpt>
      <trkpt lat="48.06845" lon="0.11837">
        <ele>81.2</ele>
        <time>2016-06-19T10:14:51Z</time>
      </trkpt>
      <trkpt lat="48.06855" lon="0.11834">
        <ele>82.8</ele>
        <time>2016-06-19T10:14:59Z</time>
      </trkpt>
      <trkpt lat="48.06865" lon="0.11833">
        <ele>82.4</ele>
        <time>2016-06-19T10:15:08Z</time>
      </trkpt>
      <trkpt lat="48.06874" lon="0.11832">
        <ele>82.4</ele>
        <time>2016-06-19T10:15:16Z</time>
      </trkpt>
      <trkpt lat="48.06882" lon="0.11826">
        <ele>82.9</ele>
        <time>2016-06-19T10:15:38Z</time>
      </trkpt>
      <trkpt lat="48.06888" lon="0.11814">
        <ele>82.5</ele>
        <time>2016-06-19T10:15:47Z</time>
      </trkpt>
      <trkpt lat="48.06895" lon="0.11804">
        <ele>82.6</ele>
        <time>2016-06-19T10:15:56Z</time>
      </trkpt>
      <trkpt lat="48.06901" lon="0.11793">
        <ele>82.2</ele>
        <time>2016-06-19T10:16:04Z</time>
      </trkpt>
      <trkpt lat="48.06908" lon="0.11783">
        <ele>81.6</ele>
        <time>2016-06-19T10:16:13Z</time>
      </trkpt>
      <trkpt lat="48.06913" lon="0.11771">
        <ele>81.1</ele>
        <time>2016-06-19T10:16:23Z</time>
      </trkpt>
      <trkpt lat="48.06919" lon="0.1176">
        <ele>80.4</ele>
        <time>2016-06-19T10:16:31Z</time>
      </trkpt>
      <trkpt lat="48.06924" lon="0.11749">
        <ele>80.1</ele>
        <time>2016-06-19T10:16:39Z</time>
      </trkpt>
      <trkpt lat="48.06932" lon="0.1174">
        <ele>80.5</ele>
        <time>2016-06-19T10:16:46Z</time>
      </trkpt>
      <trkpt lat="48.0694" lon="0.11733">
        <ele>79.4</ele>
        <time>2016-06-19T10:16:53Z</time>
      </trkpt>
      <trkpt lat="48.06948" lon="0.11723">
        <ele>78.9</ele>
        <time>2016-06-19T10:17:00Z</time>
      </trkpt>
      <trkpt lat="48.06957" lon="0.11716">
        <ele>80.1</ele>
        <time>2016-06-19T10:17:08Z</time>
      </trkpt>
      <trkpt lat="48.06965" lon="0.11709">
        <ele>78</ele>
        <time>2016-06-19T10:17:17Z</time>
      </trkpt>
      <trkpt lat="48.06975" lon="0.11704">
        <ele>77.9</ele>
        <time>2016-06-19T10:17:26Z</time>
      </trkpt>
      <trkpt lat="48.06984" lon="0.11698">
        <ele>78.1</ele>
        <time>2016-06-19T10:17:35Z</time>
      </trkpt>
      <trkpt lat="48.06994" lon="0.11694">
        <ele>76.9</ele>
        <time>2016-06-19T10:17:43Z</time>
      </trkpt>
      <trkpt lat="48.07003" lon="0.11689">
        <ele>77.7</ele>
        <time>2016-06-19T10:17:53Z</time>
      </trkpt>
      <trkpt lat="48.07012" lon="0.11684">
        <ele>76.6</ele>
        <time>2016-06-19T10:18:01Z</time>
      </trkpt>
      <trkpt lat="48.07022" lon="0.11678">
        <ele>77</ele>
        <time>2016-06-19T10:18:09Z</time>
      </trkpt>
      <trkpt lat="48.0703" lon="0.11673">
        <ele>76.7</ele>
        <time>2016-06-19T10:18:16Z</time>
      </trkpt>
      <trkpt lat="48.07039" lon="0.11665">
        <ele>76.7</ele>
        <time>2016-06-19T10:18:24Z</time>
      </trkpt>
      <trkpt lat="48.07046" lon="0.11658">
        <ele>77.2</ele>
        <time>2016-06-19T10:18:31Z</time>
      </trkpt>
      <trkpt lat="48.07053" lon="0.11647">
        <ele>76.5</ele>
        <time>2016-06-19T10:18:38Z</time>
      </trkpt>
      <trkpt lat="48.0706" lon="0.11638">
        <ele>76.2</ele>
        <time>2016-06-19T10:18:46Z</time>
      </trkpt>
      <trkpt lat="48.07068" lon="0.1163">
        <ele>76.8</ele>
        <time>2016-06-19T10:18:54Z</time>
      </trkpt>
      <trkpt lat="48.07075" lon="0.11623">
        <ele>76.4</ele>
        <time>2016-06-19T10:19:01Z</time>
      </trkpt>
      <trkpt lat="48.07082" lon="0.11612">
        <ele>76.7</ele>
        <time>2016-06-19T10:19:09Z</time>
      </trkpt>
      <trkpt lat="48.07089" lon="0.11603">
        <ele>77.9</ele>
        <time>2016-06-19T10:19:16Z</time>
      </trkpt>
      <trkpt lat="48.07097" lon="0.11592">
        <ele>77</ele>
        <time>2016-06-19T10:19:24Z</time>
      </trkpt>
      <trkpt lat="48.07102" lon="0.1158">
        <ele>77.6</ele>
        <time>2016-06-19T10:19:33Z</time>
      </trkpt>
      <trkpt lat="48.07107" lon="0.11566">
        <ele>76.8</ele>
        <time>2016-06-19T10:19:41Z</time>
      </trkpt>
      <trkpt lat="48.07112" lon="0.11554">
        <ele>77.6</ele>
        <time>2016-06-19T10:19:49Z</time>
      </trkpt>
      <trkpt lat="48.07118" lon="0.11542">
        <ele>78.1</ele>
        <time>2016-06-19T10:19:57Z</time>
      </trkpt>
      <trkpt lat="48.07121" lon="0.11528">
        <ele>78.8</ele>
        <time>2016-06-19T10:20:19Z</time>
      </trkpt>
      <trkpt lat="48.0713" lon="0.11528">
        <ele>79</ele>
        <time>2016-06-19T10:21:06Z</time>
      </trkpt>
      <trkpt lat="48.07139" lon="0.1153">
        <ele>79.1</ele>
        <time>2016-06-19T10:21:15Z</time>
      </trkpt>
      <trkpt lat="48.07148" lon="0.11528">
        <ele>79.8</ele>
        <time>2016-06-19T10:21:23Z</time>
      </trkpt>
      <trkpt lat="48.07157" lon="0.11524">
        <ele>79.9</ele>
        <time>2016-06-19T10:21:32Z</time>
      </trkpt>
      <trkpt lat="48.07165" lon="0.11516">
        <ele>80.1</ele>
        <time>2016-06-19T10:21:40Z</time>
      </trkpt>
      <trkpt lat="48.07172" lon="0.11506">
        <ele>80.4</ele>
        <time>2016-06-19T10:21:48Z</time>
      </trkpt>
      <trkpt lat="48.07179" lon="0.11498">
        <ele>80.8</ele>
        <time>2016-06-19T10:21:56Z</time>
      </trkpt>
      <trkpt lat="48.07186" lon="0.11488">
        <ele>81.6</ele>
        <time>2016-06-19T10:22:04Z</time>
      </trkpt>
      <trkpt lat="48.07195" lon="0.11481">
        <ele>82.1</ele>
        <time>2016-06-19T10:22:13Z</time>
      </trkpt>
      <trkpt lat="48.07203" lon="0.11475">
        <ele>82.2</ele>
        <time>2016-06-19T10:22:21Z</time>
      </trkpt>
      <trkpt lat="48.07212" lon="0.1147">
        <ele>82.5</ele>
        <time>2016-06-19T10:22:30Z</time>
      </trkpt>
      <trkpt lat="48.07221" lon="0.11469">
        <ele>82.8</ele>
        <time>2016-06-19T10:22:37Z</time>
      </trkpt>
      <trkpt lat="48.0723" lon="0.11469">
        <ele>83.1</ele>
        <time>2016-06-19T10:22:45Z</time>
      </trkpt>
      <trkpt lat="48.0724" lon="0.11473">
        <ele>83.2</ele>
        <time>2016-06-19T10:22:54Z</time>
      </trkpt>
      <trkpt lat="48.07248" lon="0.11482">
        <ele>84.2</ele>
        <time>2016-06-19T10:23:03Z</time>
      </trkpt>
      <trkpt lat="48.07254" lon="0.11494">
        <ele>84.2</ele>
        <time>2016-06-19T10:23:12Z</time>
      </trkpt>
      <trkpt lat="48.07257" lon="0.11508">
        <ele>84.8</ele>
        <time>2016-06-19T10:23:20Z</time>
      </trkpt>
      <trkpt lat="48.07259" lon="0.11522">
        <ele>85.5</ele>
        <time>2016-06-19T10:23:28Z</time>
      </trkpt>
      <trkpt lat="48.07262" lon="0.11535">
        <ele>86</ele>
        <time>2016-06-19T10:23:37Z</time>
      </trkpt>
      <trkpt lat="48.07265" lon="0.11549">
        <ele>86</ele>
        <time>2016-06-19T10:23:45Z</time>
      </trkpt>
      <trkpt lat="48.07267" lon="0.11563">
        <ele>86.1</ele>
        <time>2016-06-19T10:23:52Z</time>
      </trkpt>
      <trkpt lat="48.0727" lon="0.11577">
        <ele>87</ele>
        <time>2016-06-19T10:24:00Z</time>
      </trkpt>
      <trkpt lat="48.07276" lon="0.11589">
        <ele>86.7</ele>
        <time>2016-06-19T10:24:08Z</time>
      </trkpt>
      <trkpt lat="48.07282" lon="0.116">
        <ele>87.8</ele>
        <time>2016-06-19T10:24:16Z</time>
      </trkpt>
      <trkpt lat="48.07289" lon="0.1161">
        <ele>87.9</ele>
        <time>2016-06-19T10:24:25Z</time>
      </trkpt>
      <trkpt lat="48.07298" lon="0.11616">
        <ele>87.5</ele>
        <time>2016-06-19T10:24:33Z</time>
      </trkpt>
      <trkpt lat="48.07307" lon="0.11616">
        <ele>87.6</ele>
        <time>2016-06-19T10:24:41Z</time>
      </trkpt>
      <trkpt lat="48.07317" lon="0.11615">
        <ele>87.5</ele>
        <time>2016-06-19T10:24:49Z</time>
      </trkpt>
      <trkpt lat="48.07327" lon="0.11612">
        <ele>88.2</ele>
        <time>2016-06-19T10:24:57Z</time>
      </trkpt>
      <trkpt lat="48.07336" lon="0.11607">
        <ele>87.7</ele>
        <time>2016-06-19T10:25:05Z</time>
      </trkpt>
      <trkpt lat="48.07346" lon="0.11603">
        <ele>88.1</ele>
        <time>2016-06-19T10:25:13Z</time>
      </trkpt>
      <trkpt lat="48.07355" lon="0.116">
        <ele>88.9</ele>
        <time>2016-06-19T10:25:20Z</time>
      </trkpt>
      <trkpt lat="48.07364" lon="0.11597">
        <ele>88.6</ele>
        <time>2016-06-19T10:25:27Z</time>
      </trkpt>
      <trkpt lat="48.07373" lon="0.11592">
        <ele>88.8</ele>
        <time>2016-06-19T10:25:36Z</time>
      </trkpt>
      <trkpt lat="48.07383" lon="0.11588">
        <ele>89</ele>
        <time>2016-06-19T10:25:44Z</time>
      </trkpt>
      <trkpt lat="48.07392" lon="0.11583">
        <ele>88.6</ele>
        <time>2016-06-19T10:25:52Z</time>
      </trkpt>
      <trkpt lat="48.07401" lon="0.11577">
        <ele>88.5</ele>
        <time>2016-06-19T10:26:00Z</time>
      </trkpt>
      <trkpt lat="48.0741" lon="0.1157">
        <ele>89.2</ele>
        <time>2016-06-19T10:26:08Z</time>
      </trkpt>
      <trkpt lat="48.07418" lon="0.1156">
        <ele>89.3</ele>
        <time>2016-06-19T10:26:16Z</time>
      </trkpt>
      <trkpt lat="48.07424" lon="0.1155">
        <ele>89.1</ele>
        <time>2016-06-19T10:26:24Z</time>
      </trkpt>
      <trkpt lat="48.07429" lon="0.11539">
        <ele>89.8</ele>
        <time>2016-06-19T10:26:32Z</time>
      </trkpt>
      <trkpt lat="48.07432" lon="0.11525">
        <ele>90</ele>
        <time>2016-06-19T10:26:40Z</time>
      </trkpt>
      <trkpt lat="48.07436" lon="0.11511">
        <ele>89.5</ele>
        <time>2016-06-19T10:26:48Z</time>
      </trkpt>
      <trkpt lat="48.07438" lon="0.11497">
        <ele>89.4</ele>
        <time>2016-06-19T10:26:56Z</time>
      </trkpt>
      <trkpt lat="48.07439" lon="0.11482">
        <ele>89.4</ele>
        <time>2016-06-19T10:27:04Z</time>
      </trkpt>
      <trkpt lat="48.07439" lon="0.11468">
        <ele>90</ele>
        <time>2016-06-19T10:27:11Z</time>
      </trkpt>
      <trkpt lat="48.07438" lon="0.11452">
        <ele>89.9</ele>
        <time>2016-06-19T10:27:19Z</time>
      </trkpt>
      <trkpt lat="48.07435" lon="0.11438">
        <ele>89.2</ele>
        <time>2016-06-19T10:27:27Z</time>
      </trkpt>
      <trkpt lat="48.07431" lon="0.11426">
        <ele>88.6</ele>
        <time>2016-06-19T10:27:34Z</time>
      </trkpt>
      <trkpt lat="48.07426" lon="0.11412">
        <ele>86.4</ele>
        <time>2016-06-19T10:28:30Z</time>
      </trkpt>
      <trkpt lat="48.07421" lon="0.11399">
        <ele>86.2</ele>
        <time>2016-06-19T10:28:37Z</time>
      </trkpt>
      <trkpt lat="48.07418" lon="0.11385">
        <ele>87.1</ele>
        <time>2016-06-19T10:28:45Z</time>
      </trkpt>
      <trkpt lat="48.07414" lon="0.11371">
        <ele>86.4</ele>
        <time>2016-06-19T10:28:53Z</time>
      </trkpt>
      <trkpt lat="48.07409" lon="0.11359">
        <ele>85.8</ele>
        <time>2016-06-19T10:29:00Z</time>
      </trkpt>
      <trkpt lat="48.07407" lon="0.11346">
        <ele>85.3</ele>
        <time>2016-06-19T10:29:07Z</time>
      </trkpt>
      <trkpt lat="48.07405" lon="0.11331">
        <ele>85.6</ele>
        <time>2016-06-19T10:29:15Z</time>
      </trkpt>
      <trkpt lat="48.07402" lon="0.11319">
        <ele>85.2</ele>
        <time>2016-06-19T10:29:21Z</time>
      </trkpt>
      <trkpt lat="48.074" lon="0.11305">
        <ele>84.8</ele>
        <time>2016-06-19T10:29:28Z</time>
      </trkpt>
      <trkpt lat="48.07402" lon="0.1129">
        <ele>83.9</ele>
        <time>2016-06-19T10:29:35Z</time>
      </trkpt>
      <trkpt lat="48.07406" lon="0.11277">
        <ele>83.6</ele>
        <time>2016-06-19T10:29:43Z</time>
      </trkpt>
      <trkpt lat="48.07412" lon="0.11266">
        <ele>83.8</ele>
        <time>2016-06-19T10:29:50Z</time>
      </trkpt>
      <trkpt lat="48.0742" lon="0.11259">
        <ele>83.7</ele>
        <time>2016-06-19T10:29:57Z</time>
      </trkpt>
      <trkpt lat="48.07428" lon="0.11252">
        <ele>83.7</ele>
        <time>2016-06-19T10:30:16Z</time>
      </trkpt>
      <trkpt lat="48.07437" lon="0.11246">
        <ele>83.2</ele>
        <time>2016-06-19T10:30:23Z</time>
      </trkpt>
      <trkpt lat="48.07446" lon="0.11243">
        <ele>83.2</ele>
        <time>2016-06-19T10:30:30Z</time>
      </trkpt>
      <trkpt lat="48.07455" lon="0.11239">
        <ele>85.2</ele>
        <time>2016-06-19T10:30:39Z</time>
      </trkpt>
      <trkpt lat="48.07465" lon="0.11236">
        <ele>85.9</ele>
        <time>2016-06-19T10:30:47Z</time>
      </trkpt>
      <trkpt lat="48.07474" lon="0.1123">
        <ele>85.6</ele>
        <time>2016-06-19T10:30:55Z</time>
      </trkpt>
      <trkpt lat="48.07482" lon="0.11224">
        <ele>86.7</ele>
        <time>2016-06-19T10:31:02Z</time>
      </trkpt>
      <trkpt lat="48.0749" lon="0.11214">
        <ele>86.7</ele>
        <time>2016-06-19T10:31:11Z</time>
      </trkpt>
      <trkpt lat="48.07496" lon="0.11202">
        <ele>87.6</ele>
        <time>2016-06-19T10:31:20Z</time>
      </trkpt>
      <trkpt lat="48.075" lon="0.11189">
        <ele>87.6</ele>
        <time>2016-06-19T10:31:28Z</time>
      </trkpt>
      <trkpt lat="48.07504" lon="0.11177">
        <ele>88.3</ele>
        <time>2016-06-19T10:31:35Z</time>
      </trkpt>
      <trkpt lat="48.07507" lon="0.11163">
        <ele>88.9</ele>
        <time>2016-06-19T10:31:43Z</time>
      </trkpt>
      <trkpt lat="48.07512" lon="0.1115">
        <ele>88.1</ele>
        <time>2016-06-19T10:31:50Z</time>
      </trkpt>
      <trkpt lat="48.07516" lon="0.11137">
        <ele>87</ele>
        <time>2016-06-19T10:31:57Z</time>
      </trkpt>
      <trkpt lat="48.0752" lon="0.11125">
        <ele>87</ele>
        <time>2016-06-19T10:32:04Z</time>
      </trkpt>
      <trkpt lat="48.07524" lon="0.11113">
        <ele>87.3</ele>
        <time>2016-06-19T10:32:11Z</time>
      </trkpt>
      <trkpt lat="48.07529" lon="0.11101">
        <ele>86.8</ele>
        <time>2016-06-19T10:32:17Z</time>
      </trkpt>
      <trkpt lat="48.07534" lon="0.1109">
        <ele>86.2</ele>
        <time>2016-06-19T10:32:24Z</time>
      </trkpt>
      <trkpt lat="48.07542" lon="0.1108">
        <ele>85.8</ele>
        <time>2016-06-19T10:32:31Z</time>
      </trkpt>
      <trkpt lat="48.07551" lon="0.11073">
        <ele>85.5</ele>
        <time>2016-06-19T10:32:38Z</time>
      </trkpt>
      <trkpt lat="48.07559" lon="0.11065">
        <ele>85.1</ele>
        <time>2016-06-19T10:32:46Z</time>
      </trkpt>
      <trkpt lat="48.07566" lon="0.11057">
        <ele>84.5</ele>
        <time>2016-06-19T10:32:53Z</time>
      </trkpt>
      <trkpt lat="48.07575" lon="0.11051">
        <ele>84</ele>
        <time>2016-06-19T10:33:01Z</time>
      </trkpt>
      <trkpt lat="48.07583" lon="0.11045">
        <ele>84.1</ele>
        <time>2016-06-19T10:33:08Z</time>
      </trkpt>
      <trkpt lat="48.07591" lon="0.11038">
        <ele>83.5</ele>
        <time>2016-06-19T10:33:16Z</time>
      </trkpt>
      <trkpt lat="48.076" lon="0.11031">
        <ele>83.1</ele>
        <time>2016-06-19T10:33:23Z</time>
      </trkpt>
      <trkpt lat="48.07608" lon="0.11022">
        <ele>83.4</ele>
        <time>2016-06-19T10:33:31Z</time>
      </trkpt>
      <trkpt lat="48.07615" lon="0.11013">
        <ele>84.5</ele>
        <time>2016-06-19T10:33:38Z</time>
      </trkpt>
      <trkpt lat="48.07622" lon="0.11003">
        <ele>84.3</ele>
        <time>2016-06-19T10:33:45Z</time>
      </trkpt>
      <trkpt lat="48.07627" lon="0.10992">
        <ele>84.4</ele>
        <time>2016-06-19T10:34:10Z</time>
      </trkpt>
      <trkpt lat="48.07634" lon="0.10983">
        <ele>85.2</ele>
        <time>2016-06-19T10:34:17Z</time>
      </trkpt>
      <trkpt lat="48.07642" lon="0.10976">
        <ele>84.6</ele>
        <time>2016-06-19T10:34:25Z</time>
      </trkpt>
      <trkpt lat="48.0765" lon="0.10968">
        <ele>84.5</ele>
        <time>2016-06-19T10:34:33Z</time>
      </trkpt>
      <trkpt lat="48.07659" lon="0.10962">
        <ele>84.7</ele>
        <time>2016-06-19T10:34:41Z</time>
      </trkpt>
      <trkpt lat="48.07668" lon="0.10957">
        <ele>84.7</ele>
        <time>2016-06-19T10:34:49Z</time>
      </trkpt>
      <trkpt lat="48.07677" lon="0.1095">
        <ele>84.7</ele>
        <time>2016-06-19T10:34:57Z</time>
      </trkpt>
      <trkpt lat="48.07687" lon="0.10947">
        <ele>85.3</ele>
        <time>2016-06-19T10:35:05Z</time>
      </trkpt>
      <trkpt lat="48.07697" lon="0.10944">
        <ele>85.5</ele>
        <time>2016-06-19T10:35:12Z</time>
      </trkpt>
      <trkpt lat="48.07706" lon="0.10938">
        <ele>85.5</ele>
        <time>2016-06-19T10:35:20Z</time>
      </trkpt>
      <trkpt lat="48.07714" lon="0.10931">
        <ele>85.5</ele>
        <time>2016-06-19T10:35:28Z</time>
      </trkpt>
      <trkpt lat="48.07724" lon="0.10925">
        <ele>85.3</ele>
        <time>2016-06-19T10:35:36Z</time>
      </trkpt>
      <trkpt lat="48.07733" lon="0.1092">
        <ele>85.4</ele>
        <time>2016-06-19T10:35:44Z</time>
      </trkpt>
      <trkpt lat="48.07742" lon="0.10915">
        <ele>84.7</ele>
        <time>2016-06-19T10:35:52Z</time>
      </trkpt>
      <trkpt lat="48.0775" lon="0.10909">
        <ele>84.4</ele>
        <time>2016-06-19T10:35:59Z</time>
      </trkpt>
      <trkpt lat="48.07759" lon="0.10905">
        <ele>84.3</ele>
        <time>2016-06-19T10:36:07Z</time>
      </trkpt>
      <trkpt lat="48.07768" lon="0.10898">
        <ele>84.4</ele>
        <time>2016-06-19T10:36:15Z</time>
      </trkpt>
      <trkpt lat="48.07776" lon="0.10889">
        <ele>84.4</ele>
        <time>2016-06-19T10:36:23Z</time>
      </trkpt>
      <trkpt lat="48.07783" lon="0.10879">
        <ele>83.9</ele>
        <time>2016-06-19T10:36:30Z</time>
      </trkpt>
      <trkpt lat="48.07788" lon="0.10867">
        <ele>83.4</ele>
        <time>2016-06-19T10:36:37Z</time>
      </trkpt>
      <trkpt lat="48.07792" lon="0.10853">
        <ele>83.5</ele>
        <time>2016-06-19T10:36:44Z</time>
      </trkpt>
      <trkpt lat="48.07796" lon="0.1084">
        <ele>83.4</ele>
        <time>2016-06-19T10:36:52Z</time>
      </trkpt>
      <trkpt lat="48.078" lon="0.10827">
        <ele>82.7</ele>
        <time>2016-06-19T10:37:00Z</time>
      </trkpt>
      <trkpt lat="48.07805" lon="0.10813">
        <ele>82.5</ele>
        <time>2016-06-19T10:37:08Z</time>
      </trkpt>
      <trkpt lat="48.07809" lon="0.108">
        <ele>82.5</ele>
        <time>2016-06-19T10:37:16Z</time>
      </trkpt>
      <trkpt lat="48.07813" lon="0.10787">
        <ele>83.5</ele>
        <time>2016-06-19T10:37:24Z</time>
      </trkpt>
      <trkpt lat="48.07817" lon="0.10775">
        <ele>84.4</ele>
        <time>2016-06-19T10:37:32Z</time>
      </trkpt>
      <trkpt lat="48.07821" lon="0.10761">
        <ele>84.4</ele>
        <time>2016-06-19T10:37:40Z</time>
      </trkpt>
      <trkpt lat="48.07825" lon="0.10749">
        <ele>84.3</ele>
        <time>2016-06-19T10:37:47Z</time>
      </trkpt>
      <trkpt lat="48.0783" lon="0.10736">
        <ele>84.3</ele>
        <time>2016-06-19T10:37:55Z</time>
      </trkpt>
      <trkpt lat="48.07834" lon="0.10724">
        <ele>84.2</ele>
        <time>2016-06-19T10:38:03Z</time>
      </trkpt>
      <trkpt lat="48.07838" lon="0.10711">
        <ele>85</ele>
        <time>2016-06-19T10:38:11Z</time>
      </trkpt>
      <trkpt lat="48.07842" lon="0.10698">
        <ele>85.6</ele>
        <time>2016-06-19T10:38:19Z</time>
      </trkpt>
      <trkpt lat="48.07847" lon="0.10686">
        <ele>85.5</ele>
        <time>2016-06-19T10:38:27Z</time>
      </trkpt>
      <trkpt lat="48.07851" lon="0.10672">
        <ele>85.1</ele>
        <time>2016-06-19T10:38:35Z</time>
      </trkpt>
      <trkpt lat="48.07856" lon="0.10661">
        <ele>85.3</ele>
        <time>2016-06-19T10:38:43Z</time>
      </trkpt>
      <trkpt lat="48.07862" lon="0.10649">
        <ele>86</ele>
        <time>2016-06-19T10:38:50Z</time>
      </trkpt>
      <trkpt lat="48.07868" lon="0.10639">
        <ele>85.3</ele>
        <time>2016-06-19T10:38:57Z</time>
      </trkpt>
      <trkpt lat="48.07873" lon="0.10627">
        <ele>84.1</ele>
        <time>2016-06-19T10:39:05Z</time>
      </trkpt>
      <trkpt lat="48.07879" lon="0.10616">
        <ele>83.3</ele>
        <time>2016-06-19T10:39:13Z</time>
      </trkpt>
      <trkpt lat="48.07885" lon="0.10605">
        <ele>83.7</ele>
        <time>2016-06-19T10:39:20Z</time>
      </trkpt>
      <trkpt lat="48.07892" lon="0.10594">
        <ele>82.9</ele>
        <time>2016-06-19T10:39:27Z</time>
      </trkpt>
      <trkpt lat="48.07899" lon="0.10585">
        <ele>82.2</ele>
        <time>2016-06-19T10:39:34Z</time>
      </trkpt>
      <trkpt lat="48.07908" lon="0.1058">
        <ele>82.6</ele>
        <time>2016-06-19T10:39:41Z</time>
      </trkpt>
      <trkpt lat="48.07918" lon="0.10581">
        <ele>82.9</ele>
        <time>2016-06-19T10:40:27Z</time>
      </trkpt>
      <trkpt lat="48.07927" lon="0.10585">
        <ele>82.8</ele>
        <time>2016-06-19T10:40:35Z</time>
      </trkpt>
      <trkpt lat="48.07936" lon="0.1059">
        <ele>81</ele>
        <time>2016-06-19T10:40:43Z</time>
      </trkpt>
      <trkpt lat="48.07945" lon="0.10596">
        <ele>83.7</ele>
        <time>2016-06-19T10:40:51Z</time>
      </trkpt>
      <trkpt lat="48.07954" lon="0.106">
        <ele>86</ele>
        <time>2016-06-19T10:41:00Z</time>
      </trkpt>
      <trkpt lat="48.07964" lon="0.10601">
        <ele>86.3</ele>
        <time>2016-06-19T10:41:12Z</time>
      </trkpt>
      <trkpt lat="48.07973" lon="0.10598">
        <ele>86.9</ele>
        <time>2016-06-19T10:41:20Z</time>
      </trkpt>
      <trkpt lat="48.07982" lon="0.10596">
        <ele>86.5</ele>
        <time>2016-06-19T10:41:29Z</time>
      </trkpt>
      <trkpt lat="48.07987" lon="0.10584">
        <ele>87.1</ele>
        <time>2016-06-19T10:41:35Z</time>
      </trkpt>
      <trkpt lat="48.07994" lon="0.10573">
        <ele>88.1</ele>
        <time>2016-06-19T10:41:44Z</time>
      </trkpt>
      <trkpt lat="48.08" lon="0.10561">
        <ele>88.2</ele>
        <time>2016-06-19T10:41:51Z</time>
      </trkpt>
      <trkpt lat="48.08006" lon="0.10549">
        <ele>87.9</ele>
        <time>2016-06-19T10:42:00Z</time>
      </trkpt>
      <trkpt lat="48.08011" lon="0.10536">
        <ele>88.4</ele>
        <time>2016-06-19T10:42:08Z</time>
      </trkpt>
      <trkpt lat="48.08015" lon="0.10524">
        <ele>88.8</ele>
        <time>2016-06-19T10:42:16Z</time>
      </trkpt>
      <trkpt lat="48.0802" lon="0.10511">
        <ele>88.9</ele>
        <time>2016-06-19T10:42:24Z</time>
      </trkpt>
      <trkpt lat="48.08026" lon="0.105">
        <ele>89.7</ele>
        <time>2016-06-19T10:42:33Z</time>
      </trkpt>
      <trkpt lat="48.08032" lon="0.10487">
        <ele>90.2</ele>
        <time>2016-06-19T10:42:41Z</time>
      </trkpt>
      <trkpt lat="48.08039" lon="0.10477">
        <ele>90.5</ele>
        <time>2016-06-19T10:42:49Z</time>
      </trkpt>
      <trkpt lat="48.08046" lon="0.10467">
        <ele>91.4</ele>
        <time>2016-06-19T10:43:21Z</time>
      </trkpt>
      <trkpt lat="48.08056" lon="0.1047">
        <ele>90.9</ele>
        <time>2016-06-19T10:43:30Z</time>
      </trkpt>
      <trkpt lat="48.08064" lon="0.10478">
        <ele>91.3</ele>
        <time>2016-06-19T10:43:38Z</time>
      </trkpt>
      <trkpt lat="48.08072" lon="0.10484">
        <ele>91.4</ele>
        <time>2016-06-19T10:43:45Z</time>
      </trkpt>
      <trkpt lat="48.08081" lon="0.10489">
        <ele>91.8</ele>
        <time>2016-06-19T10:43:53Z</time>
      </trkpt>
      <trkpt lat="48.08089" lon="0.10493">
        <ele>92.7</ele>
        <time>2016-06-19T10:44:01Z</time>
      </trkpt>
      <trkpt lat="48.08099" lon="0.10497">
        <ele>93.3</ele>
        <time>2016-06-19T10:44:09Z</time>
      </trkpt>
      <trkpt lat="48.08108" lon="0.10501">
        <ele>94.1</ele>
        <time>2016-06-19T10:44:17Z</time>
      </trkpt>
      <trkpt lat="48.08116" lon="0.10507">
        <ele>93.8</ele>
        <time>2016-06-19T10:44:25Z</time>
      </trkpt>
      <trkpt lat="48.08125" lon="0.10513">
        <ele>93.9</ele>
        <time>2016-06-19T10:44:33Z</time>
      </trkpt>
      <trkpt lat="48.08135" lon="0.10516">
        <ele>95.7</ele>
        <time>2016-06-19T10:44:42Z</time>
      </trkpt>
      <trkpt lat="48.08144" lon="0.1052">
        <ele>96.3</ele>
        <time>2016-06-19T10:44:50Z</time>
      </trkpt>
      <trkpt lat="48.08153" lon="0.10525">
        <ele>96.1</ele>
        <time>2016-06-19T10:45:13Z</time>
      </trkpt>
      <trkpt lat="48.0816" lon="0.10535">
        <ele>97.2</ele>
        <time>2016-06-19T10:45:21Z</time>
      </trkpt>
      <trkpt lat="48.08169" lon="0.10542">
        <ele>97.5</ele>
        <time>2016-06-19T10:45:30Z</time>
      </trkpt>
      <trkpt lat="48.08177" lon="0.10549">
        <ele>97.5</ele>
        <time>2016-06-19T10:45:38Z</time>
      </trkpt>
      <trkpt lat="48.08185" lon="0.10556">
        <ele>98.4</ele>
        <time>2016-06-19T10:45:46Z</time>
      </trkpt>
      <trkpt lat="48.08195" lon="0.1056">
        <ele>99.2</ele>
        <time>2016-06-19T10:45:58Z</time>
      </trkpt>
      <trkpt lat="48.08202" lon="0.10568">
        <ele>99.7</ele>
        <time>2016-06-19T10:46:08Z</time>
      </trkpt>
      <trkpt lat="48.08212" lon="0.10574">
        <ele>100.3</ele>
        <time>2016-06-19T10:46:17Z</time>
      </trkpt>
      <trkpt lat="48.08221" lon="0.1058">
        <ele>100.4</ele>
        <time>2016-06-19T10:46:24Z</time>
      </trkpt>
      <trkpt lat="48.0823" lon="0.10584">
        <ele>100.7</ele>
        <time>2016-06-19T10:46:31Z</time>
      </trkpt>
      <trkpt lat="48.08239" lon="0.10589">
        <ele>101.6</ele>
        <time>2016-06-19T10:49:11Z</time>
      </trkpt>
      <trkpt lat="48.08246" lon="0.10598">
        <ele>102.9</ele>
        <time>2016-06-19T10:49:19Z</time>
      </trkpt>
      <trkpt lat="48.08256" lon="0.10605">
        <ele>102.9</ele>
        <time>2016-06-19T10:49:27Z</time>
      </trkpt>
      <trkpt lat="48.08267" lon="0.10608">
        <ele>103</ele>
        <time>2016-06-19T10:49:34Z</time>
      </trkpt>
      <trkpt lat="48.08276" lon="0.10613">
        <ele>103.7</ele>
        <time>2016-06-19T10:49:41Z</time>
      </trkpt>
      <trkpt lat="48.08286" lon="0.10617">
        <ele>105.2</ele>
        <time>2016-06-19T10:49:48Z</time>
      </trkpt>
      <trkpt lat="48.08294" lon="0.10626">
        <ele>105.7</ele>
        <time>2016-06-19T10:49:55Z</time>
      </trkpt>
      <trkpt lat="48.08304" lon="0.10628">
        <ele>107.6</ele>
        <time>2016-06-19T10:50:02Z</time>
      </trkpt>
      <trkpt lat="48.08312" lon="0.10635">
        <ele>108.1</ele>
        <time>2016-06-19T10:50:09Z</time>
      </trkpt>
      <trkpt lat="48.0832" lon="0.10641">
        <ele>109.2</ele>
        <time>2016-06-19T10:50:17Z</time>
      </trkpt>
      <trkpt lat="48.08329" lon="0.10644">
        <ele>109.2</ele>
        <time>2016-06-19T10:50:23Z</time>
      </trkpt>
      <trkpt lat="48.08338" lon="0.10645">
        <ele>109.6</ele>
        <time>2016-06-19T10:50:29Z</time>
      </trkpt>
      <trkpt lat="48.08348" lon="0.10646">
        <ele>111.4</ele>
        <time>2016-06-19T10:50:36Z</time>
      </trkpt>
      <trkpt lat="48.08358" lon="0.10649">
        <ele>112.5</ele>
        <time>2016-06-19T10:50:44Z</time>
      </trkpt>
      <trkpt lat="48.08367" lon="0.10649">
        <ele>111.3</ele>
        <time>2016-06-19T10:50:50Z</time>
      </trkpt>
      <trkpt lat="48.08377" lon="0.10649">
        <ele>111.8</ele>
        <time>2016-06-19T10:50:57Z</time>
      </trkpt>
      <trkpt lat="48.08386" lon="0.10649">
        <ele>112.4</ele>
        <time>2016-06-19T10:51:04Z</time>
      </trkpt>
      <trkpt lat="48.08394" lon="0.10639">
        <ele>112.5</ele>
        <time>2016-06-19T10:52:10Z</time>
      </trkpt>
      <trkpt lat="48.084" lon="0.1063">
        <ele>111.5</ele>
        <time>2016-06-19T10:52:17Z</time>
      </trkpt>
      <trkpt lat="48.08405" lon="0.10618">
        <ele>111.9</ele>
        <time>2016-06-19T10:52:25Z</time>
      </trkpt>
      <trkpt lat="48.08411" lon="0.10606">
        <ele>111.8</ele>
        <time>2016-06-19T10:52:34Z</time>
      </trkpt>
      <trkpt lat="48.08417" lon="0.10594">
        <ele>113.1</ele>
        <time>2016-06-19T10:52:54Z</time>
      </trkpt>
      <trkpt lat="48.08424" lon="0.10584">
        <ele>112.9</ele>
        <time>2016-06-19T10:53:02Z</time>
      </trkpt>
      <trkpt lat="48.08429" lon="0.10573">
        <ele>112</ele>
        <time>2016-06-19T10:53:09Z</time>
      </trkpt>
      <trkpt lat="48.08434" lon="0.10562">
        <ele>112.1</ele>
        <time>2016-06-19T10:53:16Z</time>
      </trkpt>
      <trkpt lat="48.08438" lon="0.10549">
        <ele>112</ele>
        <time>2016-06-19T10:53:24Z</time>
      </trkpt>
      <trkpt lat="48.08444" lon="0.10537">
        <ele>112.1</ele>
        <time>2016-06-19T10:53:31Z</time>
      </trkpt>
      <trkpt lat="48.08447" lon="0.10523">
        <ele>111.8</ele>
        <time>2016-06-19T10:53:39Z</time>
      </trkpt>
      <trkpt lat="48.08453" lon="0.10511">
        <ele>111.5</ele>
        <time>2016-06-19T10:53:45Z</time>
      </trkpt>
      <trkpt lat="48.08463" lon="0.10511">
        <ele>111.8</ele>
        <time>2016-06-19T10:53:53Z</time>
      </trkpt>
      <trkpt lat="48.08471" lon="0.10516">
        <ele>112.9</ele>
        <time>2016-06-19T10:54:02Z</time>
      </trkpt>
      <trkpt lat="48.08479" lon="0.10524">
        <ele>113.1</ele>
        <time>2016-06-19T10:54:09Z</time>
      </trkpt>
      <trkpt lat="48.08489" lon="0.10526">
        <ele>114</ele>
        <time>2016-06-19T10:54:18Z</time>
      </trkpt>
      <trkpt lat="48.08498" lon="0.10531">
        <ele>114.1</ele>
        <time>2016-06-19T10:54:27Z</time>
      </trkpt>
      <trkpt lat="48.08508" lon="0.10535">
        <ele>114.3</ele>
        <time>2016-06-19T10:54:37Z</time>
      </trkpt>
      <trkpt lat="48.08516" lon="0.10537">
        <ele>113.9</ele>
        <time>2016-06-19T10:54:49Z</time>
      </trkpt>
      <trkpt lat="48.08525" lon="0.10535">
        <ele>116.1</ele>
        <time>2016-06-19T10:56:21Z</time>
      </trkpt>
      <trkpt lat="48.08529" lon="0.10522">
        <ele>116.3</ele>
        <time>2016-06-19T10:56:31Z</time>
      </trkpt>
      <trkpt lat="48.08537" lon="0.10514">
        <ele>115.7</ele>
        <time>2016-06-19T10:56:51Z</time>
      </trkpt>
      <trkpt lat="48.08544" lon="0.10504">
        <ele>116.1</ele>
        <time>2016-06-19T10:57:07Z</time>
      </trkpt>
      <trkpt lat="48.08547" lon="0.10491">
        <ele>116.7</ele>
        <time>2016-06-19T10:57:13Z</time>
      </trkpt>
      <trkpt lat="48.08551" lon="0.10478">
        <ele>117.2</ele>
        <time>2016-06-19T10:57:24Z</time>
      </trkpt>
      <trkpt lat="48.08556" lon="0.10467">
        <ele>117.7</ele>
        <time>2016-06-19T10:57:36Z</time>
      </trkpt>
      <trkpt lat="48.08562" lon="0.10455">
        <ele>118.1</ele>
        <time>2016-06-19T10:57:45Z</time>
      </trkpt>
      <trkpt lat="48.08568" lon="0.10445">
        <ele>118.5</ele>
        <time>2016-06-19T10:57:51Z</time>
      </trkpt>
      <trkpt lat="48.08574" lon="0.10433">
        <ele>118.6</ele>
        <time>2016-06-19T10:58:00Z</time>
      </trkpt>
      <trkpt lat="48.08581" lon="0.10423">
        <ele>117.9</ele>
        <time>2016-06-19T10:58:08Z</time>
      </trkpt>
      <trkpt lat="48.08586" lon="0.1041">
        <ele>118.4</ele>
        <time>2016-06-19T10:58:20Z</time>
      </trkpt>
      <trkpt lat="48.08593" lon="0.104">
        <ele>118.1</ele>
        <time>2016-06-19T10:58:29Z</time>
      </trkpt>
      <trkpt lat="48.08597" lon="0.10388">
        <ele>118.2</ele>
        <time>2016-06-19T10:58:39Z</time>
      </trkpt>
      <trkpt lat="48.08603" lon="0.10377">
        <ele>117.8</ele>
        <time>2016-06-19T10:58:47Z</time>
      </trkpt>
      <trkpt lat="48.0861" lon="0.10368">
        <ele>118.2</ele>
        <time>2016-06-19T10:58:54Z</time>
      </trkpt>
      <trkpt lat="48.08619" lon="0.10358">
        <ele>118</ele>
        <time>2016-06-19T10:59:01Z</time>
      </trkpt>
      <trkpt lat="48.08624" lon="0.10344">
        <ele>118.5</ele>
        <time>2016-06-19T10:59:15Z</time>
      </trkpt>
      <trkpt lat="48.08628" lon="0.1033">
        <ele>118.9</ele>
        <time>2016-06-19T10:59:24Z</time>
      </trkpt>
      <trkpt lat="48.08634" lon="0.10319">
        <ele>118.6</ele>
        <time>2016-06-19T10:59:43Z</time>
      </trkpt>
      <trkpt lat="48.08641" lon="0.1031">
        <ele>118.8</ele>
        <time>2016-06-19T10:59:51Z</time>
      </trkpt>
      <trkpt lat="48.08645" lon="0.10293">
        <ele>118.3</ele>
        <time>2016-06-19T11:00:04Z</time>
      </trkpt>
      <trkpt lat="48.0865" lon="0.10281">
        <ele>118.4</ele>
        <time>2016-06-19T11:00:10Z</time>
      </trkpt>
      <trkpt lat="48.08656" lon="0.1027">
        <ele>118.4</ele>
        <time>2016-06-19T11:00:18Z</time>
      </trkpt>
      <trkpt lat="48.08661" lon="0.10259">
        <ele>118.7</ele>
        <time>2016-06-19T11:00:30Z</time>
      </trkpt>
      <trkpt lat="48.08667" lon="0.10248">
        <ele>118.6</ele>
        <time>2016-06-19T11:00:40Z</time>
      </trkpt>
      <trkpt lat="48.08673" lon="0.10237">
        <ele>117.9</ele>
        <time>2016-06-19T11:00:53Z</time>
      </trkpt>
      <trkpt lat="48.08678" lon="0.10225">
        <ele>118.1</ele>
        <time>2016-06-19T11:01:04Z</time>
      </trkpt>
      <trkpt lat="48.08683" lon="0.10213">
        <ele>117.9</ele>
        <time>2016-06-19T11:01:12Z</time>
      </trkpt>
      <trkpt lat="48.08689" lon="0.10203">
        <ele>118.1</ele>
        <time>2016-06-19T11:01:21Z</time>
      </trkpt>
      <trkpt lat="48.08696" lon="0.10192">
        <ele>118</ele>
        <time>2016-06-19T11:01:30Z</time>
      </trkpt>
      <trkpt lat="48.087" lon="0.10179">
        <ele>118</ele>
        <time>2016-06-19T11:01:36Z</time>
      </trkpt>
      <trkpt lat="48.08706" lon="0.10169">
        <ele>118.2</ele>
        <time>2016-06-19T11:01:50Z</time>
      </trkpt>
      <trkpt lat="48.08711" lon="0.10156">
        <ele>118.1</ele>
        <time>2016-06-19T11:01:56Z</time>
      </trkpt>
      <trkpt lat="48.08716" lon="0.10143">
        <ele>118.4</ele>
        <time>2016-06-19T11:02:06Z</time>
      </trkpt>
      <trkpt lat="48.08721" lon="0.10131">
        <ele>118.3</ele>
        <time>2016-06-19T11:02:22Z</time>
      </trkpt>
      <trkpt lat="48.08727" lon="0.1012">
        <ele>119.2</ele>
        <time>2016-06-19T11:02:29Z</time>
      </trkpt>
      <trkpt lat="48.08731" lon="0.10108">
        <ele>119.7</ele>
        <time>2016-06-19T11:02:39Z</time>
      </trkpt>
      <trkpt lat="48.08735" lon="0.10095">
        <ele>119.9</ele>
        <time>2016-06-19T11:02:45Z</time>
      </trkpt>
      <trkpt lat="48.08739" lon="0.1008">
        <ele>121</ele>
        <time>2016-06-19T11:02:52Z</time>
      </trkpt>
      <trkpt lat="48.08744" lon="0.10067">
        <ele>120.2</ele>
        <time>2016-06-19T11:02:59Z</time>
      </trkpt>
      <trkpt lat="48.08747" lon="0.10054">
        <ele>121</ele>
        <time>2016-06-19T11:03:53Z</time>
      </trkpt>
      <trkpt lat="48.08751" lon="0.10041">
        <ele>120.9</ele>
        <time>2016-06-19T11:04:01Z</time>
      </trkpt>
      <trkpt lat="48.08755" lon="0.10028">
        <ele>121.7</ele>
        <time>2016-06-19T11:04:09Z</time>
      </trkpt>
      <trkpt lat="48.08759" lon="0.10016">
        <ele>122.2</ele>
        <time>2016-06-19T11:04:17Z</time>
      </trkpt>
      <trkpt lat="48.08765" lon="0.10005">
        <ele>121.8</ele>
        <time>2016-06-19T11:04:25Z</time>
      </trkpt>
      <trkpt lat="48.08769" lon="0.09993">
        <ele>121.7</ele>
        <time>2016-06-19T11:04:33Z</time>
      </trkpt>
      <trkpt lat="48.08773" lon="0.0998">
        <ele>122.1</ele>
        <time>2016-06-19T11:04:41Z</time>
      </trkpt>
      <trkpt lat="48.08778" lon="0.09967">
        <ele>121.9</ele>
        <time>2016-06-19T11:04:49Z</time>
      </trkpt>
      <trkpt lat="48.08784" lon="0.09955">
        <ele>122.1</ele>
        <time>2016-06-19T11:04:57Z</time>
      </trkpt>
      <trkpt lat="48.08788" lon="0.09942">
        <ele>122.1</ele>
        <time>2016-06-19T11:05:05Z</time>
      </trkpt>
      <trkpt lat="48.0879" lon="0.09927">
        <ele>122.2</ele>
        <time>2016-06-19T11:05:13Z</time>
      </trkpt>
      <trkpt lat="48.08796" lon="0.09915">
        <ele>122.7</ele>
        <time>2016-06-19T11:05:21Z</time>
      </trkpt>
      <trkpt lat="48.08802" lon="0.09906">
        <ele>123.3</ele>
        <time>2016-06-19T11:05:36Z</time>
      </trkpt>
      <trkpt lat="48.08807" lon="0.09893">
        <ele>123.1</ele>
        <time>2016-06-19T11:05:43Z</time>
      </trkpt>
      <trkpt lat="48.0881" lon="0.0988">
        <ele>123.3</ele>
        <time>2016-06-19T11:05:50Z</time>
      </trkpt>
      <trkpt lat="48.08815" lon="0.09867">
        <ele>123.5</ele>
        <time>2016-06-19T11:05:58Z</time>
      </trkpt>
      <trkpt lat="48.08819" lon="0.09854">
        <ele>123.3</ele>
        <time>2016-06-19T11:06:06Z</time>
      </trkpt>
      <trkpt lat="48.08822" lon="0.09841">
        <ele>124.1</ele>
        <time>2016-06-19T11:06:14Z</time>
      </trkpt>
      <trkpt lat="48.08828" lon="0.09829">
        <ele>123.9</ele>
        <time>2016-06-19T11:06:22Z</time>
      </trkpt>
      <trkpt lat="48.08833" lon="0.09817">
        <ele>124.4</ele>
        <time>2016-06-19T11:06:30Z</time>
      </trkpt>
      <trkpt lat="48.0884" lon="0.09806">
        <ele>123.4</ele>
        <time>2016-06-19T11:06:41Z</time>
      </trkpt>
      <trkpt lat="48.08843" lon="0.09792">
        <ele>123.3</ele>
        <time>2016-06-19T11:06:49Z</time>
      </trkpt>
      <trkpt lat="48.08847" lon="0.09779">
        <ele>123.2</ele>
        <time>2016-06-19T11:06:57Z</time>
      </trkpt>
      <trkpt lat="48.08853" lon="0.09767">
        <ele>123.3</ele>
        <time>2016-06-19T11:07:05Z</time>
      </trkpt>
      <trkpt lat="48.08858" lon="0.09756">
        <ele>123.2</ele>
        <time>2016-06-19T11:07:12Z</time>
      </trkpt>
      <trkpt lat="48.08863" lon="0.09743">
        <ele>124.6</ele>
        <time>2016-06-19T11:07:20Z</time>
      </trkpt>
      <trkpt lat="48.08869" lon="0.09732">
        <ele>124.3</ele>
        <time>2016-06-19T11:07:28Z</time>
      </trkpt>
      <trkpt lat="48.08876" lon="0.09722">
        <ele>124.2</ele>
        <time>2016-06-19T11:07:36Z</time>
      </trkpt>
      <trkpt lat="48.08883" lon="0.09711">
        <ele>124.6</ele>
        <time>2016-06-19T11:07:45Z</time>
      </trkpt>
      <trkpt lat="48.0889" lon="0.09702">
        <ele>124.6</ele>
        <time>2016-06-19T11:07:53Z</time>
      </trkpt>
      <trkpt lat="48.08898" lon="0.09693">
        <ele>125.2</ele>
        <time>2016-06-19T11:08:01Z</time>
      </trkpt>
      <trkpt lat="48.08905" lon="0.09684">
        <ele>125.7</ele>
        <time>2016-06-19T11:08:08Z</time>
      </trkpt>
      <trkpt lat="48.08911" lon="0.09674">
        <ele>126</ele>
        <time>2016-06-19T11:08:16Z</time>
      </trkpt>
      <trkpt lat="48.08919" lon="0.09666">
        <ele>126.6</ele>
        <time>2016-06-19T11:08:24Z</time>
      </trkpt>
      <trkpt lat="48.08926" lon="0.09656">
        <ele>127.5</ele>
        <time>2016-06-19T11:08:33Z</time>
      </trkpt>
      <trkpt lat="48.08934" lon="0.09647">
        <ele>127.1</ele>
        <time>2016-06-19T11:08:40Z</time>
      </trkpt>
      <trkpt lat="48.0894" lon="0.09637">
        <ele>128.3</ele>
        <time>2016-06-19T11:08:48Z</time>
      </trkpt>
      <trkpt lat="48.08947" lon="0.09627">
        <ele>128.8</ele>
        <time>2016-06-19T11:08:57Z</time>
      </trkpt>
      <trkpt lat="48.08955" lon="0.0962">
        <ele>129.7</ele>
        <time>2016-06-19T11:09:06Z</time>
      </trkpt>
      <trkpt lat="48.08963" lon="0.09612">
        <ele>130.4</ele>
        <time>2016-06-19T11:09:16Z</time>
      </trkpt>
      <trkpt lat="48.08972" lon="0.09611">
        <ele>130.6</ele>
        <time>2016-06-19T11:09:25Z</time>
      </trkpt>
      <trkpt lat="48.0898" lon="0.09604">
        <ele>130.6</ele>
        <time>2016-06-19T11:09:34Z</time>
      </trkpt>
      <trkpt lat="48.08984" lon="0.09591">
        <ele>131.2</ele>
        <time>2016-06-19T11:10:41Z</time>
      </trkpt>
      <trkpt lat="48.08992" lon="0.09587">
        <ele>131.4</ele>
        <time>2016-06-19T11:13:19Z</time>
      </trkpt>
      <trkpt lat="48.09002" lon="0.09582">
        <ele>130.6</ele>
        <time>2016-06-19T11:13:28Z</time>
      </trkpt>
      <trkpt lat="48.0901" lon="0.09576">
        <ele>129.4</ele>
        <time>2016-06-19T11:13:37Z</time>
      </trkpt>
      <trkpt lat="48.09018" lon="0.09569">
        <ele>128.9</ele>
        <time>2016-06-19T11:13:50Z</time>
      </trkpt>
      <trkpt lat="48.09027" lon="0.09561">
        <ele>127.6</ele>
        <time>2016-06-19T11:14:00Z</time>
      </trkpt>
      <trkpt lat="48.09031" lon="0.09548">
        <ele>127.3</ele>
        <time>2016-06-19T11:14:05Z</time>
      </trkpt>
      <trkpt lat="48.09033" lon="0.09535">
        <ele>126.4</ele>
        <time>2016-06-19T11:14:16Z</time>
      </trkpt>
      <trkpt lat="48.0904" lon="0.09525">
        <ele>125.8</ele>
        <time>2016-06-19T11:14:24Z</time>
      </trkpt>
      <trkpt lat="48.09047" lon="0.09515">
        <ele>125.3</ele>
        <time>2016-06-19T11:14:29Z</time>
      </trkpt>
      <trkpt lat="48.09054" lon="0.09504">
        <ele>124.5</ele>
        <time>2016-06-19T11:14:54Z</time>
      </trkpt>
      <trkpt lat="48.09062" lon="0.09496">
        <ele>123.8</ele>
        <time>2016-06-19T11:15:09Z</time>
      </trkpt>
      <trkpt lat="48.09072" lon="0.09492">
        <ele>122.6</ele>
        <time>2016-06-19T11:15:24Z</time>
      </trkpt>
      <trkpt lat="48.09077" lon="0.09481">
        <ele>122.5</ele>
        <time>2016-06-19T11:15:31Z</time>
      </trkpt>
      <trkpt lat="48.09085" lon="0.09474">
        <ele>122.2</ele>
        <time>2016-06-19T11:15:41Z</time>
      </trkpt>
      <trkpt lat="48.09094" lon="0.09468">
        <ele>121.7</ele>
        <time>2016-06-19T11:15:55Z</time>
      </trkpt>
      <trkpt lat="48.091" lon="0.09457">
        <ele>120.7</ele>
        <time>2016-06-19T11:16:56Z</time>
      </trkpt>
      <trkpt lat="48.09109" lon="0.0945">
        <ele>119.9</ele>
        <time>2016-06-19T11:17:07Z</time>
      </trkpt>
      <trkpt lat="48.09117" lon="0.09441">
        <ele>118.3</ele>
        <time>2016-06-19T11:17:49Z</time>
      </trkpt>
      <trkpt lat="48.09127" lon="0.09438">
        <ele>118.1</ele>
        <time>2016-06-19T11:18:11Z</time>
      </trkpt>
      <trkpt lat="48.09137" lon="0.09432">
        <ele>117.9</ele>
        <time>2016-06-19T11:18:28Z</time>
      </trkpt>
      <trkpt lat="48.09146" lon="0.0943">
        <ele>117.4</ele>
        <time>2016-06-19T11:18:52Z</time>
      </trkpt>
      <trkpt lat="48.09155" lon="0.09422">
        <ele>117.1</ele>
        <time>2016-06-19T11:19:11Z</time>
      </trkpt>
      <trkpt lat="48.09164" lon="0.09416">
        <ele>116.9</ele>
        <time>2016-06-19T11:19:35Z</time>
      </trkpt>
      <trkpt lat="48.09173" lon="0.09413">
        <ele>116.2</ele>
        <time>2016-06-19T11:19:52Z</time>
      </trkpt>
      <trkpt lat="48.09182" lon="0.09406">
        <ele>115.8</ele>
        <time>2016-06-19T11:20:10Z</time>
      </trkpt>
      <trkpt lat="48.0919" lon="0.09396">
        <ele>116.2</ele>
        <time>2016-06-19T11:20:21Z</time>
      </trkpt>
      <trkpt lat="48.09199" lon="0.09393">
        <ele>114.7</ele>
        <time>2016-06-19T11:20:29Z</time>
      </trkpt>
      <trkpt lat="48.09208" lon="0.09385">
        <ele>113.8</ele>
        <time>2016-06-19T11:20:41Z</time>
      </trkpt>
      <trkpt lat="48.09215" lon="0.09376">
        <ele>113</ele>
        <time>2016-06-19T11:21:00Z</time>
      </trkpt>
      <trkpt lat="48.09224" lon="0.09372">
        <ele>111.8</ele>
        <time>2016-06-19T11:21:17Z</time>
      </trkpt>
      <trkpt lat="48.09233" lon="0.09367">
        <ele>110.7</ele>
        <time>2016-06-19T11:21:32Z</time>
      </trkpt>
      <trkpt lat="48.09243" lon="0.09365">
        <ele>109.9</ele>
        <time>2016-06-19T11:21:44Z</time>
      </trkpt>
      <trkpt lat="48.09252" lon="0.09361">
        <ele>109.3</ele>
        <time>2016-06-19T11:21:56Z</time>
      </trkpt>
      <trkpt lat="48.09261" lon="0.09355">
        <ele>108.5</ele>
        <time>2016-06-19T11:22:08Z</time>
      </trkpt>
      <trkpt lat="48.0927" lon="0.09352">
        <ele>107.7</ele>
        <time>2016-06-19T11:22:19Z</time>
      </trkpt>
      <trkpt lat="48.09279" lon="0.0935">
        <ele>106.9</ele>
        <time>2016-06-19T11:22:29Z</time>
      </trkpt>
      <trkpt lat="48.09288" lon="0.09345">
        <ele>106</ele>
        <time>2016-06-19T11:22:39Z</time>
      </trkpt>
      <trkpt lat="48.09298" lon="0.09346">
        <ele>104.2</ele>
        <time>2016-06-19T11:22:57Z</time>
      </trkpt>
      <trkpt lat="48.09307" lon="0.09346">
        <ele>103.3</ele>
        <time>2016-06-19T11:23:08Z</time>
      </trkpt>
      <trkpt lat="48.09317" lon="0.09348">
        <ele>102.2</ele>
        <time>2016-06-19T11:23:18Z</time>
      </trkpt>
      <trkpt lat="48.09327" lon="0.09351">
        <ele>101.4</ele>
        <time>2016-06-19T11:23:32Z</time>
      </trkpt>
      <trkpt lat="48.09336" lon="0.0935">
        <ele>100.3</ele>
        <time>2016-06-19T11:23:44Z</time>
      </trkpt>
      <trkpt lat="48.09345" lon="0.09353">
        <ele>99.7</ele>
        <time>2016-06-19T11:23:59Z</time>
      </trkpt>
      <trkpt lat="48.09354" lon="0.09356">
        <ele>98.3</ele>
        <time>2016-06-19T11:24:12Z</time>
      </trkpt>
      <trkpt lat="48.09363" lon="0.09359">
        <ele>98.5</ele>
        <time>2016-06-19T11:24:20Z</time>
      </trkpt>
      <trkpt lat="48.09372" lon="0.09358">
        <ele>98</ele>
        <time>2016-06-19T11:24:26Z</time>
      </trkpt>
      <trkpt lat="48.09382" lon="0.09359">
        <ele>97.4</ele>
        <time>2016-06-19T11:24:34Z</time>
      </trkpt>
      <trkpt lat="48.09391" lon="0.0936">
        <ele>97.1</ele>
        <time>2016-06-19T11:24:44Z</time>
      </trkpt>
      <trkpt lat="48.09399" lon="0.09353">
        <ele>97.8</ele>
        <time>2016-06-19T11:25:10Z</time>
      </trkpt>
      <trkpt lat="48.09409" lon="0.09355">
        <ele>96.6</ele>
        <time>2016-06-19T11:25:22Z</time>
      </trkpt>
      <trkpt lat="48.09418" lon="0.09359">
        <ele>96.2</ele>
        <time>2016-06-19T11:26:50Z</time>
      </trkpt>
      <trkpt lat="48.09428" lon="0.09359">
        <ele>95.6</ele>
        <time>2016-06-19T11:26:59Z</time>
      </trkpt>
      <trkpt lat="48.09437" lon="0.09354">
        <ele>95.5</ele>
        <time>2016-06-19T11:27:08Z</time>
      </trkpt>
      <trkpt lat="48.09446" lon="0.09351">
        <ele>95.3</ele>
        <time>2016-06-19T11:27:25Z</time>
      </trkpt>
      <trkpt lat="48.09457" lon="0.09351">
        <ele>94.6</ele>
        <time>2016-06-19T11:27:32Z</time>
      </trkpt>
      <trkpt lat="48.09467" lon="0.09351">
        <ele>94.4</ele>
        <time>2016-06-19T11:27:40Z</time>
      </trkpt>
      <trkpt lat="48.09476" lon="0.09347">
        <ele>93.9</ele>
        <time>2016-06-19T11:27:49Z</time>
      </trkpt>
      <trkpt lat="48.09485" lon="0.09343">
        <ele>93.6</ele>
        <time>2016-06-19T11:27:57Z</time>
      </trkpt>
      <trkpt lat="48.09495" lon="0.09339">
        <ele>92.6</ele>
        <time>2016-06-19T11:28:05Z</time>
      </trkpt>
      <trkpt lat="48.09504" lon="0.09335">
        <ele>92.1</ele>
        <time>2016-06-19T11:28:13Z</time>
      </trkpt>
      <trkpt lat="48.09514" lon="0.09332">
        <ele>90.8</ele>
        <time>2016-06-19T11:28:21Z</time>
      </trkpt>
      <trkpt lat="48.09524" lon="0.09332">
        <ele>90.2</ele>
        <time>2016-06-19T11:28:29Z</time>
      </trkpt>
      <trkpt lat="48.09533" lon="0.09333">
        <ele>90</ele>
        <time>2016-06-19T11:28:37Z</time>
      </trkpt>
      <trkpt lat="48.09543" lon="0.09335">
        <ele>90.1</ele>
        <time>2016-06-19T11:28:45Z</time>
      </trkpt>
      <trkpt lat="48.09552" lon="0.09336">
        <ele>90</ele>
        <time>2016-06-19T11:28:53Z</time>
      </trkpt>
      <trkpt lat="48.09561" lon="0.09334">
        <ele>89.1</ele>
        <time>2016-06-19T11:29:01Z</time>
      </trkpt>
      <trkpt lat="48.09572" lon="0.09333">
        <ele>89.1</ele>
        <time>2016-06-19T11:29:09Z</time>
      </trkpt>
      <trkpt lat="48.09581" lon="0.09332">
        <ele>89.5</ele>
        <time>2016-06-19T11:29:20Z</time>
      </trkpt>
      <trkpt lat="48.0959" lon="0.09325">
        <ele>88.1</ele>
        <time>2016-06-19T11:29:33Z</time>
      </trkpt>
      <trkpt lat="48.09599" lon="0.09322">
        <ele>88.9</ele>
        <time>2016-06-19T11:29:40Z</time>
      </trkpt>
      <trkpt lat="48.09608" lon="0.09318">
        <ele>88.8</ele>
        <time>2016-06-19T11:29:48Z</time>
      </trkpt>
      <trkpt lat="48.09619" lon="0.09315">
        <ele>90.1</ele>
        <time>2016-06-19T11:29:54Z</time>
      </trkpt>
      <trkpt lat="48.09627" lon="0.09307">
        <ele>89.9</ele>
        <time>2016-06-19T11:30:03Z</time>
      </trkpt>
      <trkpt lat="48.09634" lon="0.09296">
        <ele>90.6</ele>
        <time>2016-06-19T11:30:10Z</time>
      </trkpt>
      <trkpt lat="48.09642" lon="0.09288">
        <ele>90.4</ele>
        <time>2016-06-19T11:30:15Z</time>
      </trkpt>
      <trkpt lat="48.09649" lon="0.09278">
        <ele>89.9</ele>
        <time>2016-06-19T11:30:21Z</time>
      </trkpt>
      <trkpt lat="48.09654" lon="0.09265">
        <ele>90.4</ele>
        <time>2016-06-19T11:30:30Z</time>
      </trkpt>
      <trkpt lat="48.0966" lon="0.09255">
        <ele>90</ele>
        <time>2016-06-19T11:30:39Z</time>
      </trkpt>
      <trkpt lat="48.09669" lon="0.09248">
        <ele>90.8</ele>
        <time>2016-06-19T11:30:46Z</time>
      </trkpt>
      <trkpt lat="48.09677" lon="0.0924">
        <ele>91.4</ele>
        <time>2016-06-19T11:30:53Z</time>
      </trkpt>
      <trkpt lat="48.09685" lon="0.09232">
        <ele>92</ele>
        <time>2016-06-19T11:31:00Z</time>
      </trkpt>
      <trkpt lat="48.09693" lon="0.09225">
        <ele>92.4</ele>
        <time>2016-06-19T11:31:10Z</time>
      </trkpt>
      <trkpt lat="48.09701" lon="0.09215">
        <ele>93.3</ele>
        <time>2016-06-19T11:31:21Z</time>
      </trkpt>
      <trkpt lat="48.09708" lon="0.09206">
        <ele>95.1</ele>
        <time>2016-06-19T11:31:56Z</time>
      </trkpt>
      <trkpt lat="48.09715" lon="0.09195">
        <ele>95.6</ele>
        <time>2016-06-19T11:32:04Z</time>
      </trkpt>
      <trkpt lat="48.09723" lon="0.09187">
        <ele>96.3</ele>
        <time>2016-06-19T11:32:11Z</time>
      </trkpt>
      <trkpt lat="48.09731" lon="0.09181">
        <ele>97.6</ele>
        <time>2016-06-19T11:32:20Z</time>
      </trkpt>
      <trkpt lat="48.09739" lon="0.09172">
        <ele>98.8</ele>
        <time>2016-06-19T11:32:29Z</time>
      </trkpt>
      <trkpt lat="48.09747" lon="0.09162">
        <ele>100.6</ele>
        <time>2016-06-19T11:32:38Z</time>
      </trkpt>
      <trkpt lat="48.09754" lon="0.09153">
        <ele>100.5</ele>
        <time>2016-06-19T11:32:46Z</time>
      </trkpt>
      <trkpt lat="48.0976" lon="0.09142">
        <ele>101.3</ele>
        <time>2016-06-19T11:32:54Z</time>
      </trkpt>
      <trkpt lat="48.09766" lon="0.09132">
        <ele>102.6</ele>
        <time>2016-06-19T11:33:12Z</time>
      </trkpt>
      <trkpt lat="48.09773" lon="0.09122">
        <ele>103.4</ele>
        <time>2016-06-19T11:33:22Z</time>
      </trkpt>
      <trkpt lat="48.09781" lon="0.09114">
        <ele>104.2</ele>
        <time>2016-06-19T11:33:31Z</time>
      </trkpt>
      <trkpt lat="48.09787" lon="0.09103">
        <ele>105.3</ele>
        <time>2016-06-19T11:33:41Z</time>
      </trkpt>
      <trkpt lat="48.09794" lon="0.09094">
        <ele>106.2</ele>
        <time>2016-06-19T11:33:50Z</time>
      </trkpt>
      <trkpt lat="48.09802" lon="0.09083">
        <ele>107.8</ele>
        <time>2016-06-19T11:33:59Z</time>
      </trkpt>
      <trkpt lat="48.0981" lon="0.09076">
        <ele>107.8</ele>
        <time>2016-06-19T11:34:07Z</time>
      </trkpt>
      <trkpt lat="48.09818" lon="0.09067">
        <ele>108.3</ele>
        <time>2016-06-19T11:34:16Z</time>
      </trkpt>
      <trkpt lat="48.09826" lon="0.09058">
        <ele>108.9</ele>
        <time>2016-06-19T11:34:36Z</time>
      </trkpt>
      <trkpt lat="48.09832" lon="0.09047">
        <ele>108.9</ele>
        <time>2016-06-19T11:34:43Z</time>
      </trkpt>
      <trkpt lat="48.09837" lon="0.09036">
        <ele>109.3</ele>
        <time>2016-06-19T11:34:50Z</time>
      </trkpt>
      <trkpt lat="48.09842" lon="0.09023">
        <ele>110.1</ele>
        <time>2016-06-19T11:35:00Z</time>
      </trkpt>
      <trkpt lat="48.09847" lon="0.09012">
        <ele>110</ele>
        <time>2016-06-19T11:35:10Z</time>
      </trkpt>
      <trkpt lat="48.09851" lon="0.08998">
        <ele>110.6</ele>
        <time>2016-06-19T11:35:18Z</time>
      </trkpt>
      <trkpt lat="48.09856" lon="0.08986">
        <ele>110.9</ele>
        <time>2016-06-19T11:35:25Z</time>
      </trkpt>
      <trkpt lat="48.0986" lon="0.08973">
        <ele>111.4</ele>
        <time>2016-06-19T11:35:33Z</time>
      </trkpt>
      <trkpt lat="48.09865" lon="0.08961">
        <ele>112.3</ele>
        <time>2016-06-19T11:35:43Z</time>
      </trkpt>
      <trkpt lat="48.09871" lon="0.0895">
        <ele>113</ele>
        <time>2016-06-19T11:35:51Z</time>
      </trkpt>
      <trkpt lat="48.09875" lon="0.08937">
        <ele>113.8</ele>
        <time>2016-06-19T11:36:00Z</time>
      </trkpt>
      <trkpt lat="48.09881" lon="0.08926">
        <ele>114.7</ele>
        <time>2016-06-19T11:36:12Z</time>
      </trkpt>
      <trkpt lat="48.09887" lon="0.08914">
        <ele>115.1</ele>
        <time>2016-06-19T11:36:20Z</time>
      </trkpt>
      <trkpt lat="48.09889" lon="0.08901">
        <ele>115.6</ele>
        <time>2016-06-19T11:36:26Z</time>
      </trkpt>
      <trkpt lat="48.09895" lon="0.0889">
        <ele>116.4</ele>
        <time>2016-06-19T11:36:32Z</time>
      </trkpt>
      <trkpt lat="48.099" lon="0.08879">
        <ele>117.5</ele>
        <time>2016-06-19T11:36:41Z</time>
      </trkpt>
      <trkpt lat="48.09908" lon="0.08869">
        <ele>118.3</ele>
        <time>2016-06-19T11:36:52Z</time>
      </trkpt>
      <trkpt lat="48.09918" lon="0.08858">
        <ele>120.5</ele>
        <time>2016-06-19T11:37:08Z</time>
      </trkpt>
      <trkpt lat="48.09926" lon="0.08847">
        <ele>121.4</ele>
        <time>2016-06-19T11:37:17Z</time>
      </trkpt>
      <trkpt lat="48.09934" lon="0.08839">
        <ele>121.4</ele>
        <time>2016-06-19T11:37:23Z</time>
      </trkpt>
      <trkpt lat="48.09936" lon="0.08826">
        <ele>122.1</ele>
        <time>2016-06-19T11:38:08Z</time>
      </trkpt>
      <trkpt lat="48.09947" lon="0.08821">
        <ele>122.4</ele>
        <time>2016-06-19T11:38:16Z</time>
      </trkpt>
      <trkpt lat="48.09955" lon="0.08816">
        <ele>123.3</ele>
        <time>2016-06-19T11:38:26Z</time>
      </trkpt>
      <trkpt lat="48.09965" lon="0.08811">
        <ele>123.4</ele>
        <time>2016-06-19T11:38:33Z</time>
      </trkpt>
      <trkpt lat="48.09974" lon="0.08809">
        <ele>124.5</ele>
        <time>2016-06-19T11:38:39Z</time>
      </trkpt>
      <trkpt lat="48.09983" lon="0.08804">
        <ele>124.3</ele>
        <time>2016-06-19T11:38:46Z</time>
      </trkpt>
      <trkpt lat="48.09992" lon="0.088">
        <ele>125.5</ele>
        <time>2016-06-19T11:38:54Z</time>
      </trkpt>
      <trkpt lat="48.10001" lon="0.08798">
        <ele>125.8</ele>
        <time>2016-06-19T11:39:03Z</time>
      </trkpt>
      <trkpt lat="48.10011" lon="0.08799">
        <ele>126.4</ele>
        <time>2016-06-19T11:39:11Z</time>
      </trkpt>
      <trkpt lat="48.10019" lon="0.08807">
        <ele>126.5</ele>
        <time>2016-06-19T11:39:21Z</time>
      </trkpt>
      <trkpt lat="48.10029" lon="0.08807">
        <ele>125.1</ele>
        <time>2016-06-19T11:39:31Z</time>
      </trkpt>
      <trkpt lat="48.10038" lon="0.08802">
        <ele>125.3</ele>
        <time>2016-06-19T11:39:44Z</time>
      </trkpt>
      <trkpt lat="48.10048" lon="0.08795">
        <ele>124.7</ele>
        <time>2016-06-19T11:39:50Z</time>
      </trkpt>
      <trkpt lat="48.10056" lon="0.08787">
        <ele>124.4</ele>
        <time>2016-06-19T11:39:55Z</time>
      </trkpt>
      <trkpt lat="48.10064" lon="0.08779">
        <ele>123.4</ele>
        <time>2016-06-19T11:40:00Z</time>
      </trkpt>
      <trkpt lat="48.10073" lon="0.08771">
        <ele>123</ele>
        <time>2016-06-19T11:40:09Z</time>
      </trkpt>
      <trkpt lat="48.10081" lon="0.08764">
        <ele>122.3</ele>
        <time>2016-06-19T11:40:16Z</time>
      </trkpt>
      <trkpt lat="48.1009" lon="0.08759">
        <ele>121.5</ele>
        <time>2016-06-19T11:40:24Z</time>
      </trkpt>
      <trkpt lat="48.10095" lon="0.08746">
        <ele>120.8</ele>
        <time>2016-06-19T11:40:29Z</time>
      </trkpt>
      <trkpt lat="48.101" lon="0.08733">
        <ele>120.8</ele>
        <time>2016-06-19T11:40:58Z</time>
      </trkpt>
      <trkpt lat="48.10105" lon="0.0872">
        <ele>121</ele>
        <time>2016-06-19T11:41:05Z</time>
      </trkpt>
      <trkpt lat="48.1011" lon="0.08706">
        <ele>120.7</ele>
        <time>2016-06-19T11:41:12Z</time>
      </trkpt>
      <trkpt lat="48.10112" lon="0.08692">
        <ele>120.2</ele>
        <time>2016-06-19T11:41:19Z</time>
      </trkpt>
      <trkpt lat="48.10116" lon="0.0868">
        <ele>119.8</ele>
        <time>2016-06-19T11:41:25Z</time>
      </trkpt>
      <trkpt lat="48.10122" lon="0.0867">
        <ele>119.4</ele>
        <time>2016-06-19T11:41:31Z</time>
      </trkpt>
      <trkpt lat="48.10127" lon="0.08657">
        <ele>119</ele>
        <time>2016-06-19T11:41:37Z</time>
      </trkpt>
      <trkpt lat="48.10129" lon="0.08643">
        <ele>119.4</ele>
        <time>2016-06-19T11:41:45Z</time>
      </trkpt>
      <trkpt lat="48.10134" lon="0.0863">
        <ele>118.7</ele>
        <time>2016-06-19T11:41:52Z</time>
      </trkpt>
      <trkpt lat="48.10138" lon="0.08617">
        <ele>118.3</ele>
        <time>2016-06-19T11:41:59Z</time>
      </trkpt>
      <trkpt lat="48.10142" lon="0.08602">
        <ele>118</ele>
        <time>2016-06-19T11:42:07Z</time>
      </trkpt>
      <trkpt lat="48.10144" lon="0.08587">
        <ele>117.6</ele>
        <time>2016-06-19T11:42:15Z</time>
      </trkpt>
      <trkpt lat="48.10147" lon="0.08574">
        <ele>117.4</ele>
        <time>2016-06-19T11:42:23Z</time>
      </trkpt>
      <trkpt lat="48.1015" lon="0.0856">
        <ele>116.7</ele>
        <time>2016-06-19T11:42:32Z</time>
      </trkpt>
      <trkpt lat="48.10155" lon="0.08548">
        <ele>116.8</ele>
        <time>2016-06-19T11:42:39Z</time>
      </trkpt>
      <trkpt lat="48.1016" lon="0.08534">
        <ele>116</ele>
        <time>2016-06-19T11:42:47Z</time>
      </trkpt>
      <trkpt lat="48.10165" lon="0.08523">
        <ele>116.4</ele>
        <time>2016-06-19T11:42:55Z</time>
      </trkpt>
      <trkpt lat="48.10157" lon="0.08515">
        <ele>116.1</ele>
        <time>2016-06-19T11:43:11Z</time>
      </trkpt>
      <trkpt lat="48.10155" lon="0.08502">
        <ele>116.4</ele>
        <time>2016-06-19T11:44:31Z</time>
      </trkpt>
      <trkpt lat="48.10158" lon="0.08487">
        <ele>116.4</ele>
        <time>2016-06-19T11:44:39Z</time>
      </trkpt>
      <trkpt lat="48.1016" lon="0.08473">
        <ele>117.1</ele>
        <time>2016-06-19T11:44:47Z</time>
      </trkpt>
      <trkpt lat="48.10161" lon="0.08459">
        <ele>116.8</ele>
        <time>2016-06-19T11:44:55Z</time>
      </trkpt>
      <trkpt lat="48.10162" lon="0.08445">
        <ele>117.3</ele>
        <time>2016-06-19T11:45:09Z</time>
      </trkpt>
      <trkpt lat="48.10163" lon="0.08431">
        <ele>116.8</ele>
        <time>2016-06-19T11:45:52Z</time>
      </trkpt>
      <trkpt lat="48.10166" lon="0.08417">
        <ele>117</ele>
        <time>2016-06-19T11:46:01Z</time>
      </trkpt>
      <trkpt lat="48.10166" lon="0.08401">
        <ele>117.1</ele>
        <time>2016-06-19T11:46:10Z</time>
      </trkpt>
      <trkpt lat="48.10169" lon="0.08387">
        <ele>117.2</ele>
        <time>2016-06-19T11:46:18Z</time>
      </trkpt>
      <trkpt lat="48.1017" lon="0.08373">
        <ele>117.3</ele>
        <time>2016-06-19T11:46:25Z</time>
      </trkpt>
      <trkpt lat="48.10172" lon="0.0836">
        <ele>117.4</ele>
        <time>2016-06-19T11:46:33Z</time>
      </trkpt>
      <trkpt lat="48.10172" lon="0.08344">
        <ele>118.8</ele>
        <time>2016-06-19T11:46:42Z</time>
      </trkpt>
      <trkpt lat="48.10174" lon="0.08331">
        <ele>117.7</ele>
        <time>2016-06-19T11:46:49Z</time>
      </trkpt>
      <trkpt lat="48.10178" lon="0.08318">
        <ele>118</ele>
        <time>2016-06-19T11:46:57Z</time>
      </trkpt>
      <trkpt lat="48.10179" lon="0.08303">
        <ele>117.6</ele>
        <time>2016-06-19T11:47:05Z</time>
      </trkpt>
      <trkpt lat="48.10181" lon="0.08289">
        <ele>117.8</ele>
        <time>2016-06-19T11:47:13Z</time>
      </trkpt>
      <trkpt lat="48.10182" lon="0.08274">
        <ele>117.9</ele>
        <time>2016-06-19T11:47:21Z</time>
      </trkpt>
      <trkpt lat="48.10184" lon="0.08259">
        <ele>117.5</ele>
        <time>2016-06-19T11:47:29Z</time>
      </trkpt>
      <trkpt lat="48.10185" lon="0.08245">
        <ele>117.2</ele>
        <time>2016-06-19T11:47:37Z</time>
      </trkpt>
      <trkpt lat="48.10185" lon="0.0823">
        <ele>117.5</ele>
        <time>2016-06-19T11:47:45Z</time>
      </trkpt>
      <trkpt lat="48.10186" lon="0.08216">
        <ele>117.2</ele>
        <time>2016-06-19T11:47:52Z</time>
      </trkpt>
      <trkpt lat="48.10188" lon="0.08203">
        <ele>117.4</ele>
        <time>2016-06-19T11:47:59Z</time>
      </trkpt>
      <trkpt lat="48.10188" lon="0.08188">
        <ele>118.2</ele>
        <time>2016-06-19T11:48:08Z</time>
      </trkpt>
      <trkpt lat="48.1019" lon="0.08175">
        <ele>117.2</ele>
        <time>2016-06-19T11:48:16Z</time>
      </trkpt>
      <trkpt lat="48.10191" lon="0.08162">
        <ele>116.8</ele>
        <time>2016-06-19T11:48:23Z</time>
      </trkpt>
      <trkpt lat="48.10192" lon="0.08147">
        <ele>116.8</ele>
        <time>2016-06-19T11:48:30Z</time>
      </trkpt>
      <trkpt lat="48.10194" lon="0.08132">
        <ele>116.2</ele>
        <time>2016-06-19T11:48:38Z</time>
      </trkpt>
      <trkpt lat="48.10195" lon="0.08118">
        <ele>116.7</ele>
        <time>2016-06-19T11:48:46Z</time>
      </trkpt>
      <trkpt lat="48.10197" lon="0.08102">
        <ele>117</ele>
        <time>2016-06-19T11:48:54Z</time>
      </trkpt>
      <trkpt lat="48.10198" lon="0.08088">
        <ele>117</ele>
        <time>2016-06-19T11:49:02Z</time>
      </trkpt>
      <trkpt lat="48.102" lon="0.08075">
        <ele>116.8</ele>
        <time>2016-06-19T11:49:10Z</time>
      </trkpt>
      <trkpt lat="48.10203" lon="0.08061">
        <ele>117.9</ele>
        <time>2016-06-19T11:49:18Z</time>
      </trkpt>
      <trkpt lat="48.10205" lon="0.08048">
        <ele>117.1</ele>
        <time>2016-06-19T11:49:26Z</time>
      </trkpt>
      <trkpt lat="48.10209" lon="0.08034">
        <ele>116.7</ele>
        <time>2016-06-19T11:49:34Z</time>
      </trkpt>
      <trkpt lat="48.10212" lon="0.08021">
        <ele>117.2</ele>
        <time>2016-06-19T11:49:42Z</time>
      </trkpt>
      <trkpt lat="48.10214" lon="0.08006">
        <ele>117.4</ele>
        <time>2016-06-19T11:49:50Z</time>
      </trkpt>
      <trkpt lat="48.10218" lon="0.07993">
        <ele>117.3</ele>
        <time>2016-06-19T11:49:58Z</time>
      </trkpt>
      <trkpt lat="48.10221" lon="0.07979">
        <ele>117.2</ele>
        <time>2016-06-19T11:50:06Z</time>
      </trkpt>
      <trkpt lat="48.10225" lon="0.07967">
        <ele>118.1</ele>
        <time>2016-06-19T11:50:14Z</time>
      </trkpt>
      <trkpt lat="48.10228" lon="0.07953">
        <ele>118.7</ele>
        <time>2016-06-19T11:50:22Z</time>
      </trkpt>
      <trkpt lat="48.1023" lon="0.07939">
        <ele>118.6</ele>
        <time>2016-06-19T11:50:30Z</time>
      </trkpt>
      <trkpt lat="48.10232" lon="0.07924">
        <ele>118.4</ele>
        <time>2016-06-19T11:50:38Z</time>
      </trkpt>
      <trkpt lat="48.10236" lon="0.0791">
        <ele>117.9</ele>
        <time>2016-06-19T11:50:46Z</time>
      </trkpt>
      <trkpt lat="48.10239" lon="0.07896">
        <ele>117.5</ele>
        <time>2016-06-19T11:50:53Z</time>
      </trkpt>
      <trkpt lat="48.10243" lon="0.07882">
        <ele>118.6</ele>
        <time>2016-06-19T11:51:01Z</time>
      </trkpt>
      <trkpt lat="48.10245" lon="0.07868">
        <ele>118.4</ele>
        <time>2016-06-19T11:51:09Z</time>
      </trkpt>
      <trkpt lat="48.10247" lon="0.07854">
        <ele>118.7</ele>
        <time>2016-06-19T11:51:17Z</time>
      </trkpt>
      <trkpt lat="48.10251" lon="0.0784">
        <ele>118.8</ele>
        <time>2016-06-19T11:51:24Z</time>
      </trkpt>
      <trkpt lat="48.10254" lon="0.07827">
        <ele>118.8</ele>
        <time>2016-06-19T11:51:58Z</time>
      </trkpt>
      <trkpt lat="48.10258" lon="0.07812">
        <ele>118.3</ele>
        <time>2016-06-19T11:52:06Z</time>
      </trkpt>
      <trkpt lat="48.10262" lon="0.07799">
        <ele>119</ele>
        <time>2016-06-19T11:52:14Z</time>
      </trkpt>
      <trkpt lat="48.10265" lon="0.07786">
        <ele>118.7</ele>
        <time>2016-06-19T11:52:21Z</time>
      </trkpt>
      <trkpt lat="48.10268" lon="0.07773">
        <ele>118.9</ele>
        <time>2016-06-19T11:52:28Z</time>
      </trkpt>
      <trkpt lat="48.10268" lon="0.07759">
        <ele>118.9</ele>
        <time>2016-06-19T11:52:35Z</time>
      </trkpt>
      <trkpt lat="48.10271" lon="0.07745">
        <ele>119.6</ele>
        <time>2016-06-19T11:52:43Z</time>
      </trkpt>
      <trkpt lat="48.10273" lon="0.07732">
        <ele>119.6</ele>
        <time>2016-06-19T11:52:51Z</time>
      </trkpt>
      <trkpt lat="48.10274" lon="0.07718">
        <ele>119.6</ele>
        <time>2016-06-19T11:52:58Z</time>
      </trkpt>
      <trkpt lat="48.10276" lon="0.07704">
        <ele>119.9</ele>
        <time>2016-06-19T11:53:05Z</time>
      </trkpt>
      <trkpt lat="48.10281" lon="0.07691">
        <ele>120.5</ele>
        <time>2016-06-19T11:53:13Z</time>
      </trkpt>
      <trkpt lat="48.10285" lon="0.07678">
        <ele>119.8</ele>
        <time>2016-06-19T11:53:21Z</time>
      </trkpt>
      <trkpt lat="48.10286" lon="0.07664">
        <ele>119.8</ele>
        <time>2016-06-19T11:53:29Z</time>
      </trkpt>
      <trkpt lat="48.10288" lon="0.07651">
        <ele>120.2</ele>
        <time>2016-06-19T11:53:38Z</time>
      </trkpt>
      <trkpt lat="48.10292" lon="0.07636">
        <ele>120</ele>
        <time>2016-06-19T11:53:45Z</time>
      </trkpt>
      <trkpt lat="48.10293" lon="0.07622">
        <ele>119.8</ele>
        <time>2016-06-19T11:53:51Z</time>
      </trkpt>
      <trkpt lat="48.10296" lon="0.0761">
        <ele>120.6</ele>
        <time>2016-06-19T11:53:59Z</time>
      </trkpt>
      <trkpt lat="48.10298" lon="0.07595">
        <ele>120.2</ele>
        <time>2016-06-19T11:54:06Z</time>
      </trkpt>
      <trkpt lat="48.10301" lon="0.07582">
        <ele>120.5</ele>
        <time>2016-06-19T11:54:12Z</time>
      </trkpt>
      <trkpt lat="48.10303" lon="0.07568">
        <ele>120.9</ele>
        <time>2016-06-19T11:54:20Z</time>
      </trkpt>
      <trkpt lat="48.10306" lon="0.07554">
        <ele>120.7</ele>
        <time>2016-06-19T11:54:28Z</time>
      </trkpt>
      <trkpt lat="48.10308" lon="0.0754">
        <ele>121.8</ele>
        <time>2016-06-19T11:54:35Z</time>
      </trkpt>
      <trkpt lat="48.1031" lon="0.07526">
        <ele>121.9</ele>
        <time>2016-06-19T11:54:42Z</time>
      </trkpt>
      <trkpt lat="48.10312" lon="0.07512">
        <ele>121.7</ele>
        <time>2016-06-19T11:54:49Z</time>
      </trkpt>
      <trkpt lat="48.10312" lon="0.07497">
        <ele>122</ele>
        <time>2016-06-19T11:54:57Z</time>
      </trkpt>
      <trkpt lat="48.10313" lon="0.07484">
        <ele>122.1</ele>
        <time>2016-06-19T11:55:05Z</time>
      </trkpt>
      <trkpt lat="48.10312" lon="0.07469">
        <ele>122.8</ele>
        <time>2016-06-19T11:55:12Z</time>
      </trkpt>
      <trkpt lat="48.10313" lon="0.07454">
        <ele>122.4</ele>
        <time>2016-06-19T11:55:20Z</time>
      </trkpt>
      <trkpt lat="48.10314" lon="0.0744">
        <ele>122.8</ele>
        <time>2016-06-19T11:55:28Z</time>
      </trkpt>
      <trkpt lat="48.10315" lon="0.07426">
        <ele>122.7</ele>
        <time>2016-06-19T11:55:35Z</time>
      </trkpt>
      <trkpt lat="48.10315" lon="0.07412">
        <ele>122.7</ele>
        <time>2016-06-19T11:55:42Z</time>
      </trkpt>
      <trkpt lat="48.10315" lon="0.07397">
        <ele>124</ele>
        <time>2016-06-19T11:55:50Z</time>
      </trkpt>
      <trkpt lat="48.10315" lon="0.07383">
        <ele>124.1</ele>
        <time>2016-06-19T11:55:57Z</time>
      </trkpt>
      <trkpt lat="48.10317" lon="0.07369">
        <ele>123.5</ele>
        <time>2016-06-19T11:56:05Z</time>
      </trkpt>
      <trkpt lat="48.1032" lon="0.07355">
        <ele>124.2</ele>
        <time>2016-06-19T11:56:13Z</time>
      </trkpt>
      <trkpt lat="48.10323" lon="0.07341">
        <ele>124.1</ele>
        <time>2016-06-19T11:56:21Z</time>
      </trkpt>
      <trkpt lat="48.10325" lon="0.07328">
        <ele>124.7</ele>
        <time>2016-06-19T11:56:28Z</time>
      </trkpt>
      <trkpt lat="48.10327" lon="0.07314">
        <ele>124.7</ele>
        <time>2016-06-19T11:56:36Z</time>
      </trkpt>
      <trkpt lat="48.10327" lon="0.073">
        <ele>124.9</ele>
        <time>2016-06-19T11:57:10Z</time>
      </trkpt>
      <trkpt lat="48.10331" lon="0.07286">
        <ele>125.5</ele>
        <time>2016-06-19T11:57:18Z</time>
      </trkpt>
      <trkpt lat="48.10335" lon="0.07274">
        <ele>125.2</ele>
        <time>2016-06-19T11:57:26Z</time>
      </trkpt>
      <trkpt lat="48.10338" lon="0.0726">
        <ele>126.1</ele>
        <time>2016-06-19T11:57:34Z</time>
      </trkpt>
      <trkpt lat="48.10341" lon="0.07247">
        <ele>126.8</ele>
        <time>2016-06-19T11:57:41Z</time>
      </trkpt>
      <trkpt lat="48.10346" lon="0.07234">
        <ele>126.7</ele>
        <time>2016-06-19T11:57:48Z</time>
      </trkpt>
      <trkpt lat="48.10351" lon="0.07221">
        <ele>126.3</ele>
        <time>2016-06-19T11:57:56Z</time>
      </trkpt>
      <trkpt lat="48.10354" lon="0.07207">
        <ele>126.8</ele>
        <time>2016-06-19T11:58:04Z</time>
      </trkpt>
      <trkpt lat="48.10357" lon="0.07194">
        <ele>127.6</ele>
        <time>2016-06-19T11:58:11Z</time>
      </trkpt>
      <trkpt lat="48.10363" lon="0.07184">
        <ele>126.8</ele>
        <time>2016-06-19T11:58:17Z</time>
      </trkpt>
      <trkpt lat="48.10367" lon="0.07171">
        <ele>126.8</ele>
        <time>2016-06-19T11:58:26Z</time>
      </trkpt>
      <trkpt lat="48.10366" lon="0.07157">
        <ele>127</ele>
        <time>2016-06-19T11:58:34Z</time>
      </trkpt>
      <trkpt lat="48.10367" lon="0.07143">
        <ele>126.6</ele>
        <time>2016-06-19T11:58:42Z</time>
      </trkpt>
      <trkpt lat="48.10369" lon="0.07129">
        <ele>127.3</ele>
        <time>2016-06-19T11:58:50Z</time>
      </trkpt>
      <trkpt lat="48.10373" lon="0.07116">
        <ele>127.7</ele>
        <time>2016-06-19T11:58:57Z</time>
      </trkpt>
      <trkpt lat="48.10376" lon="0.07102">
        <ele>127.9</ele>
        <time>2016-06-19T11:59:04Z</time>
      </trkpt>
      <trkpt lat="48.10381" lon="0.0709">
        <ele>127.8</ele>
        <time>2016-06-19T11:59:11Z</time>
      </trkpt>
      <trkpt lat="48.10382" lon="0.07075">
        <ele>128.3</ele>
        <time>2016-06-19T11:59:19Z</time>
      </trkpt>
      <trkpt lat="48.10384" lon="0.07061">
        <ele>128.8</ele>
        <time>2016-06-19T11:59:26Z</time>
      </trkpt>
      <trkpt lat="48.10388" lon="0.07048">
        <ele>128.1</ele>
        <time>2016-06-19T11:59:33Z</time>
      </trkpt>
      <trkpt lat="48.1039" lon="0.07035">
        <ele>128.3</ele>
        <time>2016-06-19T11:59:41Z</time>
      </trkpt>
      <trkpt lat="48.10393" lon="0.07021">
        <ele>128.1</ele>
        <time>2016-06-19T11:59:49Z</time>
      </trkpt>
      <trkpt lat="48.10396" lon="0.07008">
        <ele>128.6</ele>
        <time>2016-06-19T11:59:57Z</time>
      </trkpt>
      <trkpt lat="48.104" lon="0.06995">
        <ele>129</ele>
        <time>2016-06-19T12:00:04Z</time>
      </trkpt>
      <trkpt lat="48.10401" lon="0.0698">
        <ele>128.2</ele>
        <time>2016-06-19T12:00:12Z</time>
      </trkpt>
      <trkpt lat="48.10405" lon="0.06966">
        <ele>128.1</ele>
        <time>2016-06-19T12:00:19Z</time>
      </trkpt>
      <trkpt lat="48.10408" lon="0.06952">
        <ele>128.2</ele>
        <time>2016-06-19T12:00:27Z</time>
      </trkpt>
      <trkpt lat="48.10411" lon="0.06938">
        <ele>128.2</ele>
        <time>2016-06-19T12:00:35Z</time>
      </trkpt>
      <trkpt lat="48.10415" lon="0.06926">
        <ele>128.6</ele>
        <time>2016-06-19T12:00:42Z</time>
      </trkpt>
      <trkpt lat="48.10418" lon="0.06912">
        <ele>127.9</ele>
        <time>2016-06-19T12:00:49Z</time>
      </trkpt>
      <trkpt lat="48.10421" lon="0.06898">
        <ele>128</ele>
        <time>2016-06-19T12:00:57Z</time>
      </trkpt>
      <trkpt lat="48.10425" lon="0.06885">
        <ele>128.4</ele>
        <time>2016-06-19T12:01:04Z</time>
      </trkpt>
      <trkpt lat="48.10427" lon="0.06871">
        <ele>128.9</ele>
        <time>2016-06-19T12:01:11Z</time>
      </trkpt>
      <trkpt lat="48.1043" lon="0.06857">
        <ele>129.2</ele>
        <time>2016-06-19T12:01:19Z</time>
      </trkpt>
      <trkpt lat="48.10433" lon="0.06842">
        <ele>128.4</ele>
        <time>2016-06-19T12:01:28Z</time>
      </trkpt>
      <trkpt lat="48.10435" lon="0.06828">
        <ele>128.6</ele>
        <time>2016-06-19T12:01:38Z</time>
      </trkpt>
      <trkpt lat="48.10442" lon="0.06816">
        <ele>128.9</ele>
        <time>2016-06-19T12:01:45Z</time>
      </trkpt>
      <trkpt lat="48.10447" lon="0.06805">
        <ele>129.3</ele>
        <time>2016-06-19T12:01:52Z</time>
      </trkpt>
      <trkpt lat="48.10448" lon="0.06789">
        <ele>128.5</ele>
        <time>2016-06-19T12:02:25Z</time>
      </trkpt>
      <trkpt lat="48.10452" lon="0.06775">
        <ele>129.3</ele>
        <time>2016-06-19T12:02:32Z</time>
      </trkpt>
      <trkpt lat="48.10456" lon="0.06764">
        <ele>130</ele>
        <time>2016-06-19T12:02:39Z</time>
      </trkpt>
      <trkpt lat="48.10461" lon="0.0675">
        <ele>129.3</ele>
        <time>2016-06-19T12:02:46Z</time>
      </trkpt>
      <trkpt lat="48.10465" lon="0.06738">
        <ele>129.1</ele>
        <time>2016-06-19T12:02:52Z</time>
      </trkpt>
      <trkpt lat="48.10466" lon="0.06724">
        <ele>129.4</ele>
        <time>2016-06-19T12:02:59Z</time>
      </trkpt>
      <trkpt lat="48.10468" lon="0.06709">
        <ele>130.1</ele>
        <time>2016-06-19T12:03:06Z</time>
      </trkpt>
      <trkpt lat="48.10469" lon="0.06696">
        <ele>130</ele>
        <time>2016-06-19T12:03:14Z</time>
      </trkpt>
      <trkpt lat="48.10474" lon="0.06684">
        <ele>129.9</ele>
        <time>2016-06-19T12:03:21Z</time>
      </trkpt>
      <trkpt lat="48.10474" lon="0.06669">
        <ele>129.1</ele>
        <time>2016-06-19T12:03:29Z</time>
      </trkpt>
      <trkpt lat="48.10476" lon="0.06656">
        <ele>128.7</ele>
        <time>2016-06-19T12:03:35Z</time>
      </trkpt>
      <trkpt lat="48.10476" lon="0.06642">
        <ele>128.9</ele>
        <time>2016-06-19T12:03:41Z</time>
      </trkpt>
      <trkpt lat="48.10474" lon="0.06627">
        <ele>128.8</ele>
        <time>2016-06-19T12:03:48Z</time>
      </trkpt>
      <trkpt lat="48.10472" lon="0.06613">
        <ele>128.5</ele>
        <time>2016-06-19T12:03:56Z</time>
      </trkpt>
      <trkpt lat="48.10471" lon="0.06598">
        <ele>128.1</ele>
        <time>2016-06-19T12:04:04Z</time>
      </trkpt>
      <trkpt lat="48.1047" lon="0.06584">
        <ele>127.8</ele>
        <time>2016-06-19T12:04:11Z</time>
      </trkpt>
      <trkpt lat="48.10472" lon="0.06569">
        <ele>127.9</ele>
        <time>2016-06-19T12:04:19Z</time>
      </trkpt>
      <trkpt lat="48.10474" lon="0.06555">
        <ele>126.9</ele>
        <time>2016-06-19T12:04:26Z</time>
      </trkpt>
      <trkpt lat="48.10475" lon="0.06541">
        <ele>127.2</ele>
        <time>2016-06-19T12:04:33Z</time>
      </trkpt>
      <trkpt lat="48.10476" lon="0.06527">
        <ele>127.6</ele>
        <time>2016-06-19T12:04:40Z</time>
      </trkpt>
      <trkpt lat="48.10479" lon="0.06513">
        <ele>127.7</ele>
        <time>2016-06-19T12:04:48Z</time>
      </trkpt>
      <trkpt lat="48.10479" lon="0.06499">
        <ele>127.7</ele>
        <time>2016-06-19T12:04:54Z</time>
      </trkpt>
      <trkpt lat="48.10476" lon="0.06486">
        <ele>127.2</ele>
        <time>2016-06-19T12:05:08Z</time>
      </trkpt>
      <trkpt lat="48.10473" lon="0.06472">
        <ele>127.9</ele>
        <time>2016-06-19T12:05:29Z</time>
      </trkpt>
      <trkpt lat="48.10471" lon="0.06458">
        <ele>128.4</ele>
        <time>2016-06-19T12:05:36Z</time>
      </trkpt>
      <trkpt lat="48.10469" lon="0.06444">
        <ele>129.1</ele>
        <time>2016-06-19T12:05:44Z</time>
      </trkpt>
      <trkpt lat="48.10467" lon="0.0643">
        <ele>128.3</ele>
        <time>2016-06-19T12:05:51Z</time>
      </trkpt>
      <trkpt lat="48.10465" lon="0.06416">
        <ele>128.1</ele>
        <time>2016-06-19T12:05:58Z</time>
      </trkpt>
      <trkpt lat="48.10463" lon="0.06402">
        <ele>128.3</ele>
        <time>2016-06-19T12:06:05Z</time>
      </trkpt>
      <trkpt lat="48.10461" lon="0.06389">
        <ele>128.6</ele>
        <time>2016-06-19T12:06:12Z</time>
      </trkpt>
      <trkpt lat="48.10458" lon="0.06374">
        <ele>128.2</ele>
        <time>2016-06-19T12:06:19Z</time>
      </trkpt>
      <trkpt lat="48.10457" lon="0.06359">
        <ele>128.2</ele>
        <time>2016-06-19T12:06:26Z</time>
      </trkpt>
      <trkpt lat="48.10455" lon="0.06345">
        <ele>128</ele>
        <time>2016-06-19T12:06:33Z</time>
      </trkpt>
      <trkpt lat="48.10453" lon="0.06332">
        <ele>128.2</ele>
        <time>2016-06-19T12:06:40Z</time>
      </trkpt>
      <trkpt lat="48.10451" lon="0.06318">
        <ele>128.3</ele>
        <time>2016-06-19T12:06:47Z</time>
      </trkpt>
      <trkpt lat="48.10449" lon="0.06304">
        <ele>127.9</ele>
        <time>2016-06-19T12:06:54Z</time>
      </trkpt>
      <trkpt lat="48.10447" lon="0.06289">
        <ele>128</ele>
        <time>2016-06-19T12:07:02Z</time>
      </trkpt>
      <trkpt lat="48.10445" lon="0.06275">
        <ele>127.8</ele>
        <time>2016-06-19T12:07:10Z</time>
      </trkpt>
      <trkpt lat="48.10442" lon="0.0626">
        <ele>128.1</ele>
        <time>2016-06-19T12:07:17Z</time>
      </trkpt>
      <trkpt lat="48.1044" lon="0.06246">
        <ele>128.3</ele>
        <time>2016-06-19T12:07:24Z</time>
      </trkpt>
      <trkpt lat="48.10439" lon="0.06232">
        <ele>127.7</ele>
        <time>2016-06-19T12:07:32Z</time>
      </trkpt>
      <trkpt lat="48.10438" lon="0.06217">
        <ele>127.6</ele>
        <time>2016-06-19T12:07:39Z</time>
      </trkpt>
      <trkpt lat="48.10436" lon="0.06204">
        <ele>127.7</ele>
        <time>2016-06-19T12:07:46Z</time>
      </trkpt>
      <trkpt lat="48.10435" lon="0.06189">
        <ele>127.2</ele>
        <time>2016-06-19T12:07:53Z</time>
      </trkpt>
      <trkpt lat="48.10433" lon="0.06175">
        <ele>127</ele>
        <time>2016-06-19T12:08:01Z</time>
      </trkpt>
      <trkpt lat="48.10432" lon="0.06161">
        <ele>126.9</ele>
        <time>2016-06-19T12:08:08Z</time>
      </trkpt>
      <trkpt lat="48.10431" lon="0.06147">
        <ele>126.3</ele>
        <time>2016-06-19T12:08:15Z</time>
      </trkpt>
      <trkpt lat="48.10431" lon="0.06134">
        <ele>124.4</ele>
        <time>2016-06-19T12:08:49Z</time>
      </trkpt>
      <trkpt lat="48.10441" lon="0.06133">
        <ele>124.7</ele>
        <time>2016-06-19T12:08:58Z</time>
      </trkpt>
      <trkpt lat="48.10451" lon="0.06136">
        <ele>125.2</ele>
        <time>2016-06-19T12:09:07Z</time>
      </trkpt>
      <trkpt lat="48.10459" lon="0.06143">
        <ele>126</ele>
        <time>2016-06-19T12:09:17Z</time>
      </trkpt>
      <trkpt lat="48.10468" lon="0.06143">
        <ele>127.2</ele>
        <time>2016-06-19T12:09:24Z</time>
      </trkpt>
      <trkpt lat="48.10479" lon="0.06143">
        <ele>128</ele>
        <time>2016-06-19T12:09:31Z</time>
      </trkpt>
      <trkpt lat="48.10489" lon="0.06145">
        <ele>129</ele>
        <time>2016-06-19T12:09:38Z</time>
      </trkpt>
      <trkpt lat="48.10499" lon="0.06146">
        <ele>128.9</ele>
        <time>2016-06-19T12:09:46Z</time>
      </trkpt>
      <trkpt lat="48.10508" lon="0.06147">
        <ele>128.8</ele>
        <time>2016-06-19T12:09:53Z</time>
      </trkpt>
      <trkpt lat="48.10517" lon="0.06145">
        <ele>128.3</ele>
        <time>2016-06-19T12:09:59Z</time>
      </trkpt>
      <trkpt lat="48.10527" lon="0.06149">
        <ele>127.6</ele>
        <time>2016-06-19T12:10:07Z</time>
      </trkpt>
      <trkpt lat="48.10536" lon="0.06149">
        <ele>125.8</ele>
        <time>2016-06-19T12:10:15Z</time>
      </trkpt>
      <trkpt lat="48.10546" lon="0.06148">
        <ele>125</ele>
        <time>2016-06-19T12:10:23Z</time>
      </trkpt>
      <trkpt lat="48.10555" lon="0.0615">
        <ele>124.5</ele>
        <time>2016-06-19T12:10:31Z</time>
      </trkpt>
      <trkpt lat="48.10565" lon="0.06149">
        <ele>123.6</ele>
        <time>2016-06-19T12:10:39Z</time>
      </trkpt>
      <trkpt lat="48.10574" lon="0.06146">
        <ele>119.6</ele>
        <time>2016-06-19T12:10:45Z</time>
      </trkpt>
      <trkpt lat="48.10584" lon="0.06144">
        <ele>126</ele>
        <time>2016-06-19T12:10:52Z</time>
      </trkpt>
      <trkpt lat="48.10593" lon="0.06143">
        <ele>122.6</ele>
        <time>2016-06-19T12:10:59Z</time>
      </trkpt>
      <trkpt lat="48.10598" lon="0.06131">
        <ele>121.9</ele>
        <time>2016-06-19T12:11:36Z</time>
      </trkpt>
      <trkpt lat="48.10599" lon="0.06117">
        <ele>121.5</ele>
        <time>2016-06-19T12:11:44Z</time>
      </trkpt>
      <trkpt lat="48.106" lon="0.06103">
        <ele>122</ele>
        <time>2016-06-19T12:11:52Z</time>
      </trkpt>
      <trkpt lat="48.10602" lon="0.06089">
        <ele>121.9</ele>
        <time>2016-06-19T12:12:00Z</time>
      </trkpt>
      <trkpt lat="48.10602" lon="0.06075">
        <ele>122.7</ele>
        <time>2016-06-19T12:12:08Z</time>
      </trkpt>
      <trkpt lat="48.10605" lon="0.06061">
        <ele>122.9</ele>
        <time>2016-06-19T12:12:16Z</time>
      </trkpt>
      <trkpt lat="48.1061" lon="0.06048">
        <ele>123.8</ele>
        <time>2016-06-19T12:12:24Z</time>
      </trkpt>
      <trkpt lat="48.10616" lon="0.06037">
        <ele>124.8</ele>
        <time>2016-06-19T12:12:32Z</time>
      </trkpt>
      <trkpt lat="48.10623" lon="0.06028">
        <ele>124.7</ele>
        <time>2016-06-19T12:12:40Z</time>
      </trkpt>
      <trkpt lat="48.10631" lon="0.06023">
        <ele>124.9</ele>
        <time>2016-06-19T12:12:47Z</time>
      </trkpt>
      <trkpt lat="48.10639" lon="0.06014">
        <ele>125.7</ele>
        <time>2016-06-19T12:12:55Z</time>
      </trkpt>
      <trkpt lat="48.10649" lon="0.06008">
        <ele>125.7</ele>
        <time>2016-06-19T12:13:04Z</time>
      </trkpt>
      <trkpt lat="48.10656" lon="0.05999">
        <ele>126.6</ele>
        <time>2016-06-19T12:13:12Z</time>
      </trkpt>
      <trkpt lat="48.10666" lon="0.05996">
        <ele>126.8</ele>
        <time>2016-06-19T12:13:17Z</time>
      </trkpt>
      <trkpt lat="48.10672" lon="0.05984">
        <ele>127.2</ele>
        <time>2016-06-19T12:13:27Z</time>
      </trkpt>
      <trkpt lat="48.10677" lon="0.05972">
        <ele>127.6</ele>
        <time>2016-06-19T12:13:35Z</time>
      </trkpt>
      <trkpt lat="48.10681" lon="0.05958">
        <ele>127.5</ele>
        <time>2016-06-19T12:13:42Z</time>
      </trkpt>
      <trkpt lat="48.10685" lon="0.05944">
        <ele>128.4</ele>
        <time>2016-06-19T12:13:50Z</time>
      </trkpt>
      <trkpt lat="48.10688" lon="0.05931">
        <ele>129</ele>
        <time>2016-06-19T12:13:58Z</time>
      </trkpt>
      <trkpt lat="48.10691" lon="0.05916">
        <ele>129.8</ele>
        <time>2016-06-19T12:14:06Z</time>
      </trkpt>
      <trkpt lat="48.10696" lon="0.05903">
        <ele>130</ele>
        <time>2016-06-19T12:14:14Z</time>
      </trkpt>
      <trkpt lat="48.10695" lon="0.05888">
        <ele>131.2</ele>
        <time>2016-06-19T12:14:23Z</time>
      </trkpt>
      <trkpt lat="48.10694" lon="0.05874">
        <ele>131.4</ele>
        <time>2016-06-19T12:14:31Z</time>
      </trkpt>
      <trkpt lat="48.10691" lon="0.0586">
        <ele>132.2</ele>
        <time>2016-06-19T12:15:39Z</time>
      </trkpt>
      <trkpt lat="48.10695" lon="0.05846">
        <ele>132.6</ele>
        <time>2016-06-19T12:15:48Z</time>
      </trkpt>
      <trkpt lat="48.10697" lon="0.05832">
        <ele>133.4</ele>
        <time>2016-06-19T12:15:56Z</time>
      </trkpt>
      <trkpt lat="48.107" lon="0.05819">
        <ele>134</ele>
        <time>2016-06-19T12:16:03Z</time>
      </trkpt>
      <trkpt lat="48.10704" lon="0.05807">
        <ele>134.6</ele>
        <time>2016-06-19T12:16:11Z</time>
      </trkpt>
      <trkpt lat="48.10707" lon="0.05793">
        <ele>134.8</ele>
        <time>2016-06-19T12:16:19Z</time>
      </trkpt>
      <trkpt lat="48.10711" lon="0.0578">
        <ele>135.2</ele>
        <time>2016-06-19T12:16:26Z</time>
      </trkpt>
      <trkpt lat="48.10714" lon="0.05767">
        <ele>135.8</ele>
        <time>2016-06-19T12:16:33Z</time>
      </trkpt>
      <trkpt lat="48.10717" lon="0.05752">
        <ele>135.3</ele>
        <time>2016-06-19T12:16:41Z</time>
      </trkpt>
      <trkpt lat="48.10721" lon="0.0574">
        <ele>136.6</ele>
        <time>2016-06-19T12:16:49Z</time>
      </trkpt>
      <trkpt lat="48.10727" lon="0.05727">
        <ele>135.2</ele>
        <time>2016-06-19T12:16:59Z</time>
      </trkpt>
      <trkpt lat="48.1073" lon="0.05713">
        <ele>139</ele>
        <time>2016-06-19T12:17:07Z</time>
      </trkpt>
      <trkpt lat="48.10734" lon="0.05701">
        <ele>139.5</ele>
        <time>2016-06-19T12:17:13Z</time>
      </trkpt>
      <trkpt lat="48.10737" lon="0.05688">
        <ele>139.2</ele>
        <time>2016-06-19T12:17:29Z</time>
      </trkpt>
      <trkpt lat="48.10736" lon="0.05674">
        <ele>139.1</ele>
        <time>2016-06-19T12:17:37Z</time>
      </trkpt>
      <trkpt lat="48.10735" lon="0.0566">
        <ele>139</ele>
        <time>2016-06-19T12:17:44Z</time>
      </trkpt>
      <trkpt lat="48.10732" lon="0.05645">
        <ele>139.6</ele>
        <time>2016-06-19T12:17:52Z</time>
      </trkpt>
      <trkpt lat="48.10729" lon="0.05631">
        <ele>139.4</ele>
        <time>2016-06-19T12:18:00Z</time>
      </trkpt>
      <trkpt lat="48.10725" lon="0.05619">
        <ele>139.1</ele>
        <time>2016-06-19T12:18:07Z</time>
      </trkpt>
      <trkpt lat="48.10728" lon="0.05605">
        <ele>139.1</ele>
        <time>2016-06-19T12:18:15Z</time>
      </trkpt>
      <trkpt lat="48.10729" lon="0.05591">
        <ele>138.6</ele>
        <time>2016-06-19T12:20:55Z</time>
      </trkpt>
      <trkpt lat="48.10735" lon="0.0558">
        <ele>138.3</ele>
        <time>2016-06-19T12:21:01Z</time>
      </trkpt>
      <trkpt lat="48.1074" lon="0.05568">
        <ele>137.5</ele>
        <time>2016-06-19T12:21:08Z</time>
      </trkpt>
      <trkpt lat="48.10746" lon="0.05555">
        <ele>137.7</ele>
        <time>2016-06-19T12:21:17Z</time>
      </trkpt>
      <trkpt lat="48.1075" lon="0.05541">
        <ele>138.3</ele>
        <time>2016-06-19T12:21:25Z</time>
      </trkpt>
      <trkpt lat="48.10756" lon="0.05529">
        <ele>137.8</ele>
        <time>2016-06-19T12:21:34Z</time>
      </trkpt>
      <trkpt lat="48.10759" lon="0.05516">
        <ele>137.7</ele>
        <time>2016-06-19T12:22:40Z</time>
      </trkpt>
      <trkpt lat="48.10761" lon="0.05502">
        <ele>136.8</ele>
        <time>2016-06-19T12:22:48Z</time>
      </trkpt>
      <trkpt lat="48.10765" lon="0.05489">
        <ele>136.2</ele>
        <time>2016-06-19T12:22:54Z</time>
      </trkpt>
      <trkpt lat="48.10769" lon="0.05477">
        <ele>136.7</ele>
        <time>2016-06-19T12:23:03Z</time>
      </trkpt>
      <trkpt lat="48.10772" lon="0.05464">
        <ele>136.3</ele>
        <time>2016-06-19T12:23:11Z</time>
      </trkpt>
      <trkpt lat="48.10777" lon="0.05452">
        <ele>136.4</ele>
        <time>2016-06-19T12:23:18Z</time>
      </trkpt>
      <trkpt lat="48.10779" lon="0.05438">
        <ele>135.6</ele>
        <time>2016-06-19T12:23:26Z</time>
      </trkpt>
      <trkpt lat="48.10784" lon="0.05424">
        <ele>134.2</ele>
        <time>2016-06-19T12:23:40Z</time>
      </trkpt>
      <trkpt lat="48.10789" lon="0.05412">
        <ele>133.6</ele>
        <time>2016-06-19T12:23:46Z</time>
      </trkpt>
      <trkpt lat="48.10796" lon="0.05403">
        <ele>132.4</ele>
        <time>2016-06-19T12:23:53Z</time>
      </trkpt>
      <trkpt lat="48.10804" lon="0.05393">
        <ele>131.7</ele>
        <time>2016-06-19T12:24:02Z</time>
      </trkpt>
      <trkpt lat="48.10812" lon="0.05385">
        <ele>131</ele>
        <time>2016-06-19T12:24:10Z</time>
      </trkpt>
      <trkpt lat="48.10821" lon="0.05378">
        <ele>130.5</ele>
        <time>2016-06-19T12:24:17Z</time>
      </trkpt>
      <trkpt lat="48.10828" lon="0.0537">
        <ele>128.4</ele>
        <time>2016-06-19T12:24:26Z</time>
      </trkpt>
      <trkpt lat="48.10836" lon="0.0536">
        <ele>126.8</ele>
        <time>2016-06-19T12:24:35Z</time>
      </trkpt>
      <trkpt lat="48.10844" lon="0.0535">
        <ele>125.7</ele>
        <time>2016-06-19T12:24:44Z</time>
      </trkpt>
      <trkpt lat="48.10853" lon="0.05345">
        <ele>124.5</ele>
        <time>2016-06-19T12:24:50Z</time>
      </trkpt>
      <trkpt lat="48.10858" lon="0.05332">
        <ele>123.5</ele>
        <time>2016-06-19T12:24:58Z</time>
      </trkpt>
      <trkpt lat="48.10865" lon="0.0532">
        <ele>122.3</ele>
        <time>2016-06-19T12:25:05Z</time>
      </trkpt>
      <trkpt lat="48.10869" lon="0.05307">
        <ele>121.9</ele>
        <time>2016-06-19T12:25:11Z</time>
      </trkpt>
      <trkpt lat="48.10875" lon="0.05294">
        <ele>120.3</ele>
        <time>2016-06-19T12:25:22Z</time>
      </trkpt>
      <trkpt lat="48.1088" lon="0.05283">
        <ele>119.7</ele>
        <time>2016-06-19T12:25:27Z</time>
      </trkpt>
      <trkpt lat="48.10883" lon="0.05268">
        <ele>118.2</ele>
        <time>2016-06-19T12:25:35Z</time>
      </trkpt>
      <trkpt lat="48.10886" lon="0.05255">
        <ele>117.1</ele>
        <time>2016-06-19T12:25:42Z</time>
      </trkpt>
      <trkpt lat="48.1089" lon="0.05241">
        <ele>116.5</ele>
        <time>2016-06-19T12:25:50Z</time>
      </trkpt>
      <trkpt lat="48.10893" lon="0.05229">
        <ele>116.1</ele>
        <time>2016-06-19T12:25:57Z</time>
      </trkpt>
      <trkpt lat="48.10894" lon="0.05214">
        <ele>115.6</ele>
        <time>2016-06-19T12:26:05Z</time>
      </trkpt>
      <trkpt lat="48.10896" lon="0.052">
        <ele>114</ele>
        <time>2016-06-19T12:26:12Z</time>
      </trkpt>
      <trkpt lat="48.10898" lon="0.05186">
        <ele>113</ele>
        <time>2016-06-19T12:26:19Z</time>
      </trkpt>
      <trkpt lat="48.10903" lon="0.05173">
        <ele>112.3</ele>
        <time>2016-06-19T12:26:27Z</time>
      </trkpt>
      <trkpt lat="48.10907" lon="0.05159">
        <ele>111.5</ele>
        <time>2016-06-19T12:26:34Z</time>
      </trkpt>
      <trkpt lat="48.10911" lon="0.05146">
        <ele>111.1</ele>
        <time>2016-06-19T12:26:42Z</time>
      </trkpt>
      <trkpt lat="48.10912" lon="0.05132">
        <ele>110.5</ele>
        <time>2016-06-19T12:26:49Z</time>
      </trkpt>
      <trkpt lat="48.10917" lon="0.05119">
        <ele>110</ele>
        <time>2016-06-19T12:26:57Z</time>
      </trkpt>
      <trkpt lat="48.10922" lon="0.05105">
        <ele>108.8</ele>
        <time>2016-06-19T12:27:05Z</time>
      </trkpt>
      <trkpt lat="48.10925" lon="0.05092">
        <ele>107.5</ele>
        <time>2016-06-19T12:27:12Z</time>
      </trkpt>
      <trkpt lat="48.1093" lon="0.0508">
        <ele>106.9</ele>
        <time>2016-06-19T12:27:19Z</time>
      </trkpt>
      <trkpt lat="48.10933" lon="0.05066">
        <ele>105.8</ele>
        <time>2016-06-19T12:27:27Z</time>
      </trkpt>
      <trkpt lat="48.10937" lon="0.05052">
        <ele>105</ele>
        <time>2016-06-19T12:27:35Z</time>
      </trkpt>
      <trkpt lat="48.10939" lon="0.05037">
        <ele>104.7</ele>
        <time>2016-06-19T12:27:43Z</time>
      </trkpt>
      <trkpt lat="48.10942" lon="0.05024">
        <ele>103.5</ele>
        <time>2016-06-19T12:27:51Z</time>
      </trkpt>
      <trkpt lat="48.10946" lon="0.05011">
        <ele>102.7</ele>
        <time>2016-06-19T12:27:58Z</time>
      </trkpt>
      <trkpt lat="48.10952" lon="0.05">
        <ele>103.4</ele>
        <time>2016-06-19T12:28:05Z</time>
      </trkpt>
      <trkpt lat="48.10958" lon="0.04988">
        <ele>102.6</ele>
        <time>2016-06-19T12:28:13Z</time>
      </trkpt>
      <trkpt lat="48.10966" lon="0.04979">
        <ele>102.5</ele>
        <time>2016-06-19T12:28:21Z</time>
      </trkpt>
      <trkpt lat="48.10975" lon="0.04973">
        <ele>102.2</ele>
        <time>2016-06-19T12:28:28Z</time>
      </trkpt>
      <trkpt lat="48.10983" lon="0.04965">
        <ele>102</ele>
        <time>2016-06-19T12:28:36Z</time>
      </trkpt>
      <trkpt lat="48.1099" lon="0.04957">
        <ele>102.4</ele>
        <time>2016-06-19T12:28:42Z</time>
      </trkpt>
      <trkpt lat="48.10998" lon="0.04947">
        <ele>101.7</ele>
        <time>2016-06-19T12:28:51Z</time>
      </trkpt>
      <trkpt lat="48.11006" lon="0.04939">
        <ele>102.4</ele>
        <time>2016-06-19T12:28:59Z</time>
      </trkpt>
      <trkpt lat="48.11013" lon="0.0493">
        <ele>102.2</ele>
        <time>2016-06-19T12:29:07Z</time>
      </trkpt>
      <trkpt lat="48.11021" lon="0.04921">
        <ele>98.3</ele>
        <time>2016-06-19T12:29:16Z</time>
      </trkpt>
      <trkpt lat="48.11023" lon="0.04908">
        <ele>103.4</ele>
        <time>2016-06-19T12:29:25Z</time>
      </trkpt>
      <trkpt lat="48.11022" lon="0.04894">
        <ele>103.9</ele>
        <time>2016-06-19T12:29:35Z</time>
      </trkpt>
      <trkpt lat="48.11022" lon="0.04879">
        <ele>104.1</ele>
        <time>2016-06-19T12:30:43Z</time>
      </trkpt>
      <trkpt lat="48.11018" lon="0.04867">
        <ele>104.2</ele>
        <time>2016-06-19T12:30:51Z</time>
      </trkpt>
      <trkpt lat="48.11013" lon="0.04854">
        <ele>103.9</ele>
        <time>2016-06-19T12:30:58Z</time>
      </trkpt>
      <trkpt lat="48.11009" lon="0.04842">
        <ele>103.8</ele>
        <time>2016-06-19T12:31:06Z</time>
      </trkpt>
      <trkpt lat="48.11005" lon="0.04829">
        <ele>104</ele>
        <time>2016-06-19T12:31:13Z</time>
      </trkpt>
      <trkpt lat="48.11" lon="0.04816">
        <ele>104.3</ele>
        <time>2016-06-19T12:31:30Z</time>
      </trkpt>
      <trkpt lat="48.10997" lon="0.04803">
        <ele>105.3</ele>
        <time>2016-06-19T12:31:38Z</time>
      </trkpt>
      <trkpt lat="48.10997" lon="0.04788">
        <ele>105.6</ele>
        <time>2016-06-19T12:31:44Z</time>
      </trkpt>
      <trkpt lat="48.10997" lon="0.04774">
        <ele>105.6</ele>
        <time>2016-06-19T12:31:49Z</time>
      </trkpt>
      <trkpt lat="48.10998" lon="0.04761">
        <ele>104.5</ele>
        <time>2016-06-19T12:31:54Z</time>
      </trkpt>
      <trkpt lat="48.10998" lon="0.04746">
        <ele>104.6</ele>
        <time>2016-06-19T12:32:01Z</time>
      </trkpt>
      <trkpt lat="48.11001" lon="0.04733">
        <ele>104.6</ele>
        <time>2016-06-19T12:32:09Z</time>
      </trkpt>
      <trkpt lat="48.11006" lon="0.04721">
        <ele>102.5</ele>
        <time>2016-06-19T12:32:17Z</time>
      </trkpt>
      <trkpt lat="48.1101" lon="0.04708">
        <ele>101.9</ele>
        <time>2016-06-19T12:32:28Z</time>
      </trkpt>
      <trkpt lat="48.11017" lon="0.04696">
        <ele>102.1</ele>
        <time>2016-06-19T12:32:35Z</time>
      </trkpt>
      <trkpt lat="48.11022" lon="0.04684">
        <ele>102.4</ele>
        <time>2016-06-19T12:32:41Z</time>
      </trkpt>
      <trkpt lat="48.11027" lon="0.04672">
        <ele>102.6</ele>
        <time>2016-06-19T12:32:48Z</time>
      </trkpt>
      <trkpt lat="48.11031" lon="0.04659">
        <ele>101.7</ele>
        <time>2016-06-19T12:32:57Z</time>
      </trkpt>
      <trkpt lat="48.11036" lon="0.04646">
        <ele>102.5</ele>
        <time>2016-06-19T12:33:05Z</time>
      </trkpt>
      <trkpt lat="48.11041" lon="0.04633">
        <ele>103</ele>
        <time>2016-06-19T12:33:12Z</time>
      </trkpt>
      <trkpt lat="48.11046" lon="0.0462">
        <ele>102.1</ele>
        <time>2016-06-19T12:33:21Z</time>
      </trkpt>
      <trkpt lat="48.11049" lon="0.04607">
        <ele>103</ele>
        <time>2016-06-19T12:33:27Z</time>
      </trkpt>
      <trkpt lat="48.11052" lon="0.04593">
        <ele>102.5</ele>
        <time>2016-06-19T12:33:36Z</time>
      </trkpt>
      <trkpt lat="48.11053" lon="0.04579">
        <ele>102.9</ele>
        <time>2016-06-19T12:33:43Z</time>
      </trkpt>
      <trkpt lat="48.11055" lon="0.04564">
        <ele>103.3</ele>
        <time>2016-06-19T12:33:50Z</time>
      </trkpt>
      <trkpt lat="48.11058" lon="0.0455">
        <ele>103.7</ele>
        <time>2016-06-19T12:33:57Z</time>
      </trkpt>
      <trkpt lat="48.1106" lon="0.04536">
        <ele>104.8</ele>
        <time>2016-06-19T12:34:04Z</time>
      </trkpt>
      <trkpt lat="48.11062" lon="0.04523">
        <ele>105.5</ele>
        <time>2016-06-19T12:34:11Z</time>
      </trkpt>
      <trkpt lat="48.11065" lon="0.04508">
        <ele>106.7</ele>
        <time>2016-06-19T12:34:19Z</time>
      </trkpt>
      <trkpt lat="48.11068" lon="0.04495">
        <ele>107.3</ele>
        <time>2016-06-19T12:34:28Z</time>
      </trkpt>
      <trkpt lat="48.11071" lon="0.04481">
        <ele>107.9</ele>
        <time>2016-06-19T12:34:37Z</time>
      </trkpt>
      <trkpt lat="48.11073" lon="0.04467">
        <ele>107.8</ele>
        <time>2016-06-19T12:34:46Z</time>
      </trkpt>
      <trkpt lat="48.11078" lon="0.04454">
        <ele>108.5</ele>
        <time>2016-06-19T12:34:58Z</time>
      </trkpt>
      <trkpt lat="48.11078" lon="0.0444">
        <ele>108.1</ele>
        <time>2016-06-19T12:36:08Z</time>
      </trkpt>
      <trkpt lat="48.1108" lon="0.04425">
        <ele>107.7</ele>
        <time>2016-06-19T12:36:16Z</time>
      </trkpt>
      <trkpt lat="48.11084" lon="0.0441">
        <ele>107.9</ele>
        <time>2016-06-19T12:36:23Z</time>
      </trkpt>
      <trkpt lat="48.11086" lon="0.04397">
        <ele>107.9</ele>
        <time>2016-06-19T12:36:30Z</time>
      </trkpt>
      <trkpt lat="48.11088" lon="0.04383">
        <ele>106.8</ele>
        <time>2016-06-19T12:36:38Z</time>
      </trkpt>
      <trkpt lat="48.11092" lon="0.04369">
        <ele>105.9</ele>
        <time>2016-06-19T12:37:18Z</time>
      </trkpt>
      <trkpt lat="48.11095" lon="0.04355">
        <ele>106.1</ele>
        <time>2016-06-19T12:37:26Z</time>
      </trkpt>
      <trkpt lat="48.11098" lon="0.04341">
        <ele>105.3</ele>
        <time>2016-06-19T12:37:33Z</time>
      </trkpt>
      <trkpt lat="48.11101" lon="0.04326">
        <ele>105.9</ele>
        <time>2016-06-19T12:37:41Z</time>
      </trkpt>
      <trkpt lat="48.11103" lon="0.04311">
        <ele>106</ele>
        <time>2016-06-19T12:37:48Z</time>
      </trkpt>
      <trkpt lat="48.11105" lon="0.04298">
        <ele>105.7</ele>
        <time>2016-06-19T12:37:55Z</time>
      </trkpt>
      <trkpt lat="48.11108" lon="0.04281">
        <ele>105.2</ele>
        <time>2016-06-19T12:38:06Z</time>
      </trkpt>
      <trkpt lat="48.1111" lon="0.04268">
        <ele>104.9</ele>
        <time>2016-06-19T12:38:13Z</time>
      </trkpt>
      <trkpt lat="48.11114" lon="0.04255">
        <ele>106.3</ele>
        <time>2016-06-19T12:38:20Z</time>
      </trkpt>
      <trkpt lat="48.1112" lon="0.04243">
        <ele>105.5</ele>
        <time>2016-06-19T12:38:27Z</time>
      </trkpt>
      <trkpt lat="48.11126" lon="0.0423">
        <ele>104.6</ele>
        <time>2016-06-19T12:38:35Z</time>
      </trkpt>
      <trkpt lat="48.11133" lon="0.04219">
        <ele>105.3</ele>
        <time>2016-06-19T12:38:43Z</time>
      </trkpt>
      <trkpt lat="48.1114" lon="0.0421">
        <ele>105</ele>
        <time>2016-06-19T12:38:50Z</time>
      </trkpt>
      <trkpt lat="48.11147" lon="0.04201">
        <ele>105.1</ele>
        <time>2016-06-19T12:38:57Z</time>
      </trkpt>
      <trkpt lat="48.11155" lon="0.04191">
        <ele>105.1</ele>
        <time>2016-06-19T12:39:05Z</time>
      </trkpt>
      <trkpt lat="48.11161" lon="0.04181">
        <ele>105.2</ele>
        <time>2016-06-19T12:39:12Z</time>
      </trkpt>
      <trkpt lat="48.11168" lon="0.04171">
        <ele>105.9</ele>
        <time>2016-06-19T12:39:20Z</time>
      </trkpt>
      <trkpt lat="48.11174" lon="0.04159">
        <ele>105.2</ele>
        <time>2016-06-19T12:39:28Z</time>
      </trkpt>
      <trkpt lat="48.11181" lon="0.0415">
        <ele>105.5</ele>
        <time>2016-06-19T12:39:37Z</time>
      </trkpt>
      <trkpt lat="48.11186" lon="0.04138">
        <ele>105.5</ele>
        <time>2016-06-19T12:39:44Z</time>
      </trkpt>
      <trkpt lat="48.11192" lon="0.04126">
        <ele>105.5</ele>
        <time>2016-06-19T12:39:52Z</time>
      </trkpt>
      <trkpt lat="48.11197" lon="0.04114">
        <ele>106.7</ele>
        <time>2016-06-19T12:40:00Z</time>
      </trkpt>
      <trkpt lat="48.11202" lon="0.04102">
        <ele>106.4</ele>
        <time>2016-06-19T12:40:07Z</time>
      </trkpt>
      <trkpt lat="48.11209" lon="0.04092">
        <ele>105.9</ele>
        <time>2016-06-19T12:40:15Z</time>
      </trkpt>
      <trkpt lat="48.11215" lon="0.04082">
        <ele>106.4</ele>
        <time>2016-06-19T12:40:22Z</time>
      </trkpt>
      <trkpt lat="48.1122" lon="0.04071">
        <ele>106.9</ele>
        <time>2016-06-19T12:40:29Z</time>
      </trkpt>
      <trkpt lat="48.11226" lon="0.04059">
        <ele>107.3</ele>
        <time>2016-06-19T12:40:37Z</time>
      </trkpt>
      <trkpt lat="48.11232" lon="0.04048">
        <ele>107.6</ele>
        <time>2016-06-19T12:40:44Z</time>
      </trkpt>
      <trkpt lat="48.11238" lon="0.04036">
        <ele>108.1</ele>
        <time>2016-06-19T12:41:15Z</time>
      </trkpt>
      <trkpt lat="48.11243" lon="0.04023">
        <ele>108.2</ele>
        <time>2016-06-19T12:41:22Z</time>
      </trkpt>
      <trkpt lat="48.1125" lon="0.04012">
        <ele>108.2</ele>
        <time>2016-06-19T12:41:30Z</time>
      </trkpt>
      <trkpt lat="48.11255" lon="0.03999">
        <ele>108.8</ele>
        <time>2016-06-19T12:41:38Z</time>
      </trkpt>
      <trkpt lat="48.11262" lon="0.03988">
        <ele>109.4</ele>
        <time>2016-06-19T12:41:45Z</time>
      </trkpt>
      <trkpt lat="48.11268" lon="0.03977">
        <ele>109.4</ele>
        <time>2016-06-19T12:41:53Z</time>
      </trkpt>
      <trkpt lat="48.11274" lon="0.03966">
        <ele>110.5</ele>
        <time>2016-06-19T12:42:00Z</time>
      </trkpt>
      <trkpt lat="48.11278" lon="0.03954">
        <ele>111</ele>
        <time>2016-06-19T12:42:09Z</time>
      </trkpt>
      <trkpt lat="48.11278" lon="0.0394">
        <ele>111.3</ele>
        <time>2016-06-19T12:42:18Z</time>
      </trkpt>
      <trkpt lat="48.11282" lon="0.03928">
        <ele>111.6</ele>
        <time>2016-06-19T12:42:24Z</time>
      </trkpt>
      <trkpt lat="48.11279" lon="0.03915">
        <ele>111.9</ele>
        <time>2016-06-19T12:42:33Z</time>
      </trkpt>
      <trkpt lat="48.11272" lon="0.03904">
        <ele>112.6</ele>
        <time>2016-06-19T12:42:42Z</time>
      </trkpt>
      <trkpt lat="48.11265" lon="0.03895">
        <ele>112.8</ele>
        <time>2016-06-19T12:42:50Z</time>
      </trkpt>
      <trkpt lat="48.11259" lon="0.03886">
        <ele>113.2</ele>
        <time>2016-06-19T12:42:57Z</time>
      </trkpt>
      <trkpt lat="48.11252" lon="0.03875">
        <ele>113.8</ele>
        <time>2016-06-19T12:43:05Z</time>
      </trkpt>
      <trkpt lat="48.11246" lon="0.03865">
        <ele>113.2</ele>
        <time>2016-06-19T12:43:12Z</time>
      </trkpt>
      <trkpt lat="48.1124" lon="0.03853">
        <ele>113.5</ele>
        <time>2016-06-19T12:43:20Z</time>
      </trkpt>
      <trkpt lat="48.11234" lon="0.03841">
        <ele>113.4</ele>
        <time>2016-06-19T12:43:28Z</time>
      </trkpt>
      <trkpt lat="48.1123" lon="0.03829">
        <ele>114</ele>
        <time>2016-06-19T12:43:35Z</time>
      </trkpt>
      <trkpt lat="48.11227" lon="0.03815">
        <ele>114.5</ele>
        <time>2016-06-19T12:43:42Z</time>
      </trkpt>
      <trkpt lat="48.11224" lon="0.03801">
        <ele>115</ele>
        <time>2016-06-19T12:43:50Z</time>
      </trkpt>
      <trkpt lat="48.11222" lon="0.03786">
        <ele>115.6</ele>
        <time>2016-06-19T12:43:58Z</time>
      </trkpt>
      <trkpt lat="48.1122" lon="0.03772">
        <ele>116.3</ele>
        <time>2016-06-19T12:44:05Z</time>
      </trkpt>
      <trkpt lat="48.11217" lon="0.03759">
        <ele>116.9</ele>
        <time>2016-06-19T12:44:15Z</time>
      </trkpt>
      <trkpt lat="48.11213" lon="0.03746">
        <ele>117.1</ele>
        <time>2016-06-19T12:44:23Z</time>
      </trkpt>
      <trkpt lat="48.11211" lon="0.03732">
        <ele>117.2</ele>
        <time>2016-06-19T12:44:30Z</time>
      </trkpt>
      <trkpt lat="48.11208" lon="0.03718">
        <ele>117.5</ele>
        <time>2016-06-19T12:44:39Z</time>
      </trkpt>
      <trkpt lat="48.11206" lon="0.03704">
        <ele>119.1</ele>
        <time>2016-06-19T12:44:47Z</time>
      </trkpt>
      <trkpt lat="48.11207" lon="0.0369">
        <ele>119.6</ele>
        <time>2016-06-19T12:44:58Z</time>
      </trkpt>
      <trkpt lat="48.11205" lon="0.03677">
        <ele>119.8</ele>
        <time>2016-06-19T12:46:03Z</time>
      </trkpt>
      <trkpt lat="48.11203" lon="0.03663">
        <ele>120.7</ele>
        <time>2016-06-19T12:46:12Z</time>
      </trkpt>
      <trkpt lat="48.11203" lon="0.03648">
        <ele>121.6</ele>
        <time>2016-06-19T12:46:20Z</time>
      </trkpt>
      <trkpt lat="48.11205" lon="0.03634">
        <ele>122.3</ele>
        <time>2016-06-19T12:46:28Z</time>
      </trkpt>
      <trkpt lat="48.11205" lon="0.0362">
        <ele>123</ele>
        <time>2016-06-19T12:46:36Z</time>
      </trkpt>
      <trkpt lat="48.11208" lon="0.03605">
        <ele>123.4</ele>
        <time>2016-06-19T12:46:44Z</time>
      </trkpt>
      <trkpt lat="48.1121" lon="0.03591">
        <ele>124.7</ele>
        <time>2016-06-19T12:46:52Z</time>
      </trkpt>
      <trkpt lat="48.11211" lon="0.03578">
        <ele>124.4</ele>
        <time>2016-06-19T12:46:59Z</time>
      </trkpt>
      <trkpt lat="48.1121" lon="0.03564">
        <ele>124.9</ele>
        <time>2016-06-19T12:47:06Z</time>
      </trkpt>
      <trkpt lat="48.11208" lon="0.0355">
        <ele>125.9</ele>
        <time>2016-06-19T12:47:14Z</time>
      </trkpt>
      <trkpt lat="48.11205" lon="0.03537">
        <ele>126.1</ele>
        <time>2016-06-19T12:47:23Z</time>
      </trkpt>
      <trkpt lat="48.11202" lon="0.03524">
        <ele>126.4</ele>
        <time>2016-06-19T12:47:31Z</time>
      </trkpt>
      <trkpt lat="48.112" lon="0.03509">
        <ele>127.1</ele>
        <time>2016-06-19T12:47:39Z</time>
      </trkpt>
      <trkpt lat="48.112" lon="0.03494">
        <ele>126.7</ele>
        <time>2016-06-19T12:47:48Z</time>
      </trkpt>
      <trkpt lat="48.11198" lon="0.03478">
        <ele>126.3</ele>
        <time>2016-06-19T12:47:56Z</time>
      </trkpt>
      <trkpt lat="48.11198" lon="0.03465">
        <ele>125.7</ele>
        <time>2016-06-19T12:48:03Z</time>
      </trkpt>
      <trkpt lat="48.112" lon="0.03451">
        <ele>124.8</ele>
        <time>2016-06-19T12:48:13Z</time>
      </trkpt>
      <trkpt lat="48.11201" lon="0.03437">
        <ele>123.2</ele>
        <time>2016-06-19T12:48:54Z</time>
      </trkpt>
      <trkpt lat="48.11203" lon="0.03422">
        <ele>122</ele>
        <time>2016-06-19T12:49:02Z</time>
      </trkpt>
      <trkpt lat="48.11203" lon="0.03407">
        <ele>121.8</ele>
        <time>2016-06-19T12:49:09Z</time>
      </trkpt>
      <trkpt lat="48.11204" lon="0.03392">
        <ele>120.4</ele>
        <time>2016-06-19T12:49:19Z</time>
      </trkpt>
      <trkpt lat="48.11205" lon="0.03378">
        <ele>119.4</ele>
        <time>2016-06-19T12:49:27Z</time>
      </trkpt>
      <trkpt lat="48.11204" lon="0.03363">
        <ele>117.9</ele>
        <time>2016-06-19T12:49:34Z</time>
      </trkpt>
      <trkpt lat="48.11206" lon="0.0335">
        <ele>117.1</ele>
        <time>2016-06-19T12:49:41Z</time>
      </trkpt>
      <trkpt lat="48.11205" lon="0.03336">
        <ele>116.2</ele>
        <time>2016-06-19T12:49:47Z</time>
      </trkpt>
      <trkpt lat="48.11204" lon="0.03322">
        <ele>115.7</ele>
        <time>2016-06-19T12:49:55Z</time>
      </trkpt>
      <trkpt lat="48.11205" lon="0.03308">
        <ele>114.7</ele>
        <time>2016-06-19T12:50:02Z</time>
      </trkpt>
      <trkpt lat="48.11206" lon="0.03293">
        <ele>113.9</ele>
        <time>2016-06-19T12:50:09Z</time>
      </trkpt>
      <trkpt lat="48.11206" lon="0.0328">
        <ele>113.5</ele>
        <time>2016-06-19T12:50:16Z</time>
      </trkpt>
      <trkpt lat="48.11205" lon="0.03266">
        <ele>112.7</ele>
        <time>2016-06-19T12:50:24Z</time>
      </trkpt>
      <trkpt lat="48.11204" lon="0.03251">
        <ele>111.6</ele>
        <time>2016-06-19T12:50:33Z</time>
      </trkpt>
      <trkpt lat="48.112" lon="0.03237">
        <ele>110.5</ele>
        <time>2016-06-19T12:50:41Z</time>
      </trkpt>
      <trkpt lat="48.11198" lon="0.03223">
        <ele>110.2</ele>
        <time>2016-06-19T12:50:48Z</time>
      </trkpt>
      <trkpt lat="48.11193" lon="0.0321">
        <ele>110.2</ele>
        <time>2016-06-19T12:50:56Z</time>
      </trkpt>
      <trkpt lat="48.11189" lon="0.03197">
        <ele>110.4</ele>
        <time>2016-06-19T12:51:03Z</time>
      </trkpt>
      <trkpt lat="48.11185" lon="0.03182">
        <ele>109.7</ele>
        <time>2016-06-19T12:51:09Z</time>
      </trkpt>
      <trkpt lat="48.11181" lon="0.03168">
        <ele>108.7</ele>
        <time>2016-06-19T12:51:16Z</time>
      </trkpt>
      <trkpt lat="48.11176" lon="0.03153">
        <ele>108.9</ele>
        <time>2016-06-19T12:51:23Z</time>
      </trkpt>
      <trkpt lat="48.11172" lon="0.03139">
        <ele>108.5</ele>
        <time>2016-06-19T12:51:32Z</time>
      </trkpt>
      <trkpt lat="48.11168" lon="0.03127">
        <ele>107.8</ele>
        <time>2016-06-19T12:51:38Z</time>
      </trkpt>
      <trkpt lat="48.11163" lon="0.03114">
        <ele>107.6</ele>
        <time>2016-06-19T12:51:45Z</time>
      </trkpt>
      <trkpt lat="48.11159" lon="0.031">
        <ele>108.1</ele>
        <time>2016-06-19T12:51:53Z</time>
      </trkpt>
      <trkpt lat="48.11156" lon="0.03085">
        <ele>108</ele>
        <time>2016-06-19T12:52:01Z</time>
      </trkpt>
      <trkpt lat="48.11154" lon="0.03072">
        <ele>108.2</ele>
        <time>2016-06-19T12:52:08Z</time>
      </trkpt>
      <trkpt lat="48.1115" lon="0.03058">
        <ele>108.4</ele>
        <time>2016-06-19T12:52:16Z</time>
      </trkpt>
      <trkpt lat="48.11147" lon="0.03044">
        <ele>108.9</ele>
        <time>2016-06-19T12:52:36Z</time>
      </trkpt>
      <trkpt lat="48.11144" lon="0.03029">
        <ele>108.5</ele>
        <time>2016-06-19T12:52:44Z</time>
      </trkpt>
      <trkpt lat="48.11142" lon="0.03014">
        <ele>108.8</ele>
        <time>2016-06-19T12:52:53Z</time>
      </trkpt>
      <trkpt lat="48.11138" lon="0.03001">
        <ele>109</ele>
        <time>2016-06-19T12:53:01Z</time>
      </trkpt>
      <trkpt lat="48.11135" lon="0.02987">
        <ele>109</ele>
        <time>2016-06-19T12:53:10Z</time>
      </trkpt>
      <trkpt lat="48.11131" lon="0.02975">
        <ele>109.4</ele>
        <time>2016-06-19T12:53:17Z</time>
      </trkpt>
      <trkpt lat="48.11129" lon="0.02961">
        <ele>109.4</ele>
        <time>2016-06-19T12:53:26Z</time>
      </trkpt>
      <trkpt lat="48.11125" lon="0.02947">
        <ele>109.9</ele>
        <time>2016-06-19T12:53:34Z</time>
      </trkpt>
      <trkpt lat="48.1112" lon="0.02933">
        <ele>109.7</ele>
        <time>2016-06-19T12:53:41Z</time>
      </trkpt>
      <trkpt lat="48.11117" lon="0.02919">
        <ele>109.8</ele>
        <time>2016-06-19T12:53:48Z</time>
      </trkpt>
      <trkpt lat="48.11114" lon="0.02906">
        <ele>110.4</ele>
        <time>2016-06-19T12:53:54Z</time>
      </trkpt>
      <trkpt lat="48.11108" lon="0.02895">
        <ele>109.9</ele>
        <time>2016-06-19T12:54:02Z</time>
      </trkpt>
      <trkpt lat="48.11102" lon="0.02885">
        <ele>111.1</ele>
        <time>2016-06-19T12:54:11Z</time>
      </trkpt>
      <trkpt lat="48.11096" lon="0.02875">
        <ele>111.5</ele>
        <time>2016-06-19T12:54:19Z</time>
      </trkpt>
      <trkpt lat="48.11089" lon="0.02866">
        <ele>112.1</ele>
        <time>2016-06-19T12:54:27Z</time>
      </trkpt>
      <trkpt lat="48.11083" lon="0.02855">
        <ele>111.2</ele>
        <time>2016-06-19T12:54:34Z</time>
      </trkpt>
      <trkpt lat="48.11075" lon="0.02845">
        <ele>111.2</ele>
        <time>2016-06-19T12:54:44Z</time>
      </trkpt>
      <trkpt lat="48.11068" lon="0.02835">
        <ele>111.7</ele>
        <time>2016-06-19T12:54:52Z</time>
      </trkpt>
      <trkpt lat="48.11063" lon="0.02824">
        <ele>111.9</ele>
        <time>2016-06-19T12:54:59Z</time>
      </trkpt>
      <trkpt lat="48.11057" lon="0.02813">
        <ele>112</ele>
        <time>2016-06-19T12:55:07Z</time>
      </trkpt>
      <trkpt lat="48.11053" lon="0.028">
        <ele>112.6</ele>
        <time>2016-06-19T12:55:15Z</time>
      </trkpt>
      <trkpt lat="48.11051" lon="0.02787">
        <ele>112.8</ele>
        <time>2016-06-19T12:56:00Z</time>
      </trkpt>
      <trkpt lat="48.11046" lon="0.02774">
        <ele>113</ele>
        <time>2016-06-19T12:56:11Z</time>
      </trkpt>
      <trkpt lat="48.11041" lon="0.02761">
        <ele>113.9</ele>
        <time>2016-06-19T12:56:20Z</time>
      </trkpt>
      <trkpt lat="48.11038" lon="0.02748">
        <ele>113.6</ele>
        <time>2016-06-19T12:56:28Z</time>
      </trkpt>
      <trkpt lat="48.11035" lon="0.02735">
        <ele>113.3</ele>
        <time>2016-06-19T12:56:35Z</time>
      </trkpt>
      <trkpt lat="48.11032" lon="0.02722">
        <ele>112</ele>
        <time>2016-06-19T12:56:41Z</time>
      </trkpt>
      <trkpt lat="48.11027" lon="0.02708">
        <ele>111.7</ele>
        <time>2016-06-19T12:56:48Z</time>
      </trkpt>
      <trkpt lat="48.11023" lon="0.02695">
        <ele>111.3</ele>
        <time>2016-06-19T12:56:55Z</time>
      </trkpt>
      <trkpt lat="48.1102" lon="0.02681">
        <ele>111.8</ele>
        <time>2016-06-19T12:57:04Z</time>
      </trkpt>
      <trkpt lat="48.11017" lon="0.02668">
        <ele>112.6</ele>
        <time>2016-06-19T12:57:12Z</time>
      </trkpt>
      <trkpt lat="48.11013" lon="0.02655">
        <ele>112.5</ele>
        <time>2016-06-19T12:57:18Z</time>
      </trkpt>
      <trkpt lat="48.1101" lon="0.02642">
        <ele>112.2</ele>
        <time>2016-06-19T12:57:26Z</time>
      </trkpt>
      <trkpt lat="48.11009" lon="0.02627">
        <ele>112.5</ele>
        <time>2016-06-19T12:57:34Z</time>
      </trkpt>
      <trkpt lat="48.11007" lon="0.02612">
        <ele>112.2</ele>
        <time>2016-06-19T12:57:42Z</time>
      </trkpt>
      <trkpt lat="48.11006" lon="0.02598">
        <ele>113.4</ele>
        <time>2016-06-19T12:57:51Z</time>
      </trkpt>
      <trkpt lat="48.11002" lon="0.02584">
        <ele>113.2</ele>
        <time>2016-06-19T12:57:58Z</time>
      </trkpt>
      <trkpt lat="48.11" lon="0.02569">
        <ele>113.8</ele>
        <time>2016-06-19T12:58:06Z</time>
      </trkpt>
      <trkpt lat="48.10998" lon="0.02554">
        <ele>114.7</ele>
        <time>2016-06-19T12:58:26Z</time>
      </trkpt>
      <trkpt lat="48.10997" lon="0.0254">
        <ele>114.1</ele>
        <time>2016-06-19T12:58:34Z</time>
      </trkpt>
      <trkpt lat="48.10996" lon="0.02527">
        <ele>114.1</ele>
        <time>2016-06-19T12:58:42Z</time>
      </trkpt>
      <trkpt lat="48.10994" lon="0.02513">
        <ele>112.6</ele>
        <time>2016-06-19T12:58:50Z</time>
      </trkpt>
      <trkpt lat="48.10994" lon="0.025">
        <ele>112.5</ele>
        <time>2016-06-19T12:58:58Z</time>
      </trkpt>
      <trkpt lat="48.10992" lon="0.02486">
        <ele>112</ele>
        <time>2016-06-19T12:59:07Z</time>
      </trkpt>
      <trkpt lat="48.10983" lon="0.02477">
        <ele>113.1</ele>
        <time>2016-06-19T12:59:14Z</time>
      </trkpt>
      <trkpt lat="48.1098" lon="0.02463">
        <ele>112.3</ele>
        <time>2016-06-19T12:59:25Z</time>
      </trkpt>
      <trkpt lat="48.10973" lon="0.02451">
        <ele>112.9</ele>
        <time>2016-06-19T12:59:32Z</time>
      </trkpt>
      <trkpt lat="48.10967" lon="0.02441">
        <ele>112.3</ele>
        <time>2016-06-19T12:59:40Z</time>
      </trkpt>
      <trkpt lat="48.10969" lon="0.02427">
        <ele>112.8</ele>
        <time>2016-06-19T12:59:48Z</time>
      </trkpt>
      <trkpt lat="48.10977" lon="0.02414">
        <ele>112.7</ele>
        <time>2016-06-19T12:59:56Z</time>
      </trkpt>
      <trkpt lat="48.10982" lon="0.02402">
        <ele>113.3</ele>
        <time>2016-06-19T13:02:40Z</time>
      </trkpt>
      <trkpt lat="48.10989" lon="0.02392">
        <ele>113.4</ele>
        <time>2016-06-19T13:02:50Z</time>
      </trkpt>
      <trkpt lat="48.10993" lon="0.02379">
        <ele>114.9</ele>
        <time>2016-06-19T13:02:57Z</time>
      </trkpt>
      <trkpt lat="48.11002" lon="0.0237">
        <ele>115</ele>
        <time>2016-06-19T13:03:02Z</time>
      </trkpt>
      <trkpt lat="48.11009" lon="0.02359">
        <ele>115.8</ele>
        <time>2016-06-19T13:03:09Z</time>
      </trkpt>
      <trkpt lat="48.11017" lon="0.02351">
        <ele>116.8</ele>
        <time>2016-06-19T13:03:16Z</time>
      </trkpt>
      <trkpt lat="48.11021" lon="0.02338">
        <ele>118.1</ele>
        <time>2016-06-19T13:03:23Z</time>
      </trkpt>
      <trkpt lat="48.11028" lon="0.02327">
        <ele>119.4</ele>
        <time>2016-06-19T13:03:31Z</time>
      </trkpt>
      <trkpt lat="48.11035" lon="0.02316">
        <ele>120.2</ele>
        <time>2016-06-19T13:03:38Z</time>
      </trkpt>
      <trkpt lat="48.11043" lon="0.02306">
        <ele>120.7</ele>
        <time>2016-06-19T13:03:47Z</time>
      </trkpt>
      <trkpt lat="48.11051" lon="0.02298">
        <ele>122.2</ele>
        <time>2016-06-19T13:03:55Z</time>
      </trkpt>
      <trkpt lat="48.11058" lon="0.02291">
        <ele>122.5</ele>
        <time>2016-06-19T13:04:02Z</time>
      </trkpt>
      <trkpt lat="48.11066" lon="0.02283">
        <ele>123.3</ele>
        <time>2016-06-19T13:04:09Z</time>
      </trkpt>
      <trkpt lat="48.11073" lon="0.02273">
        <ele>125.3</ele>
        <time>2016-06-19T13:04:16Z</time>
      </trkpt>
      <trkpt lat="48.11081" lon="0.02264">
        <ele>125.1</ele>
        <time>2016-06-19T13:04:24Z</time>
      </trkpt>
      <trkpt lat="48.11089" lon="0.02256">
        <ele>125.7</ele>
        <time>2016-06-19T13:04:31Z</time>
      </trkpt>
      <trkpt lat="48.11098" lon="0.02247">
        <ele>125.9</ele>
        <time>2016-06-19T13:04:57Z</time>
      </trkpt>
      <trkpt lat="48.11105" lon="0.02238">
        <ele>125.6</ele>
        <time>2016-06-19T13:05:05Z</time>
      </trkpt>
      <trkpt lat="48.11112" lon="0.0223">
        <ele>126.3</ele>
        <time>2016-06-19T13:05:12Z</time>
      </trkpt>
      <trkpt lat="48.1112" lon="0.02221">
        <ele>125.8</ele>
        <time>2016-06-19T13:05:20Z</time>
      </trkpt>
      <trkpt lat="48.11127" lon="0.02211">
        <ele>126.3</ele>
        <time>2016-06-19T13:05:27Z</time>
      </trkpt>
      <trkpt lat="48.11133" lon="0.02202">
        <ele>126</ele>
        <time>2016-06-19T13:05:34Z</time>
      </trkpt>
      <trkpt lat="48.11141" lon="0.02192">
        <ele>125.5</ele>
        <time>2016-06-19T13:05:42Z</time>
      </trkpt>
      <trkpt lat="48.11149" lon="0.02182">
        <ele>126.1</ele>
        <time>2016-06-19T13:05:50Z</time>
      </trkpt>
      <trkpt lat="48.11157" lon="0.02174">
        <ele>126.5</ele>
        <time>2016-06-19T13:05:57Z</time>
      </trkpt>
      <trkpt lat="48.11164" lon="0.02165">
        <ele>126</ele>
        <time>2016-06-19T13:06:05Z</time>
      </trkpt>
      <trkpt lat="48.11172" lon="0.02155">
        <ele>126.6</ele>
        <time>2016-06-19T13:06:13Z</time>
      </trkpt>
      <trkpt lat="48.11179" lon="0.02146">
        <ele>126.6</ele>
        <time>2016-06-19T13:06:21Z</time>
      </trkpt>
      <trkpt lat="48.11187" lon="0.02137">
        <ele>127.1</ele>
        <time>2016-06-19T13:06:29Z</time>
      </trkpt>
      <trkpt lat="48.11195" lon="0.02127">
        <ele>127.1</ele>
        <time>2016-06-19T13:06:38Z</time>
      </trkpt>
      <trkpt lat="48.11202" lon="0.02118">
        <ele>127.4</ele>
        <time>2016-06-19T13:06:46Z</time>
      </trkpt>
      <trkpt lat="48.1121" lon="0.02109">
        <ele>127.1</ele>
        <time>2016-06-19T13:06:54Z</time>
      </trkpt>
      <trkpt lat="48.11218" lon="0.021">
        <ele>127.3</ele>
        <time>2016-06-19T13:07:02Z</time>
      </trkpt>
      <trkpt lat="48.11225" lon="0.02091">
        <ele>127.3</ele>
        <time>2016-06-19T13:07:10Z</time>
      </trkpt>
      <trkpt lat="48.11233" lon="0.02081">
        <ele>127.4</ele>
        <time>2016-06-19T13:07:18Z</time>
      </trkpt>
      <trkpt lat="48.11241" lon="0.02073">
        <ele>127.6</ele>
        <time>2016-06-19T13:07:25Z</time>
      </trkpt>
      <trkpt lat="48.11248" lon="0.02063">
        <ele>127.3</ele>
        <time>2016-06-19T13:07:33Z</time>
      </trkpt>
      <trkpt lat="48.11255" lon="0.02054">
        <ele>126.7</ele>
        <time>2016-06-19T13:07:41Z</time>
      </trkpt>
      <trkpt lat="48.11263" lon="0.02045">
        <ele>126.7</ele>
        <time>2016-06-19T13:07:49Z</time>
      </trkpt>
      <trkpt lat="48.1127" lon="0.02036">
        <ele>126.8</ele>
        <time>2016-06-19T13:07:56Z</time>
      </trkpt>
      <trkpt lat="48.11277" lon="0.02028">
        <ele>126.2</ele>
        <time>2016-06-19T13:08:03Z</time>
      </trkpt>
      <trkpt lat="48.11284" lon="0.02017">
        <ele>125.7</ele>
        <time>2016-06-19T13:08:53Z</time>
      </trkpt>
      <trkpt lat="48.11291" lon="0.02008">
        <ele>125.7</ele>
        <time>2016-06-19T13:09:00Z</time>
      </trkpt>
      <trkpt lat="48.11299" lon="0.01998">
        <ele>125.4</ele>
        <time>2016-06-19T13:09:07Z</time>
      </trkpt>
      <trkpt lat="48.11306" lon="0.01989">
        <ele>124.4</ele>
        <time>2016-06-19T13:09:14Z</time>
      </trkpt>
      <trkpt lat="48.11313" lon="0.0198">
        <ele>125.6</ele>
        <time>2016-06-19T13:09:21Z</time>
      </trkpt>
      <trkpt lat="48.11321" lon="0.01971">
        <ele>123.9</ele>
        <time>2016-06-19T13:09:29Z</time>
      </trkpt>
      <trkpt lat="48.11329" lon="0.01963">
        <ele>122.3</ele>
        <time>2016-06-19T13:09:37Z</time>
      </trkpt>
      <trkpt lat="48.11336" lon="0.01955">
        <ele>121.6</ele>
        <time>2016-06-19T13:09:45Z</time>
      </trkpt>
      <trkpt lat="48.11344" lon="0.01947">
        <ele>120.9</ele>
        <time>2016-06-19T13:09:52Z</time>
      </trkpt>
      <trkpt lat="48.11353" lon="0.01939">
        <ele>121</ele>
        <time>2016-06-19T13:09:59Z</time>
      </trkpt>
      <trkpt lat="48.11361" lon="0.0193">
        <ele>120.4</ele>
        <time>2016-06-19T13:10:07Z</time>
      </trkpt>
      <trkpt lat="48.11368" lon="0.01921">
        <ele>120.8</ele>
        <time>2016-06-19T13:10:15Z</time>
      </trkpt>
      <trkpt lat="48.11374" lon="0.0191">
        <ele>120.9</ele>
        <time>2016-06-19T13:10:22Z</time>
      </trkpt>
      <trkpt lat="48.11379" lon="0.01899">
        <ele>121.7</ele>
        <time>2016-06-19T13:10:31Z</time>
      </trkpt>
      <trkpt lat="48.11386" lon="0.01889">
        <ele>122.4</ele>
        <time>2016-06-19T13:10:39Z</time>
      </trkpt>
      <trkpt lat="48.11393" lon="0.01877">
        <ele>123.7</ele>
        <time>2016-06-19T13:10:48Z</time>
      </trkpt>
      <trkpt lat="48.114" lon="0.01867">
        <ele>125.2</ele>
        <time>2016-06-19T13:10:57Z</time>
      </trkpt>
      <trkpt lat="48.11408" lon="0.0186">
        <ele>126.2</ele>
        <time>2016-06-19T13:11:14Z</time>
      </trkpt>
      <trkpt lat="48.11416" lon="0.01852">
        <ele>125.8</ele>
        <time>2016-06-19T13:11:22Z</time>
      </trkpt>
      <trkpt lat="48.11424" lon="0.01845">
        <ele>126.3</ele>
        <time>2016-06-19T13:11:31Z</time>
      </trkpt>
      <trkpt lat="48.11431" lon="0.01834">
        <ele>127.7</ele>
        <time>2016-06-19T13:11:41Z</time>
      </trkpt>
      <trkpt lat="48.11439" lon="0.01826">
        <ele>127</ele>
        <time>2016-06-19T13:11:48Z</time>
      </trkpt>
      <trkpt lat="48.11447" lon="0.01816">
        <ele>127.1</ele>
        <time>2016-06-19T13:11:56Z</time>
      </trkpt>
      <trkpt lat="48.11454" lon="0.01807">
        <ele>127.4</ele>
        <time>2016-06-19T13:12:05Z</time>
      </trkpt>
      <trkpt lat="48.11462" lon="0.018">
        <ele>127.3</ele>
        <time>2016-06-19T13:12:12Z</time>
      </trkpt>
      <trkpt lat="48.11469" lon="0.0179">
        <ele>127.2</ele>
        <time>2016-06-19T13:12:20Z</time>
      </trkpt>
      <trkpt lat="48.11476" lon="0.01782">
        <ele>127.8</ele>
        <time>2016-06-19T13:12:27Z</time>
      </trkpt>
      <trkpt lat="48.11484" lon="0.01772">
        <ele>127.3</ele>
        <time>2016-06-19T13:12:35Z</time>
      </trkpt>
      <trkpt lat="48.11493" lon="0.01768">
        <ele>127.6</ele>
        <time>2016-06-19T13:12:43Z</time>
      </trkpt>
      <trkpt lat="48.11502" lon="0.01761">
        <ele>127.1</ele>
        <time>2016-06-19T13:12:52Z</time>
      </trkpt>
      <trkpt lat="48.11509" lon="0.01753">
        <ele>126.1</ele>
        <time>2016-06-19T13:13:14Z</time>
      </trkpt>
      <trkpt lat="48.11513" lon="0.0174">
        <ele>127</ele>
        <time>2016-06-19T13:13:24Z</time>
      </trkpt>
      <trkpt lat="48.1151" lon="0.01727">
        <ele>126</ele>
        <time>2016-06-19T13:13:29Z</time>
      </trkpt>
      <trkpt lat="48.11504" lon="0.01714">
        <ele>126.9</ele>
        <time>2016-06-19T13:13:37Z</time>
      </trkpt>
      <trkpt lat="48.11501" lon="0.01701">
        <ele>126.2</ele>
        <time>2016-06-19T13:13:46Z</time>
      </trkpt>
      <trkpt lat="48.11499" lon="0.01688">
        <ele>126.7</ele>
        <time>2016-06-19T13:14:04Z</time>
      </trkpt>
      <trkpt lat="48.11503" lon="0.01675">
        <ele>127.1</ele>
        <time>2016-06-19T13:15:40Z</time>
      </trkpt>
      <trkpt lat="48.11505" lon="0.01662">
        <ele>127.8</ele>
        <time>2016-06-19T13:15:49Z</time>
      </trkpt>
      <trkpt lat="48.11505" lon="0.01647">
        <ele>127.7</ele>
        <time>2016-06-19T13:15:57Z</time>
      </trkpt>
      <trkpt lat="48.11503" lon="0.01633">
        <ele>127.3</ele>
        <time>2016-06-19T13:16:07Z</time>
      </trkpt>
      <trkpt lat="48.115" lon="0.0162">
        <ele>127.9</ele>
        <time>2016-06-19T13:16:15Z</time>
      </trkpt>
      <trkpt lat="48.11496" lon="0.01608">
        <ele>128.3</ele>
        <time>2016-06-19T13:16:22Z</time>
      </trkpt>
      <trkpt lat="48.11492" lon="0.01594">
        <ele>128.5</ele>
        <time>2016-06-19T13:16:30Z</time>
      </trkpt>
      <trkpt lat="48.11488" lon="0.01582">
        <ele>128.9</ele>
        <time>2016-06-19T13:16:37Z</time>
      </trkpt>
      <trkpt lat="48.11484" lon="0.01569">
        <ele>128.9</ele>
        <time>2016-06-19T13:16:45Z</time>
      </trkpt>
      <trkpt lat="48.11482" lon="0.01556">
        <ele>129.1</ele>
        <time>2016-06-19T13:16:53Z</time>
      </trkpt>
      <trkpt lat="48.1148" lon="0.0154">
        <ele>129.7</ele>
        <time>2016-06-19T13:17:01Z</time>
      </trkpt>
      <trkpt lat="48.11477" lon="0.01526">
        <ele>129.4</ele>
        <time>2016-06-19T13:17:10Z</time>
      </trkpt>
      <trkpt lat="48.11472" lon="0.0151">
        <ele>129</ele>
        <time>2016-06-19T13:17:19Z</time>
      </trkpt>
      <trkpt lat="48.11468" lon="0.01498">
        <ele>129.4</ele>
        <time>2016-06-19T13:17:26Z</time>
      </trkpt>
      <trkpt lat="48.11465" lon="0.01484">
        <ele>129.6</ele>
        <time>2016-06-19T13:17:34Z</time>
      </trkpt>
      <trkpt lat="48.1146" lon="0.0147">
        <ele>130.1</ele>
        <time>2016-06-19T13:17:42Z</time>
      </trkpt>
      <trkpt lat="48.11456" lon="0.01458">
        <ele>130.6</ele>
        <time>2016-06-19T13:17:53Z</time>
      </trkpt>
      <trkpt lat="48.11453" lon="0.01445">
        <ele>130.7</ele>
        <time>2016-06-19T13:18:31Z</time>
      </trkpt>
      <trkpt lat="48.1145" lon="0.0143">
        <ele>130.9</ele>
        <time>2016-06-19T13:18:38Z</time>
      </trkpt>
      <trkpt lat="48.11447" lon="0.01416">
        <ele>130.4</ele>
        <time>2016-06-19T13:18:47Z</time>
      </trkpt>
      <trkpt lat="48.11445" lon="0.01402">
        <ele>130.5</ele>
        <time>2016-06-19T13:18:54Z</time>
      </trkpt>
      <trkpt lat="48.11444" lon="0.01388">
        <ele>131.1</ele>
        <time>2016-06-19T13:19:03Z</time>
      </trkpt>
      <trkpt lat="48.11442" lon="0.01373">
        <ele>131.1</ele>
        <time>2016-06-19T13:19:10Z</time>
      </trkpt>
      <trkpt lat="48.11442" lon="0.0136">
        <ele>131.8</ele>
        <time>2016-06-19T13:19:20Z</time>
      </trkpt>
      <trkpt lat="48.1144" lon="0.01345">
        <ele>131.3</ele>
        <time>2016-06-19T13:19:27Z</time>
      </trkpt>
      <trkpt lat="48.11437" lon="0.01332">
        <ele>131.9</ele>
        <time>2016-06-19T13:19:34Z</time>
      </trkpt>
      <trkpt lat="48.11437" lon="0.01318">
        <ele>131.4</ele>
        <time>2016-06-19T13:19:42Z</time>
      </trkpt>
      <trkpt lat="48.11435" lon="0.01303">
        <ele>132</ele>
        <time>2016-06-19T13:19:50Z</time>
      </trkpt>
      <trkpt lat="48.11432" lon="0.01289">
        <ele>131.6</ele>
        <time>2016-06-19T13:19:58Z</time>
      </trkpt>
      <trkpt lat="48.11429" lon="0.01276">
        <ele>131.6</ele>
        <time>2016-06-19T13:20:04Z</time>
      </trkpt>
      <trkpt lat="48.11429" lon="0.01262">
        <ele>131.3</ele>
        <time>2016-06-19T13:20:12Z</time>
      </trkpt>
      <trkpt lat="48.11427" lon="0.01248">
        <ele>131.6</ele>
        <time>2016-06-19T13:20:19Z</time>
      </trkpt>
      <trkpt lat="48.11425" lon="0.01235">
        <ele>132.1</ele>
        <time>2016-06-19T13:20:28Z</time>
      </trkpt>
      <trkpt lat="48.1142" lon="0.01223">
        <ele>132.4</ele>
        <time>2016-06-19T13:20:36Z</time>
      </trkpt>
      <trkpt lat="48.11418" lon="0.0121">
        <ele>132.1</ele>
        <time>2016-06-19T13:20:45Z</time>
      </trkpt>
      <trkpt lat="48.11414" lon="0.01198">
        <ele>131.7</ele>
        <time>2016-06-19T13:20:51Z</time>
      </trkpt>
      <trkpt lat="48.11408" lon="0.01186">
        <ele>132.7</ele>
        <time>2016-06-19T13:20:59Z</time>
      </trkpt>
      <trkpt lat="48.114" lon="0.01176">
        <ele>132.8</ele>
        <time>2016-06-19T13:21:06Z</time>
      </trkpt>
      <trkpt lat="48.11393" lon="0.01167">
        <ele>132.8</ele>
        <time>2016-06-19T13:21:15Z</time>
      </trkpt>
      <trkpt lat="48.11386" lon="0.01156">
        <ele>133.5</ele>
        <time>2016-06-19T13:21:58Z</time>
      </trkpt>
      <trkpt lat="48.11392" lon="0.01146">
        <ele>134.3</ele>
        <time>2016-06-19T13:22:50Z</time>
      </trkpt>
      <trkpt lat="48.11397" lon="0.01134">
        <ele>134</ele>
        <time>2016-06-19T13:22:58Z</time>
      </trkpt>
      <trkpt lat="48.11401" lon="0.01121">
        <ele>134.5</ele>
        <time>2016-06-19T13:23:07Z</time>
      </trkpt>
      <trkpt lat="48.11403" lon="0.01108">
        <ele>133.7</ele>
        <time>2016-06-19T13:23:15Z</time>
      </trkpt>
      <trkpt lat="48.11412" lon="0.01112">
        <ele>134.5</ele>
        <time>2016-06-19T13:23:33Z</time>
      </trkpt>
      <trkpt lat="48.11404" lon="0.0112">
        <ele>136.1</ele>
        <time>2016-06-19T13:26:54Z</time>
      </trkpt>
      <trkpt lat="48.11408" lon="0.01104">
        <ele>135.8</ele>
        <time>2016-06-19T13:26:59Z</time>
      </trkpt>
      <trkpt lat="48.11407" lon="0.0109">
        <ele>134.3</ele>
        <time>2016-06-19T13:27:06Z</time>
      </trkpt>
      <trkpt lat="48.11409" lon="0.01076">
        <ele>134.1</ele>
        <time>2016-06-19T13:27:12Z</time>
      </trkpt>
      <trkpt lat="48.11416" lon="0.01065">
        <ele>134.4</ele>
        <time>2016-06-19T13:27:21Z</time>
      </trkpt>
      <trkpt lat="48.11416" lon="0.01051">
        <ele>134.1</ele>
        <time>2016-06-19T13:27:28Z</time>
      </trkpt>
      <trkpt lat="48.11417" lon="0.01037">
        <ele>134.8</ele>
        <time>2016-06-19T13:27:37Z</time>
      </trkpt>
      <trkpt lat="48.11417" lon="0.01021">
        <ele>134.7</ele>
        <time>2016-06-19T13:27:45Z</time>
      </trkpt>
      <trkpt lat="48.11417" lon="0.01007">
        <ele>135.1</ele>
        <time>2016-06-19T13:27:52Z</time>
      </trkpt>
      <trkpt lat="48.11414" lon="0.00994">
        <ele>136.2</ele>
        <time>2016-06-19T13:27:58Z</time>
      </trkpt>
      <trkpt lat="48.11412" lon="0.00981">
        <ele>136.4</ele>
        <time>2016-06-19T13:28:05Z</time>
      </trkpt>
      <trkpt lat="48.11411" lon="0.00967">
        <ele>136.6</ele>
        <time>2016-06-19T13:28:12Z</time>
      </trkpt>
      <trkpt lat="48.11412" lon="0.00953">
        <ele>137.5</ele>
        <time>2016-06-19T13:28:22Z</time>
      </trkpt>
      <trkpt lat="48.1141" lon="0.0094">
        <ele>137.5</ele>
        <time>2016-06-19T13:28:31Z</time>
      </trkpt>
      <trkpt lat="48.11407" lon="0.00926">
        <ele>136.5</ele>
        <time>2016-06-19T13:28:37Z</time>
      </trkpt>
      <trkpt lat="48.11402" lon="0.00912">
        <ele>136.7</ele>
        <time>2016-06-19T13:28:47Z</time>
      </trkpt>
      <trkpt lat="48.11398" lon="0.00898">
        <ele>137.3</ele>
        <time>2016-06-19T13:28:53Z</time>
      </trkpt>
      <trkpt lat="48.11395" lon="0.00885">
        <ele>137.6</ele>
        <time>2016-06-19T13:28:59Z</time>
      </trkpt>
      <trkpt lat="48.11391" lon="0.00872">
        <ele>137.5</ele>
        <time>2016-06-19T13:29:06Z</time>
      </trkpt>
      <trkpt lat="48.11388" lon="0.00859">
        <ele>137</ele>
        <time>2016-06-19T13:29:14Z</time>
      </trkpt>
      <trkpt lat="48.11386" lon="0.00846">
        <ele>138.7</ele>
        <time>2016-06-19T13:29:21Z</time>
      </trkpt>
      <trkpt lat="48.11384" lon="0.00832">
        <ele>138.3</ele>
        <time>2016-06-19T13:29:28Z</time>
      </trkpt>
      <trkpt lat="48.11382" lon="0.00817">
        <ele>138.1</ele>
        <time>2016-06-19T13:29:49Z</time>
      </trkpt>
      <trkpt lat="48.1138" lon="0.00802">
        <ele>137.8</ele>
        <time>2016-06-19T13:29:57Z</time>
      </trkpt>
      <trkpt lat="48.11379" lon="0.00788">
        <ele>137.8</ele>
        <time>2016-06-19T13:30:05Z</time>
      </trkpt>
      <trkpt lat="48.11378" lon="0.00774">
        <ele>138.4</ele>
        <time>2016-06-19T13:30:13Z</time>
      </trkpt>
      <trkpt lat="48.11376" lon="0.00761">
        <ele>137.5</ele>
        <time>2016-06-19T13:30:20Z</time>
      </trkpt>
      <trkpt lat="48.11375" lon="0.00747">
        <ele>138.4</ele>
        <time>2016-06-19T13:30:28Z</time>
      </trkpt>
      <trkpt lat="48.11373" lon="0.00733">
        <ele>138</ele>
        <time>2016-06-19T13:30:36Z</time>
      </trkpt>
      <trkpt lat="48.11372" lon="0.00718">
        <ele>139.1</ele>
        <time>2016-06-19T13:30:44Z</time>
      </trkpt>
      <trkpt lat="48.1137" lon="0.00704">
        <ele>139.1</ele>
        <time>2016-06-19T13:30:52Z</time>
      </trkpt>
      <trkpt lat="48.11368" lon="0.0069">
        <ele>139.7</ele>
        <time>2016-06-19T13:31:00Z</time>
      </trkpt>
      <trkpt lat="48.11367" lon="0.00677">
        <ele>139.4</ele>
        <time>2016-06-19T13:31:08Z</time>
      </trkpt>
      <trkpt lat="48.11365" lon="0.00663">
        <ele>140.6</ele>
        <time>2016-06-19T13:31:15Z</time>
      </trkpt>
      <trkpt lat="48.11363" lon="0.00648">
        <ele>141.1</ele>
        <time>2016-06-19T13:31:23Z</time>
      </trkpt>
      <trkpt lat="48.11361" lon="0.00633">
        <ele>141.1</ele>
        <time>2016-06-19T13:31:32Z</time>
      </trkpt>
      <trkpt lat="48.1136" lon="0.0062">
        <ele>141.3</ele>
        <time>2016-06-19T13:31:39Z</time>
      </trkpt>
      <trkpt lat="48.11356" lon="0.00605">
        <ele>141.6</ele>
        <time>2016-06-19T13:31:47Z</time>
      </trkpt>
      <trkpt lat="48.11351" lon="0.00593">
        <ele>141.7</ele>
        <time>2016-06-19T13:31:55Z</time>
      </trkpt>
      <trkpt lat="48.11345" lon="0.00582">
        <ele>142.2</ele>
        <time>2016-06-19T13:32:03Z</time>
      </trkpt>
      <trkpt lat="48.11339" lon="0.00571">
        <ele>143.4</ele>
        <time>2016-06-19T13:32:10Z</time>
      </trkpt>
      <trkpt lat="48.11332" lon="0.00562">
        <ele>143.4</ele>
        <time>2016-06-19T13:32:18Z</time>
      </trkpt>
      <trkpt lat="48.11322" lon="0.0056">
        <ele>145.1</ele>
        <time>2016-06-19T13:32:57Z</time>
      </trkpt>
      <trkpt lat="48.11312" lon="0.00558">
        <ele>143.9</ele>
        <time>2016-06-19T13:33:05Z</time>
      </trkpt>
      <trkpt lat="48.11303" lon="0.00555">
        <ele>144.5</ele>
        <time>2016-06-19T13:33:13Z</time>
      </trkpt>
      <trkpt lat="48.11294" lon="0.00551">
        <ele>144.9</ele>
        <time>2016-06-19T13:33:21Z</time>
      </trkpt>
      <trkpt lat="48.11285" lon="0.00549">
        <ele>144.6</ele>
        <time>2016-06-19T13:33:28Z</time>
      </trkpt>
      <trkpt lat="48.11275" lon="0.00546">
        <ele>144.8</ele>
        <time>2016-06-19T13:33:35Z</time>
      </trkpt>
      <trkpt lat="48.11265" lon="0.00542">
        <ele>144.7</ele>
        <time>2016-06-19T13:33:43Z</time>
      </trkpt>
      <trkpt lat="48.11255" lon="0.00538">
        <ele>144.7</ele>
        <time>2016-06-19T13:33:51Z</time>
      </trkpt>
      <trkpt lat="48.11246" lon="0.00532">
        <ele>144.9</ele>
        <time>2016-06-19T13:33:59Z</time>
      </trkpt>
      <trkpt lat="48.11237" lon="0.00526">
        <ele>145.3</ele>
        <time>2016-06-19T13:34:07Z</time>
      </trkpt>
      <trkpt lat="48.11229" lon="0.0052">
        <ele>145.9</ele>
        <time>2016-06-19T13:34:14Z</time>
      </trkpt>
      <trkpt lat="48.11221" lon="0.00511">
        <ele>145.4</ele>
        <time>2016-06-19T13:34:22Z</time>
      </trkpt>
      <trkpt lat="48.11214" lon="0.00503">
        <ele>146</ele>
        <time>2016-06-19T13:34:30Z</time>
      </trkpt>
      <trkpt lat="48.11206" lon="0.00496">
        <ele>146.1</ele>
        <time>2016-06-19T13:34:37Z</time>
      </trkpt>
      <trkpt lat="48.11199" lon="0.00489">
        <ele>146</ele>
        <time>2016-06-19T13:34:43Z</time>
      </trkpt>
      <trkpt lat="48.11191" lon="0.0048">
        <ele>146.6</ele>
        <time>2016-06-19T13:34:50Z</time>
      </trkpt>
      <trkpt lat="48.11183" lon="0.0047">
        <ele>146.2</ele>
        <time>2016-06-19T13:35:00Z</time>
      </trkpt>
      <trkpt lat="48.11175" lon="0.00461">
        <ele>147.3</ele>
        <time>2016-06-19T13:35:13Z</time>
      </trkpt>
      <trkpt lat="48.11168" lon="0.00453">
        <ele>146.6</ele>
        <time>2016-06-19T13:35:21Z</time>
      </trkpt>
      <trkpt lat="48.11159" lon="0.00445">
        <ele>148.1</ele>
        <time>2016-06-19T13:35:29Z</time>
      </trkpt>
      <trkpt lat="48.11151" lon="0.00436">
        <ele>147</ele>
        <time>2016-06-19T13:35:37Z</time>
      </trkpt>
      <trkpt lat="48.11144" lon="0.00427">
        <ele>147.8</ele>
        <time>2016-06-19T13:35:44Z</time>
      </trkpt>
      <trkpt lat="48.11136" lon="0.00419">
        <ele>147.3</ele>
        <time>2016-06-19T13:35:52Z</time>
      </trkpt>
      <trkpt lat="48.11128" lon="0.00411">
        <ele>148.2</ele>
        <time>2016-06-19T13:36:00Z</time>
      </trkpt>
      <trkpt lat="48.1112" lon="0.00402">
        <ele>147.8</ele>
        <time>2016-06-19T13:36:07Z</time>
      </trkpt>
      <trkpt lat="48.11112" lon="0.00394">
        <ele>148.4</ele>
        <time>2016-06-19T13:36:15Z</time>
      </trkpt>
      <trkpt lat="48.11104" lon="0.00387">
        <ele>148.4</ele>
        <time>2016-06-19T13:36:23Z</time>
      </trkpt>
      <trkpt lat="48.11095" lon="0.00379">
        <ele>147.8</ele>
        <time>2016-06-19T13:36:31Z</time>
      </trkpt>
      <trkpt lat="48.11086" lon="0.00373">
        <ele>148.3</ele>
        <time>2016-06-19T13:36:39Z</time>
      </trkpt>
      <trkpt lat="48.11077" lon="0.00369">
        <ele>148</ele>
        <time>2016-06-19T13:36:46Z</time>
      </trkpt>
      <trkpt lat="48.11068" lon="0.00365">
        <ele>148.5</ele>
        <time>2016-06-19T13:36:54Z</time>
      </trkpt>
      <trkpt lat="48.11058" lon="0.00363">
        <ele>148.5</ele>
        <time>2016-06-19T13:37:01Z</time>
      </trkpt>
      <trkpt lat="48.11049" lon="0.00359">
        <ele>148.1</ele>
        <time>2016-06-19T13:37:09Z</time>
      </trkpt>
      <trkpt lat="48.1104" lon="0.00355">
        <ele>147.6</ele>
        <time>2016-06-19T13:37:16Z</time>
      </trkpt>
      <trkpt lat="48.1103" lon="0.0035">
        <ele>147.6</ele>
        <time>2016-06-19T13:37:24Z</time>
      </trkpt>
      <trkpt lat="48.11021" lon="0.00344">
        <ele>147.7</ele>
        <time>2016-06-19T13:37:33Z</time>
      </trkpt>
      <trkpt lat="48.11017" lon="0.00332">
        <ele>147.5</ele>
        <time>2016-06-19T13:38:08Z</time>
      </trkpt>
      <trkpt lat="48.1102" lon="0.00318">
        <ele>147.7</ele>
        <time>2016-06-19T13:38:15Z</time>
      </trkpt>
      <trkpt lat="48.11024" lon="0.00306">
        <ele>147.3</ele>
        <time>2016-06-19T13:38:22Z</time>
      </trkpt>
      <trkpt lat="48.11029" lon="0.00294">
        <ele>147.4</ele>
        <time>2016-06-19T13:38:30Z</time>
      </trkpt>
      <trkpt lat="48.11035" lon="0.00283">
        <ele>147.3</ele>
        <time>2016-06-19T13:38:38Z</time>
      </trkpt>
      <trkpt lat="48.1104" lon="0.00272">
        <ele>147.4</ele>
        <time>2016-06-19T13:38:45Z</time>
      </trkpt>
      <trkpt lat="48.11046" lon="0.00261">
        <ele>147.4</ele>
        <time>2016-06-19T13:38:53Z</time>
      </trkpt>
      <trkpt lat="48.11051" lon="0.00249">
        <ele>147.4</ele>
        <time>2016-06-19T13:39:02Z</time>
      </trkpt>
      <trkpt lat="48.11057" lon="0.00237">
        <ele>147.1</ele>
        <time>2016-06-19T13:39:10Z</time>
      </trkpt>
      <trkpt lat="48.11064" lon="0.00227">
        <ele>147.7</ele>
        <time>2016-06-19T13:39:18Z</time>
      </trkpt>
      <trkpt lat="48.11068" lon="0.00215">
        <ele>148.1</ele>
        <time>2016-06-19T13:39:26Z</time>
      </trkpt>
      <trkpt lat="48.11074" lon="0.00202">
        <ele>147.9</ele>
        <time>2016-06-19T13:39:35Z</time>
      </trkpt>
      <trkpt lat="48.11079" lon="0.00188">
        <ele>148</ele>
        <time>2016-06-19T13:39:44Z</time>
      </trkpt>
      <trkpt lat="48.11085" lon="0.00178">
        <ele>148</ele>
        <time>2016-06-19T13:39:52Z</time>
      </trkpt>
      <trkpt lat="48.11092" lon="0.00167">
        <ele>148.1</ele>
        <time>2016-06-19T13:40:00Z</time>
      </trkpt>
      <trkpt lat="48.11096" lon="0.00155">
        <ele>148.8</ele>
        <time>2016-06-19T13:40:08Z</time>
      </trkpt>
      <trkpt lat="48.11102" lon="0.00143">
        <ele>149.3</ele>
        <time>2016-06-19T13:40:16Z</time>
      </trkpt>
      <trkpt lat="48.11108" lon="0.00132">
        <ele>149.2</ele>
        <time>2016-06-19T13:40:25Z</time>
      </trkpt>
      <trkpt lat="48.11114" lon="0.00122">
        <ele>148.8</ele>
        <time>2016-06-19T13:40:33Z</time>
      </trkpt>
      <trkpt lat="48.1112" lon="0.00109">
        <ele>148.8</ele>
        <time>2016-06-19T13:40:42Z</time>
      </trkpt>
      <trkpt lat="48.11126" lon="0.00097">
        <ele>149.2</ele>
        <time>2016-06-19T13:40:50Z</time>
      </trkpt>
      <trkpt lat="48.11129" lon="0.00084">
        <ele>149.2</ele>
        <time>2016-06-19T13:40:58Z</time>
      </trkpt>
      <trkpt lat="48.11135" lon="0.00072">
        <ele>148.6</ele>
        <time>2016-06-19T13:41:07Z</time>
      </trkpt>
      <trkpt lat="48.1114" lon="0.0006">
        <ele>148.7</ele>
        <time>2016-06-19T13:41:14Z</time>
      </trkpt>
      <trkpt lat="48.11144" lon="0.00049">
        <ele>148.9</ele>
        <time>2016-06-19T13:41:25Z</time>
      </trkpt>
      <trkpt lat="48.11149" lon="0.00036">
        <ele>148.3</ele>
        <time>2016-06-19T13:41:32Z</time>
      </trkpt>
      <trkpt lat="48.11156" lon="0.00025">
        <ele>148</ele>
        <time>2016-06-19T13:41:39Z</time>
      </trkpt>
      <trkpt lat="48.11161" lon="0.00012">
        <ele>147.7</ele>
        <time>2016-06-19T13:41:48Z</time>
      </trkpt>
      <trkpt lat="48.11166" lon="-0">
        <ele>147.4</ele>
        <time>2016-06-19T13:41:55Z</time>
      </trkpt>
      <trkpt lat="48.11171" lon="-0.00011">
        <ele>147.6</ele>
        <time>2016-06-19T13:42:03Z</time>
      </trkpt>
      <trkpt lat="48.11177" lon="-0.00022">
        <ele>147</ele>
        <time>2016-06-19T13:42:10Z</time>
      </trkpt>
      <trkpt lat="48.11182" lon="-0.00034">
        <ele>147.4</ele>
        <time>2016-06-19T13:42:17Z</time>
      </trkpt>
      <trkpt lat="48.11187" lon="-0.00045">
        <ele>148.1</ele>
        <time>2016-06-19T13:42:23Z</time>
      </trkpt>
      <trkpt lat="48.11192" lon="-0.00057">
        <ele>147</ele>
        <time>2016-06-19T13:42:30Z</time>
      </trkpt>
      <trkpt lat="48.11198" lon="-0.00069">
        <ele>147.1</ele>
        <time>2016-06-19T13:42:38Z</time>
      </trkpt>
      <trkpt lat="48.11202" lon="-0.00081">
        <ele>147.5</ele>
        <time>2016-06-19T13:42:49Z</time>
      </trkpt>
      <trkpt lat="48.11206" lon="-0.00093">
        <ele>147.1</ele>
        <time>2016-06-19T13:42:57Z</time>
      </trkpt>
      <trkpt lat="48.11211" lon="-0.00106">
        <ele>146.6</ele>
        <time>2016-06-19T13:43:04Z</time>
      </trkpt>
      <trkpt lat="48.11215" lon="-0.00118">
        <ele>146.8</ele>
        <time>2016-06-19T13:43:11Z</time>
      </trkpt>
      <trkpt lat="48.1122" lon="-0.0013">
        <ele>146.9</ele>
        <time>2016-06-19T13:43:18Z</time>
      </trkpt>
      <trkpt lat="48.11224" lon="-0.00143">
        <ele>147.3</ele>
        <time>2016-06-19T13:43:25Z</time>
      </trkpt>
      <trkpt lat="48.1123" lon="-0.00155">
        <ele>147.3</ele>
        <time>2016-06-19T13:43:33Z</time>
      </trkpt>
      <trkpt lat="48.11234" lon="-0.00167">
        <ele>146.9</ele>
        <time>2016-06-19T13:43:41Z</time>
      </trkpt>
      <trkpt lat="48.11239" lon="-0.0018">
        <ele>147.2</ele>
        <time>2016-06-19T13:43:49Z</time>
      </trkpt>
      <trkpt lat="48.11244" lon="-0.00192">
        <ele>146.5</ele>
        <time>2016-06-19T13:43:57Z</time>
      </trkpt>
      <trkpt lat="48.11249" lon="-0.00204">
        <ele>147.3</ele>
        <time>2016-06-19T13:44:05Z</time>
      </trkpt>
      <trkpt lat="48.11255" lon="-0.00215">
        <ele>147.6</ele>
        <time>2016-06-19T13:44:13Z</time>
      </trkpt>
      <trkpt lat="48.1126" lon="-0.00226">
        <ele>147.7</ele>
        <time>2016-06-19T13:44:22Z</time>
      </trkpt>
      <trkpt lat="48.11265" lon="-0.00238">
        <ele>147.7</ele>
        <time>2016-06-19T13:44:30Z</time>
      </trkpt>
      <trkpt lat="48.11271" lon="-0.00248">
        <ele>148.1</ele>
        <time>2016-06-19T13:44:38Z</time>
      </trkpt>
      <trkpt lat="48.11277" lon="-0.0026">
        <ele>148.5</ele>
        <time>2016-06-19T13:44:46Z</time>
      </trkpt>
      <trkpt lat="48.11283" lon="-0.00272">
        <ele>148.3</ele>
        <time>2016-06-19T13:44:54Z</time>
      </trkpt>
      <trkpt lat="48.11289" lon="-0.00284">
        <ele>148.3</ele>
        <time>2016-06-19T13:45:03Z</time>
      </trkpt>
      <trkpt lat="48.11295" lon="-0.00296">
        <ele>148</ele>
        <time>2016-06-19T13:45:11Z</time>
      </trkpt>
      <trkpt lat="48.113" lon="-0.00307">
        <ele>147.8</ele>
        <time>2016-06-19T13:45:19Z</time>
      </trkpt>
      <trkpt lat="48.11305" lon="-0.0032">
        <ele>148.7</ele>
        <time>2016-06-19T13:45:28Z</time>
      </trkpt>
      <trkpt lat="48.11312" lon="-0.00331">
        <ele>148.5</ele>
        <time>2016-06-19T13:45:36Z</time>
      </trkpt>
      <trkpt lat="48.11318" lon="-0.00342">
        <ele>148.5</ele>
        <time>2016-06-19T13:45:45Z</time>
      </trkpt>
      <trkpt lat="48.11324" lon="-0.00353">
        <ele>148.6</ele>
        <time>2016-06-19T13:45:53Z</time>
      </trkpt>
      <trkpt lat="48.11331" lon="-0.00363">
        <ele>148.7</ele>
        <time>2016-06-19T13:46:01Z</time>
      </trkpt>
      <trkpt lat="48.11338" lon="-0.00372">
        <ele>149.6</ele>
        <time>2016-06-19T13:46:08Z</time>
      </trkpt>
      <trkpt lat="48.11344" lon="-0.00383">
        <ele>150.2</ele>
        <time>2016-06-19T13:46:16Z</time>
      </trkpt>
      <trkpt lat="48.11351" lon="-0.00395">
        <ele>150.4</ele>
        <time>2016-06-19T13:46:24Z</time>
      </trkpt>
      <trkpt lat="48.11358" lon="-0.00404">
        <ele>150</ele>
        <time>2016-06-19T13:46:35Z</time>
      </trkpt>
      <trkpt lat="48.11365" lon="-0.00415">
        <ele>149.8</ele>
        <time>2016-06-19T13:46:44Z</time>
      </trkpt>
      <trkpt lat="48.11371" lon="-0.00426">
        <ele>150.7</ele>
        <time>2016-06-19T13:46:54Z</time>
      </trkpt>
      <trkpt lat="48.11378" lon="-0.00435">
        <ele>151.6</ele>
        <time>2016-06-19T13:47:02Z</time>
      </trkpt>
      <trkpt lat="48.11385" lon="-0.00445">
        <ele>151.3</ele>
        <time>2016-06-19T13:47:10Z</time>
      </trkpt>
      <trkpt lat="48.11391" lon="-0.00455">
        <ele>151.1</ele>
        <time>2016-06-19T13:47:19Z</time>
      </trkpt>
      <trkpt lat="48.11398" lon="-0.00465">
        <ele>151.4</ele>
        <time>2016-06-19T13:47:27Z</time>
      </trkpt>
      <trkpt lat="48.11405" lon="-0.00475">
        <ele>151.5</ele>
        <time>2016-06-19T13:47:35Z</time>
      </trkpt>
      <trkpt lat="48.11412" lon="-0.00484">
        <ele>151.5</ele>
        <time>2016-06-19T13:47:42Z</time>
      </trkpt>
      <trkpt lat="48.11421" lon="-0.0049">
        <ele>152.5</ele>
        <time>2016-06-19T13:48:13Z</time>
      </trkpt>
      <trkpt lat="48.11428" lon="-0.005">
        <ele>152.3</ele>
        <time>2016-06-19T13:48:20Z</time>
      </trkpt>
      <trkpt lat="48.11436" lon="-0.0051">
        <ele>152.5</ele>
        <time>2016-06-19T13:48:28Z</time>
      </trkpt>
      <trkpt lat="48.11442" lon="-0.00522">
        <ele>151.7</ele>
        <time>2016-06-19T13:48:36Z</time>
      </trkpt>
      <trkpt lat="48.11448" lon="-0.00533">
        <ele>151.7</ele>
        <time>2016-06-19T13:48:44Z</time>
      </trkpt>
      <trkpt lat="48.11454" lon="-0.00544">
        <ele>151.3</ele>
        <time>2016-06-19T13:48:51Z</time>
      </trkpt>
      <trkpt lat="48.11459" lon="-0.00557">
        <ele>151.1</ele>
        <time>2016-06-19T13:48:58Z</time>
      </trkpt>
      <trkpt lat="48.11465" lon="-0.00568">
        <ele>151.5</ele>
        <time>2016-06-19T13:49:06Z</time>
      </trkpt>
      <trkpt lat="48.1147" lon="-0.00579">
        <ele>150.7</ele>
        <time>2016-06-19T13:49:13Z</time>
      </trkpt>
      <trkpt lat="48.11475" lon="-0.00591">
        <ele>151.3</ele>
        <time>2016-06-19T13:49:20Z</time>
      </trkpt>
      <trkpt lat="48.1148" lon="-0.00604">
        <ele>150.9</ele>
        <time>2016-06-19T13:49:28Z</time>
      </trkpt>
      <trkpt lat="48.11485" lon="-0.00617">
        <ele>150.5</ele>
        <time>2016-06-19T13:49:36Z</time>
      </trkpt>
      <trkpt lat="48.11491" lon="-0.0063">
        <ele>150.8</ele>
        <time>2016-06-19T13:49:43Z</time>
      </trkpt>
      <trkpt lat="48.11497" lon="-0.00641">
        <ele>150.2</ele>
        <time>2016-06-19T13:49:50Z</time>
      </trkpt>
      <trkpt lat="48.11502" lon="-0.00653">
        <ele>149.9</ele>
        <time>2016-06-19T13:49:58Z</time>
      </trkpt>
      <trkpt lat="48.11507" lon="-0.00666">
        <ele>150.1</ele>
        <time>2016-06-19T13:50:06Z</time>
      </trkpt>
      <trkpt lat="48.11512" lon="-0.00677">
        <ele>149.3</ele>
        <time>2016-06-19T13:50:13Z</time>
      </trkpt>
      <trkpt lat="48.11518" lon="-0.00688">
        <ele>150.2</ele>
        <time>2016-06-19T13:50:20Z</time>
      </trkpt>
      <trkpt lat="48.11524" lon="-0.00698">
        <ele>149.2</ele>
        <time>2016-06-19T13:50:28Z</time>
      </trkpt>
      <trkpt lat="48.11531" lon="-0.00708">
        <ele>149</ele>
        <time>2016-06-19T13:50:36Z</time>
      </trkpt>
      <trkpt lat="48.11538" lon="-0.00718">
        <ele>148.7</ele>
        <time>2016-06-19T13:50:44Z</time>
      </trkpt>
      <trkpt lat="48.11542" lon="-0.0073">
        <ele>148.7</ele>
        <time>2016-06-19T13:50:50Z</time>
      </trkpt>
      <trkpt lat="48.11547" lon="-0.00743">
        <ele>149.5</ele>
        <time>2016-06-19T13:50:56Z</time>
      </trkpt>
      <trkpt lat="48.11548" lon="-0.00759">
        <ele>149.6</ele>
        <time>2016-06-19T13:51:02Z</time>
      </trkpt>
      <trkpt lat="48.11555" lon="-0.00768">
        <ele>149</ele>
        <time>2016-06-19T13:51:10Z</time>
      </trkpt>
      <trkpt lat="48.11561" lon="-0.00778">
        <ele>148</ele>
        <time>2016-06-19T13:51:18Z</time>
      </trkpt>
      <trkpt lat="48.11567" lon="-0.00791">
        <ele>147.3</ele>
        <time>2016-06-19T13:51:26Z</time>
      </trkpt>
      <trkpt lat="48.11573" lon="-0.00802">
        <ele>147.5</ele>
        <time>2016-06-19T13:51:34Z</time>
      </trkpt>
      <trkpt lat="48.11576" lon="-0.00816">
        <ele>147.8</ele>
        <time>2016-06-19T13:51:41Z</time>
      </trkpt>
      <trkpt lat="48.11581" lon="-0.00827">
        <ele>147</ele>
        <time>2016-06-19T13:51:49Z</time>
      </trkpt>
      <trkpt lat="48.11587" lon="-0.00838">
        <ele>146.8</ele>
        <time>2016-06-19T13:51:56Z</time>
      </trkpt>
      <trkpt lat="48.11592" lon="-0.00851">
        <ele>147.3</ele>
        <time>2016-06-19T13:52:03Z</time>
      </trkpt>
      <trkpt lat="48.11599" lon="-0.00862">
        <ele>146.7</ele>
        <time>2016-06-19T13:52:11Z</time>
      </trkpt>
      <trkpt lat="48.11602" lon="-0.00875">
        <ele>146.1</ele>
        <time>2016-06-19T13:52:18Z</time>
      </trkpt>
      <trkpt lat="48.11607" lon="-0.00887">
        <ele>146</ele>
        <time>2016-06-19T13:52:25Z</time>
      </trkpt>
      <trkpt lat="48.11613" lon="-0.009">
        <ele>145.7</ele>
        <time>2016-06-19T13:52:34Z</time>
      </trkpt>
      <trkpt lat="48.11619" lon="-0.00912">
        <ele>145.4</ele>
        <time>2016-06-19T13:52:42Z</time>
      </trkpt>
      <trkpt lat="48.11623" lon="-0.00927">
        <ele>145.2</ele>
        <time>2016-06-19T13:52:49Z</time>
      </trkpt>
      <trkpt lat="48.11628" lon="-0.00938">
        <ele>145.3</ele>
        <time>2016-06-19T13:52:56Z</time>
      </trkpt>
      <trkpt lat="48.11633" lon="-0.0095">
        <ele>144.3</ele>
        <time>2016-06-19T13:53:04Z</time>
      </trkpt>
      <trkpt lat="48.11638" lon="-0.00962">
        <ele>143.7</ele>
        <time>2016-06-19T13:53:13Z</time>
      </trkpt>
      <trkpt lat="48.11639" lon="-0.00976">
        <ele>142.6</ele>
        <time>2016-06-19T13:53:21Z</time>
      </trkpt>
      <trkpt lat="48.11646" lon="-0.00988">
        <ele>142.4</ele>
        <time>2016-06-19T13:53:28Z</time>
      </trkpt>
      <trkpt lat="48.11651" lon="-0.00999">
        <ele>142.2</ele>
        <time>2016-06-19T13:53:35Z</time>
      </trkpt>
      <trkpt lat="48.11656" lon="-0.01011">
        <ele>142</ele>
        <time>2016-06-19T13:53:43Z</time>
      </trkpt>
      <trkpt lat="48.11661" lon="-0.01024">
        <ele>141.2</ele>
        <time>2016-06-19T13:53:51Z</time>
      </trkpt>
      <trkpt lat="48.11666" lon="-0.01036">
        <ele>141.5</ele>
        <time>2016-06-19T13:53:59Z</time>
      </trkpt>
      <trkpt lat="48.11671" lon="-0.0105">
        <ele>140.6</ele>
        <time>2016-06-19T13:54:06Z</time>
      </trkpt>
      <trkpt lat="48.11675" lon="-0.01062">
        <ele>141.1</ele>
        <time>2016-06-19T13:54:13Z</time>
      </trkpt>
      <trkpt lat="48.11678" lon="-0.01076">
        <ele>141.1</ele>
        <time>2016-06-19T13:54:20Z</time>
      </trkpt>
      <trkpt lat="48.11684" lon="-0.01086">
        <ele>141.2</ele>
        <time>2016-06-19T13:54:27Z</time>
      </trkpt>
      <trkpt lat="48.11687" lon="-0.011">
        <ele>141.3</ele>
        <time>2016-06-19T13:54:34Z</time>
      </trkpt>
      <trkpt lat="48.11693" lon="-0.01112">
        <ele>141.5</ele>
        <time>2016-06-19T13:54:41Z</time>
      </trkpt>
      <trkpt lat="48.11697" lon="-0.01125">
        <ele>141</ele>
        <time>2016-06-19T13:54:48Z</time>
      </trkpt>
      <trkpt lat="48.11702" lon="-0.01136">
        <ele>140.5</ele>
        <time>2016-06-19T13:54:56Z</time>
      </trkpt>
      <trkpt lat="48.1171" lon="-0.01145">
        <ele>140.3</ele>
        <time>2016-06-19T13:55:04Z</time>
      </trkpt>
      <trkpt lat="48.11713" lon="-0.01159">
        <ele>140.3</ele>
        <time>2016-06-19T13:58:07Z</time>
      </trkpt>
      <trkpt lat="48.1172" lon="-0.01169">
        <ele>140.5</ele>
        <time>2016-06-19T13:58:15Z</time>
      </trkpt>
      <trkpt lat="48.11725" lon="-0.01181">
        <ele>139.5</ele>
        <time>2016-06-19T13:58:22Z</time>
      </trkpt>
      <trkpt lat="48.11731" lon="-0.01192">
        <ele>139.7</ele>
        <time>2016-06-19T13:58:30Z</time>
      </trkpt>
      <trkpt lat="48.11738" lon="-0.01202">
        <ele>139.8</ele>
        <time>2016-06-19T13:58:38Z</time>
      </trkpt>
      <trkpt lat="48.11744" lon="-0.01213">
        <ele>139.5</ele>
        <time>2016-06-19T13:58:45Z</time>
      </trkpt>
      <trkpt lat="48.11751" lon="-0.01223">
        <ele>139.3</ele>
        <time>2016-06-19T13:58:53Z</time>
      </trkpt>
      <trkpt lat="48.11757" lon="-0.01235">
        <ele>139.1</ele>
        <time>2016-06-19T13:59:01Z</time>
      </trkpt>
      <trkpt lat="48.11763" lon="-0.01245">
        <ele>138.5</ele>
        <time>2016-06-19T13:59:08Z</time>
      </trkpt>
      <trkpt lat="48.1177" lon="-0.01254">
        <ele>138.2</ele>
        <time>2016-06-19T13:59:15Z</time>
      </trkpt>
      <trkpt lat="48.11776" lon="-0.01265">
        <ele>138.3</ele>
        <time>2016-06-19T13:59:23Z</time>
      </trkpt>
      <trkpt lat="48.11783" lon="-0.01274">
        <ele>138.1</ele>
        <time>2016-06-19T13:59:29Z</time>
      </trkpt>
      <trkpt lat="48.1179" lon="-0.01283">
        <ele>138</ele>
        <time>2016-06-19T13:59:35Z</time>
      </trkpt>
      <trkpt lat="48.11798" lon="-0.01294">
        <ele>137.9</ele>
        <time>2016-06-19T13:59:43Z</time>
      </trkpt>
      <trkpt lat="48.11805" lon="-0.01304">
        <ele>137.2</ele>
        <time>2016-06-19T13:59:51Z</time>
      </trkpt>
      <trkpt lat="48.11812" lon="-0.01312">
        <ele>137</ele>
        <time>2016-06-19T13:59:58Z</time>
      </trkpt>
      <trkpt lat="48.11819" lon="-0.01323">
        <ele>136.7</ele>
        <time>2016-06-19T14:00:07Z</time>
      </trkpt>
      <trkpt lat="48.11826" lon="-0.01332">
        <ele>136.8</ele>
        <time>2016-06-19T14:00:14Z</time>
      </trkpt>
      <trkpt lat="48.11834" lon="-0.01339">
        <ele>136.3</ele>
        <time>2016-06-19T14:00:20Z</time>
      </trkpt>
      <trkpt lat="48.11842" lon="-0.01344">
        <ele>136.9</ele>
        <time>2016-06-19T14:00:28Z</time>
      </trkpt>
      <trkpt lat="48.11852" lon="-0.01348">
        <ele>136.8</ele>
        <time>2016-06-19T14:00:34Z</time>
      </trkpt>
      <trkpt lat="48.11862" lon="-0.01352">
        <ele>136.1</ele>
        <time>2016-06-19T14:00:42Z</time>
      </trkpt>
      <trkpt lat="48.11871" lon="-0.01355">
        <ele>135.9</ele>
        <time>2016-06-19T14:00:49Z</time>
      </trkpt>
      <trkpt lat="48.1188" lon="-0.01359">
        <ele>135.6</ele>
        <time>2016-06-19T14:00:56Z</time>
      </trkpt>
      <trkpt lat="48.11889" lon="-0.01364">
        <ele>135.8</ele>
        <time>2016-06-19T14:01:03Z</time>
      </trkpt>
      <trkpt lat="48.11898" lon="-0.01369">
        <ele>135</ele>
        <time>2016-06-19T14:01:11Z</time>
      </trkpt>
      <trkpt lat="48.11908" lon="-0.01374">
        <ele>134.5</ele>
        <time>2016-06-19T14:01:19Z</time>
      </trkpt>
      <trkpt lat="48.11917" lon="-0.01379">
        <ele>135.2</ele>
        <time>2016-06-19T14:01:27Z</time>
      </trkpt>
      <trkpt lat="48.11926" lon="-0.01382">
        <ele>135.3</ele>
        <time>2016-06-19T14:01:34Z</time>
      </trkpt>
      <trkpt lat="48.11936" lon="-0.01387">
        <ele>134.5</ele>
        <time>2016-06-19T14:01:43Z</time>
      </trkpt>
      <trkpt lat="48.11945" lon="-0.01391">
        <ele>134</ele>
        <time>2016-06-19T14:01:50Z</time>
      </trkpt>
      <trkpt lat="48.11955" lon="-0.01396">
        <ele>134.3</ele>
        <time>2016-06-19T14:01:59Z</time>
      </trkpt>
      <trkpt lat="48.11963" lon="-0.01402">
        <ele>133.9</ele>
        <time>2016-06-19T14:02:07Z</time>
      </trkpt>
      <trkpt lat="48.11971" lon="-0.01408">
        <ele>134</ele>
        <time>2016-06-19T14:02:13Z</time>
      </trkpt>
      <trkpt lat="48.11979" lon="-0.01415">
        <ele>133.6</ele>
        <time>2016-06-19T14:02:19Z</time>
      </trkpt>
      <trkpt lat="48.11988" lon="-0.01423">
        <ele>133.9</ele>
        <time>2016-06-19T14:02:28Z</time>
      </trkpt>
      <trkpt lat="48.11996" lon="-0.01433">
        <ele>133.9</ele>
        <time>2016-06-19T14:02:35Z</time>
      </trkpt>
      <trkpt lat="48.12003" lon="-0.01442">
        <ele>133.8</ele>
        <time>2016-06-19T14:02:42Z</time>
      </trkpt>
      <trkpt lat="48.1201" lon="-0.01452">
        <ele>133.2</ele>
        <time>2016-06-19T14:03:14Z</time>
      </trkpt>
      <trkpt lat="48.12017" lon="-0.01461">
        <ele>133.2</ele>
        <time>2016-06-19T14:03:21Z</time>
      </trkpt>
      <trkpt lat="48.12023" lon="-0.01472">
        <ele>132.6</ele>
        <time>2016-06-19T14:03:28Z</time>
      </trkpt>
      <trkpt lat="48.12031" lon="-0.01482">
        <ele>132.8</ele>
        <time>2016-06-19T14:03:35Z</time>
      </trkpt>
      <trkpt lat="48.12037" lon="-0.01493">
        <ele>132.2</ele>
        <time>2016-06-19T14:03:43Z</time>
      </trkpt>
      <trkpt lat="48.12042" lon="-0.01505">
        <ele>132.3</ele>
        <time>2016-06-19T14:03:49Z</time>
      </trkpt>
      <trkpt lat="48.12048" lon="-0.01518">
        <ele>132.6</ele>
        <time>2016-06-19T14:03:57Z</time>
      </trkpt>
      <trkpt lat="48.12053" lon="-0.01529">
        <ele>132</ele>
        <time>2016-06-19T14:04:04Z</time>
      </trkpt>
      <trkpt lat="48.12057" lon="-0.01541">
        <ele>132.1</ele>
        <time>2016-06-19T14:05:23Z</time>
      </trkpt>
      <trkpt lat="48.12066" lon="-0.01546">
        <ele>131.9</ele>
        <time>2016-06-19T14:05:34Z</time>
      </trkpt>
      <trkpt lat="48.12074" lon="-0.0155">
        <ele>131.9</ele>
        <time>2016-06-19T14:05:45Z</time>
      </trkpt>
      <trkpt lat="48.12082" lon="-0.01559">
        <ele>131.6</ele>
        <time>2016-06-19T14:06:02Z</time>
      </trkpt>
      <trkpt lat="48.12091" lon="-0.01562">
        <ele>132.1</ele>
        <time>2016-06-19T14:06:11Z</time>
      </trkpt>
      <trkpt lat="48.121" lon="-0.01567">
        <ele>132</ele>
        <time>2016-06-19T14:06:20Z</time>
      </trkpt>
      <trkpt lat="48.1211" lon="-0.0157">
        <ele>131.8</ele>
        <time>2016-06-19T14:06:28Z</time>
      </trkpt>
      <trkpt lat="48.12119" lon="-0.01574">
        <ele>131.6</ele>
        <time>2016-06-19T14:06:39Z</time>
      </trkpt>
      <trkpt lat="48.12127" lon="-0.01581">
        <ele>132.2</ele>
        <time>2016-06-19T14:06:47Z</time>
      </trkpt>
      <trkpt lat="48.12132" lon="-0.01593">
        <ele>131.6</ele>
        <time>2016-06-19T14:06:52Z</time>
      </trkpt>
      <trkpt lat="48.1214" lon="-0.01602">
        <ele>132.5</ele>
        <time>2016-06-19T14:06:59Z</time>
      </trkpt>
      <trkpt lat="48.12143" lon="-0.01616">
        <ele>131.5</ele>
        <time>2016-06-19T14:07:08Z</time>
      </trkpt>
      <trkpt lat="48.12149" lon="-0.01628">
        <ele>131.1</ele>
        <time>2016-06-19T14:07:16Z</time>
      </trkpt>
      <trkpt lat="48.12157" lon="-0.01635">
        <ele>130.8</ele>
        <time>2016-06-19T14:07:22Z</time>
      </trkpt>
      <trkpt lat="48.12162" lon="-0.01648">
        <ele>130.9</ele>
        <time>2016-06-19T14:07:30Z</time>
      </trkpt>
      <trkpt lat="48.12168" lon="-0.01659">
        <ele>131.6</ele>
        <time>2016-06-19T14:07:36Z</time>
      </trkpt>
      <trkpt lat="48.12173" lon="-0.01672">
        <ele>131.1</ele>
        <time>2016-06-19T14:07:44Z</time>
      </trkpt>
      <trkpt lat="48.12174" lon="-0.01689">
        <ele>130.7</ele>
        <time>2016-06-19T14:07:50Z</time>
      </trkpt>
      <trkpt lat="48.1217" lon="-0.01703">
        <ele>129.7</ele>
        <time>2016-06-19T14:08:01Z</time>
      </trkpt>
      <trkpt lat="48.12174" lon="-0.01716">
        <ele>130.4</ele>
        <time>2016-06-19T14:08:23Z</time>
      </trkpt>
      <trkpt lat="48.1218" lon="-0.01726">
        <ele>129.7</ele>
        <time>2016-06-19T14:08:34Z</time>
      </trkpt>
      <trkpt lat="48.12187" lon="-0.01737">
        <ele>128.6</ele>
        <time>2016-06-19T14:08:48Z</time>
      </trkpt>
      <trkpt lat="48.12193" lon="-0.01749">
        <ele>128.1</ele>
        <time>2016-06-19T14:08:55Z</time>
      </trkpt>
      <trkpt lat="48.12197" lon="-0.01762">
        <ele>128.3</ele>
        <time>2016-06-19T14:09:03Z</time>
      </trkpt>
      <trkpt lat="48.12203" lon="-0.01772">
        <ele>128.7</ele>
        <time>2016-06-19T14:09:09Z</time>
      </trkpt>
      <trkpt lat="48.12209" lon="-0.01782">
        <ele>128.4</ele>
        <time>2016-06-19T14:09:16Z</time>
      </trkpt>
      <trkpt lat="48.12216" lon="-0.01794">
        <ele>128</ele>
        <time>2016-06-19T14:09:25Z</time>
      </trkpt>
      <trkpt lat="48.1222" lon="-0.01806">
        <ele>126.6</ele>
        <time>2016-06-19T14:09:33Z</time>
      </trkpt>
      <trkpt lat="48.12226" lon="-0.01817">
        <ele>125.3</ele>
        <time>2016-06-19T14:09:40Z</time>
      </trkpt>
      <trkpt lat="48.12216" lon="-0.01822">
        <ele>124.8</ele>
        <time>2016-06-19T14:10:07Z</time>
      </trkpt>
      <trkpt lat="48.12209" lon="-0.01831">
        <ele>125</ele>
        <time>2016-06-19T14:10:14Z</time>
      </trkpt>
      <trkpt lat="48.12204" lon="-0.01842">
        <ele>124.6</ele>
        <time>2016-06-19T14:10:23Z</time>
      </trkpt>
      <trkpt lat="48.12198" lon="-0.01853">
        <ele>123.9</ele>
        <time>2016-06-19T14:10:30Z</time>
      </trkpt>
      <trkpt lat="48.12193" lon="-0.01864">
        <ele>124.7</ele>
        <time>2016-06-19T14:10:36Z</time>
      </trkpt>
      <trkpt lat="48.12191" lon="-0.01879">
        <ele>123.5</ele>
        <time>2016-06-19T14:10:44Z</time>
      </trkpt>
      <trkpt lat="48.12194" lon="-0.01893">
        <ele>123.2</ele>
        <time>2016-06-19T14:10:51Z</time>
      </trkpt>
      <trkpt lat="48.12194" lon="-0.01908">
        <ele>122.2</ele>
        <time>2016-06-19T14:10:58Z</time>
      </trkpt>
      <trkpt lat="48.12192" lon="-0.01924">
        <ele>121.4</ele>
        <time>2016-06-19T14:11:03Z</time>
      </trkpt>
      <trkpt lat="48.12191" lon="-0.01938">
        <ele>121.3</ele>
        <time>2016-06-19T14:11:15Z</time>
      </trkpt>
      <trkpt lat="48.12192" lon="-0.01952">
        <ele>120.2</ele>
        <time>2016-06-19T14:11:23Z</time>
      </trkpt>
      <trkpt lat="48.12194" lon="-0.01966">
        <ele>120.2</ele>
        <time>2016-06-19T14:11:32Z</time>
      </trkpt>
      <trkpt lat="48.12194" lon="-0.01981">
        <ele>120.6</ele>
        <time>2016-06-19T14:11:42Z</time>
      </trkpt>
      <trkpt lat="48.12193" lon="-0.01995">
        <ele>120</ele>
        <time>2016-06-19T14:11:50Z</time>
      </trkpt>
      <trkpt lat="48.12191" lon="-0.0201">
        <ele>119.9</ele>
        <time>2016-06-19T14:11:58Z</time>
      </trkpt>
      <trkpt lat="48.12189" lon="-0.02024">
        <ele>119.4</ele>
        <time>2016-06-19T14:12:07Z</time>
      </trkpt>
      <trkpt lat="48.12185" lon="-0.02038">
        <ele>119.6</ele>
        <time>2016-06-19T14:12:15Z</time>
      </trkpt>
      <trkpt lat="48.1218" lon="-0.0205">
        <ele>119.1</ele>
        <time>2016-06-19T14:12:27Z</time>
      </trkpt>
      <trkpt lat="48.12171" lon="-0.02054">
        <ele>119.2</ele>
        <time>2016-06-19T14:12:36Z</time>
      </trkpt>
      <trkpt lat="48.12161" lon="-0.0206">
        <ele>119.1</ele>
        <time>2016-06-19T14:12:46Z</time>
      </trkpt>
      <trkpt lat="48.12151" lon="-0.02059">
        <ele>119.2</ele>
        <time>2016-06-19T14:12:56Z</time>
      </trkpt>
      <trkpt lat="48.12142" lon="-0.0206">
        <ele>119.4</ele>
        <time>2016-06-19T14:15:28Z</time>
      </trkpt>
      <trkpt lat="48.12137" lon="-0.02072">
        <ele>119.4</ele>
        <time>2016-06-19T14:15:33Z</time>
      </trkpt>
      <trkpt lat="48.12129" lon="-0.0208">
        <ele>119.2</ele>
        <time>2016-06-19T14:15:40Z</time>
      </trkpt>
      <trkpt lat="48.1212" lon="-0.02074">
        <ele>119.9</ele>
        <time>2016-06-19T14:15:51Z</time>
      </trkpt>
      <trkpt lat="48.12113" lon="-0.02064">
        <ele>119.7</ele>
        <time>2016-06-19T14:15:57Z</time>
      </trkpt>
      <trkpt lat="48.12106" lon="-0.02054">
        <ele>120.1</ele>
        <time>2016-06-19T14:16:04Z</time>
      </trkpt>
      <trkpt lat="48.12105" lon="-0.0204">
        <ele>120</ele>
        <time>2016-06-19T14:16:12Z</time>
      </trkpt>
      <trkpt lat="48.12108" lon="-0.02054">
        <ele>120.2</ele>
        <time>2016-06-19T14:16:37Z</time>
      </trkpt>
      <trkpt lat="48.12114" lon="-0.02065">
        <ele>120.1</ele>
        <time>2016-06-19T14:16:45Z</time>
      </trkpt>
      <trkpt lat="48.1212" lon="-0.02075">
        <ele>120</ele>
        <time>2016-06-19T14:16:52Z</time>
      </trkpt>
      <trkpt lat="48.1213" lon="-0.02077">
        <ele>119.4</ele>
        <time>2016-06-19T14:16:59Z</time>
      </trkpt>
      <trkpt lat="48.12138" lon="-0.02069">
        <ele>119.3</ele>
        <time>2016-06-19T14:17:05Z</time>
      </trkpt>
      <trkpt lat="48.12146" lon="-0.02059">
        <ele>119.2</ele>
        <time>2016-06-19T14:17:13Z</time>
      </trkpt>
      <trkpt lat="48.12148" lon="-0.02053">
        <ele>121.5</ele>
        <time>2016-06-19T14:17:51Z</time>
      </trkpt>
    </trkseg>
  </trk>
</gpx>